Provisional Data: Portage Creek near Emporium, PA


Please select a monitoring station.
Please select start date.
Please select start date.

Toggle Unit: C/F Toggle Unit: C/F
Sample Time Temperature (C) Temperature (F) Specific Conductivity (mS/cm) pH   Turbidity (NTU+) DO (mg/L)
10/22/2021 12:00:00 AM 13.77 56.786 0.085 7.3 6.19 9.44
10/22/2021 12:15:00 AM 13.72 56.696 0.085 7.33 5.93 9.47
10/22/2021 12:30:00 AM 13.66 56.588 0.084 7.29 6.02 9.49
10/22/2021 12:45:00 AM 13.59 56.462 0.084 7.32 6.12 9.52
10/22/2021 1:00:00 AM 13.53 56.354 0.084 7.28 7.32 9.55
10/22/2021 1:15:00 AM 13.46 56.228 0.083 7.32 10.61 9.57
10/22/2021 1:30:00 AM 13.38 56.084 0.082 7.3 13.69 9.61
10/22/2021 1:45:00 AM 13.29 55.922 0.081 7.3 14.37 9.63
10/22/2021 2:00:00 AM 13.22 55.796 0.08 7.29 15.06 9.66
10/22/2021 2:15:00 AM 13.14 55.652 0.08 7.29 12.34 9.68
10/22/2021 2:30:00 AM 13.09 55.562 0.079 7.29 11.58 9.7
10/22/2021 2:45:00 AM 13.03 55.454 0.078 7.3 10.64 9.72
10/22/2021 3:00:00 AM 12.98 55.364 0.078 7.31 10.13 9.74
10/22/2021 3:15:00 AM 12.94 55.292 0.077 7.29 9.88 9.77
10/22/2021 3:30:00 AM 12.9 55.22 0.077 7.3 9.64 9.79
10/22/2021 3:45:00 AM 12.86 55.148 0.076 7.31 10.21 9.81
10/22/2021 4:00:00 AM 12.82 55.076 0.076 7.27 11.01 9.81
10/22/2021 4:15:00 AM 12.78 55.004 0.075 7.28 11.52 9.82
10/22/2021 4:30:00 AM 12.74 54.932 0.074 7.29 12.77 9.84
10/22/2021 4:45:00 AM 12.71 54.878 0.074 7.26 12.47 9.85
10/22/2021 5:00:00 AM 12.68 54.824 0.073 7.3 11.83 9.85
10/22/2021 5:15:00 AM 12.65 54.77 0.073 7.27 12.38 9.87
10/22/2021 5:30:00 AM 12.61 54.698 0.073 7.29 11.52 9.89
10/22/2021 5:45:00 AM 12.58 54.644 0.074 7.3 11.54 9.9
10/22/2021 6:00:00 AM 12.56 54.608 0.074 7.3 10.97 9.9
10/22/2021 6:15:00 AM 12.52 54.536 0.074 7.26 10.93 9.91
10/22/2021 6:30:00 AM 12.49 54.482 0.074 7.28 10.62 9.92
10/22/2021 6:45:00 AM 12.47 54.446 0.074 7.3 10.2 9.94
10/22/2021 7:00:00 AM 12.44 54.392 0.075 7.27 10.23 9.94
10/22/2021 7:15:00 AM 12.42 54.356 0.075 7.27 9.92 9.95
10/22/2021 7:30:00 AM 12.4 54.32 0.075 7.28 9.33 9.95
10/22/2021 7:45:00 AM 12.38 54.284 0.075 7.28 9.65 9.96
10/22/2021 8:00:00 AM 12.36 54.248 0.075 7.29 9.3 9.98
10/22/2021 8:15:00 AM 12.35 54.23 0.075 7.3 9.18 10.02
10/22/2021 8:30:00 AM 12.34 54.212 0.075 7.29 8.87 10.07
10/22/2021 8:45:00 AM 12.34 54.212 0.075 7.33 9.02 10.13
10/22/2021 9:00:00 AM 12.34 54.212 0.074 7.34 9.46 10.19
10/22/2021 9:15:00 AM 12.35 54.23 0.074 7.35 9.39 10.27
10/22/2021 9:30:00 AM 12.37 54.266 0.074 7.36 8.94 10.33
10/22/2021 9:45:00 AM 12.39 54.302 0.074 7.38 8.95 10.38
10/22/2021 10:00:00 AM 12.42 54.356 0.074 7.42 8.69 10.44
10/22/2021 10:15:00 AM 12.44 54.392 0.074 7.42 8.58 10.47
10/22/2021 10:30:00 AM 12.48 54.464 0.074 7.46 8.34 10.53
10/22/2021 10:45:00 AM 12.53 54.554 0.074 7.5 8.29 10.61
10/22/2021 11:00:00 AM 12.58 54.644 0.074 7.51 7.81 10.67
10/22/2021 11:15:00 AM 12.69 54.842 0.074 7.57 7.46 10.74
10/22/2021 11:30:00 AM 12.74 54.932 0.074 7.61 7.46 10.78
10/22/2021 11:45:00 AM 12.8 55.04 0.074 7.63 7.41 10.79
10/22/2021 12:00:00 PM 12.84 55.112 0.074 7.65 7.27 10.77
10/22/2021 12:15:00 PM 12.83 55.094 0.074 7.62 6.96 10.69
10/22/2021 12:30:00 PM 12.86 55.148 0.074 7.65 7.17 10.74
10/22/2021 12:45:00 PM 12.96 55.328 0.074 7.69 7.51 10.8
10/22/2021 1:00:00 PM 13.04 55.472 0.074 7.73 5.74 10.83
10/22/2021 1:15:00 PM 13.09 55.562 0.074 7.77 5.99 10.86
10/22/2021 1:30:00 PM 13.19 55.742 0.074 7.82 5.71 10.86
10/22/2021 1:45:00 PM 13.24 55.832 0.074 7.83 5.58 10.83
10/22/2021 2:00:00 PM 13.26 55.868 0.074 7.86 5.87 10.83
10/22/2021 2:15:00 PM 13.23 55.814 0.074 7.85 5.32 10.79
10/22/2021 2:30:00 PM 13.22 55.796 0.074 7.79 5.29 10.72
10/22/2021 2:45:00 PM 13.22 55.796 0.074 7.75 5.29 10.64
10/22/2021 3:00:00 PM 13.25 55.85 0.074 7.74 5.16 10.6
10/22/2021 3:15:00 PM 13.25 55.85 0.075 7.74 5.12 10.61
10/22/2021 3:30:00 PM 13.22 55.796 0.075 7.76 5.72 10.62
10/22/2021 3:45:00 PM 13.18 55.724 0.075 7.75 5.22 10.64
10/22/2021 4:00:00 PM 13.13 55.634 0.075 7.75 5.38 10.67
10/22/2021 4:15:00 PM 13.09 55.562 0.075 7.76 5.04 10.66
10/22/2021 4:30:00 PM 13.06 55.508 0.075 7.73 5.5 10.65
10/22/2021 4:45:00 PM 13.04 55.472 0.075 7.72 5.59 10.62
10/22/2021 5:00:00 PM 13.02 55.436 0.075 7.7 5.54 10.59
10/22/2021 5:15:00 PM 12.98 55.364 0.075 7.7 5.5 10.55
10/22/2021 5:30:00 PM 12.95 55.31 0.075 7.65 5.44 10.46
10/22/2021 5:45:00 PM 12.9 55.22 0.076 7.6 5.41 10.39
10/22/2021 6:00:00 PM 12.85 55.13 0.076 7.56 5.48 10.3
10/22/2021 6:15:00 PM 12.79 55.022 0.076 7.52 5.27 10.24
10/22/2021 6:30:00 PM 12.71 54.878 0.076 7.46 5.17 10.18
10/22/2021 6:45:00 PM 12.64 54.752 0.076 7.46 5.22 10.12
10/22/2021 7:00:00 PM 12.57 54.626 0.076 7.42 5.33 10.08
10/22/2021 7:15:00 PM 12.49 54.482 0.077 7.41 5.09 10.07
10/22/2021 7:30:00 PM 12.42 54.356 0.077 7.38 5.29 10.06
10/22/2021 7:45:00 PM 12.36 54.248 0.077 7.38 5.25 10.04
10/22/2021 8:00:00 PM 12.31 54.158 0.077 7.38 5.32 10.05
10/22/2021 8:15:00 PM 12.26 54.068 0.077 7.36 5.17 10.05
10/22/2021 8:30:00 PM 12.2 53.96 0.077 7.35 5.5 10.06
10/22/2021 8:45:00 PM 12.14 53.852 0.077 7.35 5.18 10.06
10/22/2021 9:00:00 PM 12.06 53.708 0.077 7.31 5.68 10.07
10/22/2021 9:15:00 PM 12.01 53.618 0.078 7.32 5.84 10.08
10/22/2021 9:30:00 PM 11.97 53.546 0.078 7.31 5.65 10.1
10/22/2021 9:45:00 PM 11.92 53.456 0.078 7.33 5.61 10.11
10/22/2021 10:00:00 PM 11.88 53.384 0.078 7.31 5.74 10.12
10/22/2021 10:15:00 PM 11.83 53.294 0.078 7.3 5.49 10.14
10/22/2021 10:30:00 PM 11.78 53.204 0.078 7.3 5.69 10.16
10/22/2021 10:45:00 PM 11.73 53.114 0.078 7.3 5.37 10.17
10/22/2021 11:00:00 PM 11.69 53.042 0.078 7.32 5.44 10.18
10/22/2021 11:15:00 PM 11.65 52.97 0.078 7.31 5.36 10.2
10/22/2021 11:30:00 PM 11.6 52.88 0.078 7.32 5.56 10.21
10/22/2021 11:45:00 PM 11.56 52.808 0.078 7.29 5.48 10.22
10/23/2021 12:00:00 AM 11.52 52.736 0.078 7.33 5.36 10.22
10/23/2021 12:15:00 AM 11.48 52.664 0.078 7.3 5.45 10.23
10/23/2021 12:30:00 AM 11.44 52.592 0.078 7.31 5.47 10.23
10/23/2021 12:45:00 AM 11.4 52.52 0.078 7.32 5.34 10.24
10/23/2021 1:00:00 AM 11.36 52.448 0.078 7.29 5.23 10.24
10/23/2021 1:15:00 AM 11.33 52.394 0.078 7.32 5.22 10.25
10/23/2021 1:30:00 AM 11.28 52.304 0.078 7.31 5.31 10.27
10/23/2021 1:45:00 AM 11.25 52.25 0.078 7.31 5.33 10.28
10/23/2021 2:00:00 AM 11.21 52.178 0.078 7.29 5.26 10.3
10/23/2021 2:15:00 AM 11.17 52.106 0.077 7.29 5.32 10.3
10/23/2021 2:30:00 AM 11.14 52.052 0.077 7.32 5.3 10.31
10/23/2021 2:45:00 AM 11.1 51.98 0.077 7.32 5.3 10.33
10/23/2021 3:00:00 AM 11.07 51.926 0.077 7.29 5.3 10.34
10/23/2021 3:15:00 AM 11.03 51.854 0.077 7.31 5.26 10.34
10/23/2021 3:30:00 AM 11 51.8 0.077 7.31 5.35 10.35
10/23/2021 3:45:00 AM 10.96 51.728 0.077 7.31 5.27 10.37
10/23/2021 4:00:00 AM 10.93 51.674 0.077 7.28 5.24 10.36
10/23/2021 4:15:00 AM 10.9 51.62 0.077 7.28 5.28 10.37
10/23/2021 4:30:00 AM 10.87 51.566 0.077 7.31 5.16 10.38
10/23/2021 4:45:00 AM 10.84 51.512 0.077 7.28 5.32 10.38
10/23/2021 5:00:00 AM 10.79 51.422 0.077 7.29 5.16 10.39
10/23/2021 5:15:00 AM 10.75 51.35 0.077 7.28 5.12 10.4
10/23/2021 5:30:00 AM 10.72 51.296 0.077 7.29 5.22 10.41
10/23/2021 5:45:00 AM 10.7 51.26 0.077 7.29 5.19 10.43
10/23/2021 6:00:00 AM 10.67 51.206 0.077 7.3 5.17 10.44
10/23/2021 6:15:00 AM 10.64 51.152 0.077 7.27 5.21 10.44
10/23/2021 6:30:00 AM 10.61 51.098 0.077 7.3 5.12 10.46
10/23/2021 6:45:00 AM 10.58 51.044 0.077 7.28 5.33 10.47
10/23/2021 7:00:00 AM 10.55 50.99 0.077 7.3 5.15 10.47
10/23/2021 7:15:00 AM 10.53 50.954 0.077 7.27 5.13 10.48
10/23/2021 7:30:00 AM 10.51 50.918 0.077 7.3 4.99 10.49
10/23/2021 7:45:00 AM 10.49 50.882 0.077 7.31 5.11 10.51
10/23/2021 8:00:00 AM 10.47 50.846 0.077 7.3 4.97 10.52
10/23/2021 8:15:00 AM 10.45 50.81 0.077 7.32 5.06 10.56
10/23/2021 8:30:00 AM 10.44 50.792 0.077 7.32 5.05 10.62
10/23/2021 8:45:00 AM 10.44 50.792 0.076 7.34 4.94 10.68
10/23/2021 9:00:00 AM 10.44 50.792 0.076 7.33 4.98 10.76
10/23/2021 9:15:00 AM 10.43 50.774 0.076 7.37 5.02 10.81
10/23/2021 9:30:00 AM 10.43 50.774 0.076 7.39 5.01 10.86
10/23/2021 9:45:00 AM 10.44 50.792 0.076 7.39 4.93 10.94
10/23/2021 10:00:00 AM 10.45 50.81 0.076 7.4 4.81 11.02
10/23/2021 10:15:00 AM 10.46 50.828 0.076 7.45 4.84 11.06
10/23/2021 10:30:00 AM 10.47 50.846 0.075 7.45 5.06 11.06
10/23/2021 10:45:00 AM 10.49 50.882 0.075 7.48 4.96 11.11
10/23/2021 11:00:00 AM 10.5 50.9 0.075 7.49 5.05 11.16
10/23/2021 11:15:00 AM 10.52 50.936 0.075 7.54 4.87 11.24
10/23/2021 11:30:00 AM 10.58 51.044 0.075 7.59 4.89 11.34
10/23/2021 11:45:00 AM 10.68 51.224 0.075 7.69 4.85 11.43
10/23/2021 12:00:00 PM 10.77 51.386 0.074 7.72 4.81 11.49
10/23/2021 12:15:00 PM 10.84 51.512 0.074 7.8 4.86 11.51
10/23/2021 12:30:00 PM 10.91 51.638 0.074 7.84 4.77 11.52
10/23/2021 12:45:00 PM 10.98 51.764 0.074 7.88 4.78 11.53
10/23/2021 1:00:00 PM 11.02 51.836 0.074 7.9 4.76 11.49
10/23/2021 1:15:00 PM 11.09 51.962 0.074 7.91 4.75 11.48
10/23/2021 1:30:00 PM 11.15 52.07 0.074 7.95 4.73 11.47
10/23/2021 1:45:00 PM 11.22 52.196 0.074 7.97 4.8 11.45
10/23/2021 2:00:00 PM 11.28 52.304 0.074 8.01 4.84 11.44
10/23/2021 2:15:00 PM 11.3 52.34 0.074 7.95 4.84 11.35
10/23/2021 2:30:00 PM 11.33 52.394 0.074 7.93 4.89 11.3
10/23/2021 2:45:00 PM 11.39 52.502 0.074 8 4.99 11.35
10/23/2021 3:00:00 PM 11.46 52.628 0.074 8.05 5.28 11.39
10/23/2021 3:15:00 PM 11.5 52.7 0.074 8.09 5.25 11.39
10/23/2021 3:30:00 PM 11.53 52.754 0.073 8.08 5.19 11.35
10/23/2021 3:45:00 PM 11.56 52.808 0.073 8.07 5.23 11.32
10/23/2021 4:00:00 PM 11.6 52.88 0.073 8.09 5.21 11.32
10/23/2021 4:15:00 PM 11.64 52.952 0.073 8.09 5.27 11.3
10/23/2021 4:30:00 PM 11.66 52.988 0.073 8.05 5.14 11.23
10/23/2021 4:45:00 PM 11.63 52.934 0.073 7.93 5.12 11.09
10/23/2021 5:00:00 PM 11.62 52.916 0.073 7.83 5.24 10.98
10/23/2021 5:15:00 PM 11.6 52.88 0.073 7.74 5.14 10.89
10/23/2021 5:30:00 PM 11.57 52.826 0.074 7.71 5.1 10.81
10/23/2021 5:45:00 PM 11.54 52.772 0.074 7.67 4.99 10.76
10/23/2021 6:00:00 PM 11.5 52.7 0.074 7.62 5.21 10.7
10/23/2021 6:15:00 PM 11.45 52.61 0.074 7.56 5.2 10.63
10/23/2021 6:30:00 PM 11.39 52.502 0.074 7.54 5.33 10.56
10/23/2021 6:45:00 PM 11.35 52.43 0.074 7.48 5.3 10.5
10/23/2021 7:00:00 PM 11.3 52.34 0.075 7.47 5.3 10.46
10/23/2021 7:15:00 PM 11.26 52.268 0.075 7.45 5.34 10.44
10/23/2021 7:30:00 PM 11.22 52.196 0.075 7.43 5.22 10.42
10/23/2021 7:45:00 PM 11.18 52.124 0.075 7.39 5.3 10.41
10/23/2021 8:00:00 PM 11.12 52.016 0.076 7.4 5.39 10.4
10/23/2021 8:15:00 PM 11.05 51.89 0.076 7.36 5.36 10.41
10/23/2021 8:30:00 PM 11 51.8 0.076 7.37 8.38 10.4
10/23/2021 8:45:00 PM 10.95 51.71 0.076 7.36 4.68 10.41
10/23/2021 9:00:00 PM 10.9 51.62 0.076 7.33 4.72 10.42
10/23/2021 9:15:00 PM 10.86 51.548 0.077 7.35 4.79 10.42
10/23/2021 9:30:00 PM 10.81 51.458 0.077 7.33 4.78 10.43
10/23/2021 9:45:00 PM 10.77 51.386 0.077 7.33 4.78 10.44
10/23/2021 10:00:00 PM 10.73 51.314 0.077 7.32 4.7 10.46
10/23/2021 10:15:00 PM 10.69 51.242 0.077 7.34 4.79 10.47
10/23/2021 10:30:00 PM 10.65 51.17 0.077 7.31 4.74 10.48
10/23/2021 10:45:00 PM 10.61 51.098 0.077 7.31 4.75 10.49
10/23/2021 11:00:00 PM 10.57 51.026 0.077 7.34 4.01 10.5
10/23/2021 11:15:00 PM 10.53 50.954 0.077 7.32 4.13 10.51
10/23/2021 11:30:00 PM 10.5 50.9 0.078 7.29 4.17 10.53
10/23/2021 11:45:00 PM 10.47 50.846 0.077 7.32 4.07 10.53
10/24/2021 12:00:00 AM 10.45 50.81 0.077 7.32 4.16 10.54
10/24/2021 12:15:00 AM 10.42 50.756 0.077 7.32 4.07 10.55
10/24/2021 12:30:00 AM 10.4 50.72 0.077 7.32 4.09 10.56
10/24/2021 12:45:00 AM 10.37 50.666 0.077 7.3 4.06 10.57
10/24/2021 1:00:00 AM 10.35 50.63 0.077 7.32 4.07 10.58
10/24/2021 1:15:00 AM 10.33 50.594 0.077 7.29 4.13 10.59
10/24/2021 1:30:00 AM 10.3 50.54 0.077 7.32 4.06 10.59
10/24/2021 1:45:00 AM 10.28 50.504 0.077 7.28 4.15 10.6
10/24/2021 2:00:00 AM 10.26 50.468 0.077 7.31 4.12 10.61
10/24/2021 2:15:00 AM 10.24 50.432 0.076 7.32 4.1 10.61
10/24/2021 2:30:00 AM 10.22 50.396 0.076 7.31 4.04 10.62
10/24/2021 2:45:00 AM 10.19 50.342 0.076 7.27 4.08 10.62
10/24/2021 3:00:00 AM 10.16 50.288 0.076 7.31 4.01 10.62
10/24/2021 3:15:00 AM 10.13 50.234 0.076 7.27 4.07 10.63
10/24/2021 3:30:00 AM 10.1 50.18 0.076 7.3 4.19 10.64
10/24/2021 3:45:00 AM 10.08 50.144 0.076 7.3 4.14 10.64
10/24/2021 4:00:00 AM 10.06 50.108 0.076 7.29 4.02 10.66
10/24/2021 4:15:00 AM 10.03 50.054 0.076 7.3 4.2 10.66
10/24/2021 4:30:00 AM 10.01 50.018 0.076 7.31 4.07 10.68
10/24/2021 4:45:00 AM 9.98 49.964 0.075 7.28 4.26 10.68
10/24/2021 5:00:00 AM 9.96 49.928 0.075 7.3 4.41 10.69
10/24/2021 5:15:00 AM 9.94 49.892 0.075 7.29 4.37 10.7
10/24/2021 5:30:00 AM 9.93 49.874 0.075 7.3 4.27 10.7
10/24/2021 5:45:00 AM 9.9 49.82 0.075 7.29 4.33 10.72
10/24/2021 6:00:00 AM 9.88 49.784 0.075 7.3 4.28 10.72
10/24/2021 6:15:00 AM 9.86 49.748 0.076 7.31 4.29 10.72
10/24/2021 6:30:00 AM 9.84 49.712 0.076 7.31 4.31 10.73
10/24/2021 6:45:00 AM 9.83 49.694 0.076 7.3 4.33 10.74
10/24/2021 7:00:00 AM 9.81 49.658 0.076 7.31 4.29 10.75
10/24/2021 7:15:00 AM 9.8 49.64 0.076 7.3 4.23 10.75
10/24/2021 7:30:00 AM 9.79 49.622 0.076 7.3 4.32 10.76
10/24/2021 7:45:00 AM 9.78 49.604 0.076 7.3 4.03 10.77
10/24/2021 8:00:00 AM 9.77 49.586 0.075 7.31 3.94 10.81
10/24/2021 8:15:00 AM 9.77 49.586 0.075 7.3 3.93 10.85
10/24/2021 8:30:00 AM 9.77 49.586 0.075 7.33 3.95 10.91
10/24/2021 8:45:00 AM 9.78 49.604 0.075 7.33 3.95 10.97
10/24/2021 9:00:00 AM 9.78 49.604 0.075 7.35 3.87 11.01
10/24/2021 9:15:00 AM 9.79 49.622 0.075 7.4 3.87 11.06
10/24/2021 9:30:00 AM 9.81 49.658 0.075 7.42 3.86 11.15
10/24/2021 9:45:00 AM 9.84 49.712 0.075 7.42 3.94 11.25
10/24/2021 10:00:00 AM 9.87 49.766 0.075 7.48 3.8 11.31
10/24/2021 10:15:00 AM 9.94 49.892 0.074 7.52 3.81 11.45
10/24/2021 10:30:00 AM 9.99 49.982 0.074 7.57 3.78 11.51
10/24/2021 10:45:00 AM 10.04 50.072 0.074 7.62 3.81 11.53
10/24/2021 11:00:00 AM 10.07 50.126 0.074 7.62 3.81 11.51
10/24/2021 11:15:00 AM 10.09 50.162 0.074 7.62 3.83 11.44
10/24/2021 11:30:00 AM 10.11 50.198 0.074 7.58 3.77 11.38
10/24/2021 11:45:00 AM 10.14 50.252 0.074 7.6 3.79 11.35
10/24/2021 12:00:00 PM 10.17 50.306 0.074 7.57 3.64 11.36
10/24/2021 12:15:00 PM 10.21 50.378 0.074 7.62 3.75 11.39
10/24/2021 12:30:00 PM 10.27 50.486 0.074 7.67 3.84 11.48
10/24/2021 12:45:00 PM 10.35 50.63 0.074 7.69 3.71 11.54
10/24/2021 1:00:00 PM 10.45 50.81 0.074 7.76 3.79 11.61
10/24/2021 1:15:00 PM 10.55 50.99 0.074 7.86 3.73 11.65
10/24/2021 1:30:00 PM 10.63 51.134 0.074 7.91 3.81 11.66
10/24/2021 1:45:00 PM 10.7 51.26 0.074 7.92 3.74 11.66
10/24/2021 2:00:00 PM 10.8 51.44 0.073 8.01 3.86 11.66
10/24/2021 2:15:00 PM 10.86 51.548 0.073 8 3.73 11.62
10/24/2021 2:30:00 PM 10.91 51.638 0.073 7.99 3.79 11.55
10/24/2021 2:45:00 PM 10.94 51.692 0.073 7.93 3.73 11.43
10/24/2021 3:00:00 PM 10.96 51.728 0.073 7.85 3.72 11.35
10/24/2021 3:15:00 PM 11 51.8 0.073 7.84 3.68 11.32
10/24/2021 3:30:00 PM 11.02 51.836 0.073 7.82 3.67 11.27
10/24/2021 3:45:00 PM 11.02 51.836 0.073 7.75 3.83 11.16
10/24/2021 4:00:00 PM 11.02 51.836 0.073 7.71 3.76 11.09
10/24/2021 4:15:00 PM 11.02 51.836 0.074 7.66 3.7 11.03
10/24/2021 4:30:00 PM 11.02 51.836 0.074 7.65 3.75 10.99
10/24/2021 4:45:00 PM 11.02 51.836 0.074 7.6 3.88 10.94
10/24/2021 5:00:00 PM 11.01 51.818 0.074 7.58 3.8 10.87
10/24/2021 5:15:00 PM 11.01 51.818 0.074 7.53 3.82 10.82
10/24/2021 5:30:00 PM 11 51.8 0.074 7.52 3.84 10.75
10/24/2021 5:45:00 PM 10.99 51.782 0.074 7.47 3.77 10.69
10/24/2021 6:00:00 PM 10.99 51.782 0.075 7.46 3.77 10.63
10/24/2021 6:15:00 PM 10.98 51.764 0.075 7.44 3.82 10.59
10/24/2021 6:30:00 PM 10.97 51.746 0.075 7.42 3.82 10.53
10/24/2021 6:45:00 PM 10.96 51.728 0.075 7.4 3.84 10.49
10/24/2021 7:00:00 PM 10.95 51.71 0.075 7.39 3.97 10.49
10/24/2021 7:15:00 PM 10.94 51.692 0.075 7.37 3.82 10.47
10/24/2021 7:30:00 PM 10.92 51.656 0.075 7.35 3.96 10.46
10/24/2021 7:45:00 PM 10.91 51.638 0.076 7.35 3.99 10.46
10/24/2021 8:00:00 PM 10.9 51.62 0.076 7.35 3.97 10.45
10/24/2021 8:15:00 PM 10.89 51.602 0.075 7.34 4.13 10.45
10/24/2021 8:30:00 PM 10.87 51.566 0.076 7.3 3.96 10.45
10/24/2021 8:45:00 PM 10.87 51.566 0.076 7.32 4.09 10.43
10/24/2021 9:00:00 PM 10.86 51.548 0.076 7.32 4 10.44
10/24/2021 9:15:00 PM 10.85 51.53 0.076 7.29 4.45 10.43
10/24/2021 9:30:00 PM 10.85 51.53 0.076 7.29 4.57 10.43
10/24/2021 9:45:00 PM 10.84 51.512 0.076 7.29 4.51 10.43
10/24/2021 10:00:00 PM 10.84 51.512 0.076 7.28 4.57 10.43
10/24/2021 10:15:00 PM 10.83 51.494 0.076 7.27 4.7 10.42
10/24/2021 10:30:00 PM 10.83 51.494 0.076 7.28 4.7 10.43
10/24/2021 10:45:00 PM 10.83 51.494 0.076 7.27 4.66 10.43
10/24/2021 11:00:00 PM 10.83 51.494 0.076 7.27 4.9 10.42
10/24/2021 11:15:00 PM 10.82 51.476 0.076 7.28 4.89 10.42
10/24/2021 11:30:00 PM 10.82 51.476 0.076 7.27 4.9 10.41
10/24/2021 11:45:00 PM 10.82 51.476 0.076 7.29 4.7 10.41
10/25/2021 12:00:00 AM 10.82 51.476 0.076 7.28 5.04 10.42
10/25/2021 12:15:00 AM 10.82 51.476 0.076 7.28 5.19 10.42
10/25/2021 12:30:00 AM 10.82 51.476 0.076 7.26 4.97 10.42
10/25/2021 12:45:00 AM 10.82 51.476 0.076 7.28 4.96 10.42
10/25/2021 1:00:00 AM 10.82 51.476 0.076 7.26 4.98 10.43
10/25/2021 1:15:00 AM 10.82 51.476 0.076 7.25 5.06 10.43
10/25/2021 1:30:00 AM 10.81 51.458 0.076 7.26 4.74 10.44
10/25/2021 1:45:00 AM 10.82 51.476 0.076 7.23 5.94 10.43
10/25/2021 2:00:00 AM 10.82 51.476 0.075 7.25 6.27 10.43
10/25/2021 2:15:00 AM 10.82 51.476 0.075 7.25 6.61 10.43
10/25/2021 2:30:00 AM 10.81 51.458 0.075 7.27 6.56 10.43
10/25/2021 2:45:00 AM 10.8 51.44 0.075 7.23 6.58 10.43
10/25/2021 3:00:00 AM 10.79 51.422 0.075 7.23 6.95 10.43
10/25/2021 3:15:00 AM 10.77 51.386 0.075 7.25 7.3 10.43
10/25/2021 3:30:00 AM 10.76 51.368 0.075 7.25 6.28 10.43
10/25/2021 3:45:00 AM 10.75 51.35 0.075 7.24 8.32 10.43
10/25/2021 4:00:00 AM 10.75 51.35 0.074 7.23 8.73 10.44
10/25/2021 4:15:00 AM 10.74 51.332 0.074 7.26 9.07 10.45
10/25/2021 4:30:00 AM 10.74 51.332 0.074 7.24 14.63 10.44
10/25/2021 4:45:00 AM 10.74 51.332 0.074 7.25 14.81 10.44
10/25/2021 5:00:00 AM 10.73 51.314 0.074 7.25 19.71 10.44
10/25/2021 5:15:00 AM 10.73 51.314 0.074 7.24 12.58 10.44
10/25/2021 5:30:00 AM 10.72 51.296 0.073 7.22 13.27 10.44
10/25/2021 5:45:00 AM 10.71 51.278 0.073 7.25 13.75 10.45
10/25/2021 6:00:00 AM 10.71 51.278 0.073 7.23 15.5 10.46
10/25/2021 6:15:00 AM 10.7 51.26 0.072 7.25 16.22 10.46
10/25/2021 6:30:00 AM 10.69 51.242 0.072 7.25 16.1 10.47
10/25/2021 6:45:00 AM 10.67 51.206 0.072 7.22 14.35 10.48
10/25/2021 7:00:00 AM 10.65 51.17 0.072 7.23 15.5 10.49
10/25/2021 7:15:00 AM 10.63 51.134 0.072 7.25 14.62 10.49
10/25/2021 7:30:00 AM 10.62 51.116 0.072 7.22 14.76 10.49
10/25/2021 7:45:00 AM 10.62 51.116 0.072 7.25 17.58 10.51
10/25/2021 8:00:00 AM 10.62 51.116 0.072 7.25 18.28 10.51
10/25/2021 8:15:00 AM 10.63 51.134 0.072 7.22 14.19 10.53
10/25/2021 8:30:00 AM 10.65 51.17 0.072 7.27 14 10.55
10/25/2021 8:45:00 AM 10.67 51.206 0.072 7.27 11.68 10.57
10/25/2021 9:00:00 AM 10.69 51.242 0.072 7.23 12.08 10.6
10/25/2021 9:15:00 AM 10.72 51.296 0.072 7.27 11.49 10.65
10/25/2021 9:30:00 AM 10.75 51.35 0.072 7.3 12.35 10.69
10/25/2021 9:45:00 AM 10.79 51.422 0.072 7.28 11.05 10.74
10/25/2021 10:00:00 AM 10.85 51.53 0.071 7.33 11.8 10.81
10/25/2021 10:15:00 AM 10.91 51.638 0.071 7.31 12.02 10.86
10/25/2021 10:30:00 AM 10.96 51.728 0.071 7.36 11.32 10.86
10/25/2021 10:45:00 AM 11.01 51.818 0.071 7.37 11.14 10.86
10/25/2021 11:00:00 AM 11.07 51.926 0.071 7.34 10.63 10.87
10/25/2021 11:15:00 AM 11.15 52.07 0.071 7.35 11.02 10.88
10/25/2021 11:30:00 AM 11.25 52.25 0.071 7.4 10.37 10.9
10/25/2021 11:45:00 AM 11.39 52.502 0.071 7.41 10.15 10.9
10/25/2021 12:00:00 PM 11.54 52.772 0.071 7.45 10.08 10.92
10/25/2021 12:15:00 PM 11.68 53.024 0.07 7.44 10.08 10.92
10/25/2021 12:30:00 PM 11.83 53.294 0.07 7.44 16.05 10.91
10/25/2021 12:45:00 PM 12 53.6 0.07 7.5 17.2 10.9
10/25/2021 1:00:00 PM 12.13 53.834 0.07 7.51 16.12 10.91
10/25/2021 1:15:00 PM 12.22 53.996 0.069 7.53 15.79 10.91
10/25/2021 1:30:00 PM 12.27 54.086 0.069 7.54 14.82 10.88
10/25/2021 1:45:00 PM 12.36 54.248 0.069 7.56 14.22 10.86
10/25/2021 2:00:00 PM 12.39 54.302 0.069 7.58 15.75 10.84
10/25/2021 2:15:00 PM 12.49 54.482 0.068 7.57 19.51 10.84
10/25/2021 2:30:00 PM 12.64 54.752 0.068 7.6 18.74 10.83
10/25/2021 2:45:00 PM 12.76 54.968 0.068 7.61 18.19 10.79
10/25/2021 3:00:00 PM 12.83 55.094 0.068 7.59 16.94 10.73
10/25/2021 3:15:00 PM 12.92 55.256 0.068 7.57 17.14 10.62
10/25/2021 3:30:00 PM 12.99 55.382 0.067 7.56 10.89 10.57
10/25/2021 3:45:00 PM 13.04 55.472 0.067 7.53 9.3 10.49
10/25/2021 4:00:00 PM 13.07 55.526 0.067 7.51 9.6 10.4
10/25/2021 4:15:00 PM 13.09 55.562 0.067 7.45 9.37 10.36
10/25/2021 4:30:00 PM 13.11 55.598 0.067 7.47 9.74 10.36
10/25/2021 4:45:00 PM 13.11 55.598 0.067 7.47 9.42 10.34
10/25/2021 5:00:00 PM 13.1 55.58 0.067 7.42 9.57 10.3
10/25/2021 5:15:00 PM 13.09 55.562 0.067 7.38 9.38 10.24
10/25/2021 5:30:00 PM 13.06 55.508 0.067 7.36 9.24 10.19
10/25/2021 5:45:00 PM 13.02 55.436 0.067 7.36 8.99 10.14
10/25/2021 6:00:00 PM 12.99 55.382 0.067 7.34 9.2 10.1
10/25/2021 6:15:00 PM 12.95 55.31 0.067 7.33 8.89 10.07
10/25/2021 6:30:00 PM 12.92 55.256 0.067 7.29 9.38 10.04
10/25/2021 6:45:00 PM 12.89 55.202 0.067 7.31 9.07 10.01
10/25/2021 7:00:00 PM 12.86 55.148 0.067 7.28 8.99 9.99
10/25/2021 7:15:00 PM 12.84 55.112 0.067 7.28 9.02 9.98
10/25/2021 7:30:00 PM 12.81 55.058 0.066 7.22 10.12 9.98
10/25/2021 7:45:00 PM 12.78 55.004 0.067 7.25 8.96 9.97
10/25/2021 8:00:00 PM 12.75 54.95 0.067 7.21 9.32 9.97
10/25/2021 8:15:00 PM 12.72 54.896 0.067 7.21 9.11 9.97
10/25/2021 8:30:00 PM 12.69 54.842 0.067 7.24 9.76 9.97
10/25/2021 8:45:00 PM 12.67 54.806 0.067 7.22 9.26 9.97
10/25/2021 9:00:00 PM 12.64 54.752 0.066 7.22 9.04 9.97
10/25/2021 9:15:00 PM 12.62 54.716 0.066 7.22 9.23 9.98
10/25/2021 9:30:00 PM 12.6 54.68 0.066 7.22 9.16 9.98
10/25/2021 9:45:00 PM 12.57 54.626 0.066 7.23 9.03 9.99
10/25/2021 10:00:00 PM 12.55 54.59 0.066 7.22 9.04 9.99
10/25/2021 10:15:00 PM 12.53 54.554 0.066 7.2 7.77 10.01
10/25/2021 10:30:00 PM 12.5 54.5 0.066 7.19 7.86 10
10/25/2021 10:45:00 PM 12.48 54.464 0.066 7.14 8.66 10.01
10/25/2021 11:00:00 PM 12.45 54.41 0.066 7.14 9.17 10.01
10/25/2021 11:15:00 PM 12.43 54.374 0.066 7.2 8.98 10.02
10/25/2021 11:30:00 PM 12.41 54.338 0.066 7.19 7.88 10.03
10/25/2021 11:45:00 PM 12.4 54.32 0.065 7.18 9.41 10.04
10/26/2021 12:00:00 AM 12.39 54.302 0.065 7.19 7.74 10.04
10/26/2021 12:15:00 AM 12.38 54.284 0.065 7.19 8.42 10.04
10/26/2021 12:30:00 AM 12.37 54.266 0.065 7.17 8.8 10.04
10/26/2021 12:45:00 AM 12.35 54.23 0.065 7.15 9.61 10.04
10/26/2021 1:00:00 AM 12.33 54.194 0.065 7.15 9.94 10.04
10/26/2021 1:15:00 AM 12.31 54.158 0.065 7.17 9.1 10.05
10/26/2021 1:30:00 AM 12.3 54.14 0.065 7.14 10.35 10.05
10/26/2021 1:45:00 AM 12.29 54.122 0.065 7.16 10.26 10.05
10/26/2021 2:00:00 AM 12.27 54.086 0.065 7.17 11.59 10.05
10/26/2021 2:15:00 AM 12.25 54.05 0.065 7.15 10.6 10.05
10/26/2021 2:30:00 AM 12.23 54.014 0.065 7.13 10.57 10.06
10/26/2021 2:45:00 AM 12.21 53.978 0.065 7.16 11.78 10.07
10/26/2021 3:00:00 AM 12.2 53.96 0.065 7.17 12.5 10.07
10/26/2021 3:15:00 AM 12.18 53.924 0.065 7.12 11.32 10.07
10/26/2021 3:30:00 AM 12.17 53.906 0.065 7.16 10.92 10.06
10/26/2021 3:45:00 AM 12.15 53.87 0.065 7.11 10.55 10.07
10/26/2021 4:00:00 AM 12.14 53.852 0.065 7.16 10.35 10.07
10/26/2021 4:15:00 AM 12.12 53.816 0.065 7.12 9.68 10.08
10/26/2021 4:30:00 AM 12.11 53.798 0.065 7.16 9.49 10.08
10/26/2021 4:45:00 AM 12.09 53.762 0.065 7.14 9.07 10.08
10/26/2021 5:00:00 AM 12.08 53.744 0.065 7.17 8.73 10.08
10/26/2021 5:15:00 AM 12.07 53.726 0.065 7.12 8.69 10.08
10/26/2021 5:30:00 AM 12.05 53.69 0.065 7.16 8.7 10.08
10/26/2021 5:45:00 AM 12.04 53.672 0.065 7.14 8.93 10.09
10/26/2021 6:00:00 AM 12.03 53.654 0.065 7.15 8.93 10.1
10/26/2021 6:15:00 AM 12.02 53.636 0.064 7.14 9.18 10.1
10/26/2021 6:30:00 AM 12 53.6 0.064 7.14 10.03 10.1
10/26/2021 6:45:00 AM 11.99 53.582 0.064 7.11 10.3 10.11
10/26/2021 7:00:00 AM 11.97 53.546 0.064 7.15 10.46 10.11
10/26/2021 7:15:00 AM 11.96 53.528 0.064 7.11 11.88 10.11
10/26/2021 7:30:00 AM 11.95 53.51 0.064 7.1 12.69 10.12
10/26/2021 7:45:00 AM 11.94 53.492 0.064 7.14 14.23 10.12
10/26/2021 8:00:00 AM 11.93 53.474 0.063 7.13 16.74 10.13
10/26/2021 8:15:00 AM 11.92 53.456 0.063 7.11 16.25 10.13
10/26/2021 8:30:00 AM 11.9 53.42 0.063 7.12 17.59 10.14
10/26/2021 8:45:00 AM 11.89 53.402 0.063 7.14 18.5 10.15
10/26/2021 9:00:00 AM 11.88 53.384 0.063 7.13 19.64 10.16
10/26/2021 9:15:00 AM 11.87 53.366 0.062 7.14 19.18 10.17
10/26/2021 9:30:00 AM 11.86 53.348 0.062 7.12 19.74 10.19
10/26/2021 9:45:00 AM 11.84 53.312 0.062 7.14 20.65 10.2
10/26/2021 10:00:00 AM 11.81 53.258 0.062 7.14 21.73 10.22
10/26/2021 10:15:00 AM 11.79 53.222 0.063 7.16 20.58 10.24
10/26/2021 10:30:00 AM 11.78 53.204 0.063 7.16 21.49 10.26
10/26/2021 10:45:00 AM 11.75 53.15 0.063 7.18 22.19 10.27
10/26/2021 11:00:00 AM 11.72 53.096 0.063 7.18 20.67 10.3
10/26/2021 11:15:00 AM 11.7 53.06 0.062 7.18 20.22 10.32
10/26/2021 11:30:00 AM 11.68 53.024 0.062 7.16 20.41 10.34
10/26/2021 11:45:00 AM 11.66 52.988 0.062 7.17 20.41 10.36
10/26/2021 12:00:00 PM 11.64 52.952 0.062 7.15 20.03 10.37
10/26/2021 12:15:00 PM 11.62 52.916 0.062 7.14 19.79 10.39
10/26/2021 12:30:00 PM 11.59 52.862 0.062 7.14 19.55 10.4
10/26/2021 12:45:00 PM 11.56 52.808 0.062 7.12 18.46 10.41
10/26/2021 1:00:00 PM 11.53 52.754 0.062 7.13 17.79 10.41
10/26/2021 1:15:00 PM 11.5 52.7 0.062 7.14 18.02 10.41
10/26/2021 1:30:00 PM 11.46 52.628 0.062 7.12 18.68 10.4
10/26/2021 1:45:00 PM 11.42 52.556 0.062 7.13 18.57 10.4
10/26/2021 2:00:00 PM 11.38 52.484 0.062 7.14 18.53 10.4
10/26/2021 2:15:00 PM 11.34 52.412 0.062 7.14 17.81 10.4
10/26/2021 2:30:00 PM 11.31 52.358 0.062 7.09 18.48 10.41
10/26/2021 2:45:00 PM 11.28 52.304 0.062 7.12 18.37 10.42
10/26/2021 3:00:00 PM 11.26 52.268 0.062 7.09 18.6 10.43
10/26/2021 3:15:00 PM 11.23 52.214 0.061 7.11 18.46 10.44
10/26/2021 3:30:00 PM 11.19 52.142 0.061 7.09 18.59 10.45
10/26/2021 3:45:00 PM 11.15 52.07 0.061 7.12 19.36 10.45
10/26/2021 4:00:00 PM 11.12 52.016 0.061 7.11 19.74 10.45
10/26/2021 4:15:00 PM 11.08 51.944 0.06 7.12 18.9 10.46
10/26/2021 4:30:00 PM 11.04 51.872 0.06 7.09 19.62 10.45
10/26/2021 4:45:00 PM 11 51.8 0.059 7.12 19.06 10.46
10/26/2021 5:00:00 PM 10.96 51.728 0.059 7.08 19.55 10.47
10/26/2021 5:15:00 PM 10.93 51.674 0.058 7.08 19.49 10.47
10/26/2021 5:30:00 PM 10.89 51.602 0.058 7.11 18.89 10.47
10/26/2021 5:45:00 PM 10.85 51.53 0.058 7.09 19.54 10.48
10/26/2021 6:00:00 PM 10.81 51.458 0.058 7.1 20.35 10.47
10/26/2021 6:15:00 PM 10.77 51.386 0.058 7.07 18.73 10.47
10/26/2021 6:30:00 PM 10.73 51.314 0.057 7.06 20.29 10.48
10/26/2021 6:45:00 PM 10.69 51.242 0.057 6.91 19.11 10.48
10/26/2021 7:00:00 PM 10.65 51.17 0.057 6.84 19.36 10.5
10/26/2021 7:15:00 PM 10.62 51.116 0.057 6.81 19.97 10.5
10/26/2021 7:30:00 PM 10.58 51.044 0.057 6.82 20.37 10.51
10/26/2021 7:45:00 PM 10.55 50.99 0.056 6.79 19.48 10.52
10/26/2021 8:00:00 PM 10.52 50.936 0.056 6.8 19.95 10.52
10/26/2021 8:15:00 PM 10.49 50.882 0.056 6.79 20.41 10.54
10/26/2021 8:30:00 PM 10.46 50.828 0.056 6.78 20.07 10.54
10/26/2021 8:45:00 PM 10.43 50.774 0.056 6.77 23.23 10.55
10/26/2021 9:00:00 PM 10.41 50.738 0.056 6.79 22.8 10.55
10/26/2021 9:15:00 PM 10.39 50.702 0.055 6.76 22.45 10.56
10/26/2021 9:30:00 PM 10.36 50.648 0.052 6.79 22.93 10.57
10/26/2021 9:45:00 PM 10.34 50.612 0.055 6.76 23.07 10.58
10/26/2021 10:00:00 PM 10.33 50.594 0.055 6.79 21.95 10.59
10/26/2021 10:15:00 PM 10.31 50.558 0.055 6.78 170.29 10.6
10/26/2021 10:30:00 PM 10.3 50.54 0.055 6.82 611.14 10.6
10/26/2021 10:45:00 PM 10.29 50.522 0.055 6.78 106.37 10.6
10/26/2021 11:00:00 PM 10.28 50.504 0.055 6.83 22.04 10.61
10/26/2021 11:15:00 PM 10.27 50.486 0.054 6.83 20.26 10.62
10/26/2021 11:30:00 PM 10.26 50.468 0.054 6.89 20.21 10.62
10/26/2021 11:45:00 PM 10.25 50.45 0.054 6.89 21.04 10.63
10/27/2021 12:00:00 AM 10.25 50.45 0.054 6.87 20.12 10.63
10/27/2021 12:15:00 AM 10.24 50.432 0.054 6.88 20.11 10.63
10/27/2021 12:30:00 AM 10.24 50.432 0.054 6.92 18.28 10.63
10/27/2021 12:45:00 AM 10.24 50.432 0.054 6.91 19.83 10.63
10/27/2021 1:00:00 AM 10.24 50.432 0.054 6.9 21.26 10.64
10/27/2021 1:15:00 AM 10.24 50.432 0.054 6.91 26.4 10.64
10/27/2021 1:30:00 AM 10.24 50.432 0.053 6.88 659.48 10.64
10/27/2021 1:45:00 AM 10.24 50.432 0.043 6.9 19.19 10.64
10/27/2021 2:00:00 AM 10.24 50.432 0.053 6.93 637.43 10.64
10/27/2021 2:15:00 AM 10.24 50.432 0.053 6.9 36.13 10.65
10/27/2021 2:30:00 AM 10.25 50.45 0.053 6.9 27.05 10.65
10/27/2021 2:45:00 AM 10.26 50.468 0.042 6.93 19.31 10.65
10/27/2021 3:00:00 AM 10.26 50.468 0.049 6.93 21.98 10.65
10/27/2021 3:15:00 AM 10.26 50.468 0.053 6.93 27.28 10.65
10/27/2021 3:30:00 AM 10.27 50.486 0.053 6.93 24.14 10.65
10/27/2021 3:45:00 AM 10.27 50.486 0.052 6.92 19.13 10.65
10/27/2021 4:00:00 AM 10.28 50.504 0.052 6.94 18.1 10.65
10/27/2021 4:15:00 AM 10.28 50.504 0.052 6.89 196.01 10.65
10/27/2021 4:30:00 AM 10.29 50.522 0.052 6.93 22.85 10.65
10/27/2021 4:45:00 AM 10.29 50.522 0.052 6.84 24.86 10.65
10/27/2021 5:00:00 AM 10.3 50.54 0.052 6.89 27.42 10.66
10/27/2021 5:15:00 AM 10.3 50.54 0.052 6.85 26.38 10.65
10/27/2021 5:30:00 AM 10.3 50.54 0.052 6.91 27.68 10.65
10/27/2021 5:45:00 AM 10.3 50.54 0.052 6.92 81.57 10.66
10/27/2021 6:00:00 AM 10.3 50.54 0.052 6.84 26.48 10.66
10/27/2021 6:15:00 AM 10.31 50.558 0.052 6.89 21.32 10.66
10/27/2021 6:30:00 AM 10.31 50.558 0.052 6.91 64.59 10.66
10/27/2021 6:45:00 AM 10.32 50.576 0.052 6.92 19.34 10.66
10/27/2021 7:00:00 AM 10.33 50.594 0.051 6.87 14.07 10.66
10/27/2021 7:15:00 AM 10.33 50.594 0.051 6.84 14.2 10.66
10/27/2021 7:30:00 AM 10.34 50.612 0.051 6.82 13.83 10.66
10/27/2021 7:45:00 AM 10.35 50.63 0.051 6.83 13.69 10.66
10/27/2021 8:00:00 AM 10.36 50.648 0.051 6.83 13.16 10.66
10/27/2021 8:15:00 AM 10.37 50.666 0.051 6.88 13.1 10.67
10/27/2021 8:30:00 AM 10.38 50.684 0.051 6.81 13.64 10.67
10/27/2021 8:45:00 AM 10.39 50.702 0.051 6.86 17.92 10.67
10/27/2021 9:00:00 AM 10.41 50.738 0.051 6.85 12.64 10.68
10/27/2021 9:15:00 AM 10.42 50.756 0.051 6.79 12.98 10.7
10/27/2021 9:30:00 AM 10.45 50.81 0.047 6.9 13.9 10.71
10/27/2021 9:45:00 AM 10.47 50.846 0.048 6.8 11.51 10.72
10/27/2021 10:00:00 AM 10.49 50.882 0.051 6.81 11.59 10.73
10/27/2021 10:15:00 AM 10.52 50.936 0.051 6.82 25.16 10.75
10/27/2021 10:30:00 AM 10.54 50.972 0.051 6.83 38.4 10.75
10/27/2021 10:45:00 AM 10.56 51.008 0.051 6.89 15.51 10.76
10/27/2021 11:00:00 AM 10.6 51.08 0.051 6.84 2053.46 10.78
10/27/2021 11:15:00 AM 10.64 51.152 0.05 6.84 25 10.8
10/27/2021 11:30:00 AM 10.69 51.242 0.05 6.87 923.18 10.82
10/27/2021 11:45:00 AM 10.76 51.368 0.048 6.89 10.65 10.84
10/27/2021 12:00:00 PM 10.84 51.512 0.049 6.94 10.4 10.85
10/27/2021 12:15:00 PM 10.91 51.638 0.051 6.92 10.47 10.85
10/27/2021 12:30:00 PM 10.95 51.71 0.05 6.97 5019.82 10.85
10/27/2021 12:45:00 PM 11.04 51.872 0.05 6.97 3556.77 10.85
10/27/2021 1:00:00 PM 11.12 52.016 0.05 6.98 12.21 10.84
10/27/2021 1:15:00 PM 11.22 52.196 0.051 6.99 16.42 10.82
10/27/2021 1:30:00 PM 11.3 52.34 0.051 6.95 10.45 10.81
10/27/2021 1:45:00 PM 11.4 52.52 0.05 6.99 109.61 10.79
10/27/2021 2:00:00 PM 11.51 52.718 0.05 6.95 9.41 10.78
10/27/2021 2:15:00 PM 11.61 52.898 0.05 7 9.54 10.77
10/27/2021 2:30:00 PM 11.69 53.042 0.05 6.96 9.27 10.75
10/27/2021 2:45:00 PM 11.76 53.168 0.05 6.98 9.67 10.73
10/27/2021 3:00:00 PM 11.81 53.258 0.05 6.98 9.74 10.7
10/27/2021 3:15:00 PM 11.85 53.33 0.05 6.96 9.55 10.68
10/27/2021 3:30:00 PM 11.88 53.384 0.05 7.01 9.38 10.66
10/27/2021 3:45:00 PM 11.88 53.384 0.05 6.99 10.33 10.63
10/27/2021 4:00:00 PM 11.87 53.366 0.05 6.94 128.56 10.61
10/27/2021 4:15:00 PM 11.85 53.33 0.05 6.93 9.51 10.58
10/27/2021 4:30:00 PM 11.82 53.276 0.05 6.93 11.47 10.56
10/27/2021 4:45:00 PM 11.79 53.222 0.05 6.86 9.62 10.53
10/27/2021 5:00:00 PM 11.75 53.15 0.05 6.87 12.64 10.52
10/27/2021 5:15:00 PM 11.7 53.06 0.05 6.86 9.77 10.5
10/27/2021 5:30:00 PM 11.65 52.97 0.05 6.86 6344 10.49
10/27/2021 5:45:00 PM 11.61 52.898 0.05 6.91 1853.91 10.47
10/27/2021 6:00:00 PM 11.55 52.79 0.05 6.91 214.73 10.46
10/27/2021 6:15:00 PM 11.49 52.682 0.05 6.88 382.34 10.45
10/27/2021 6:30:00 PM 11.44 52.592 0.041 6.87 120.41 10.43
10/27/2021 6:45:00 PM 11.38 52.484 0.05 6.78 9.83 10.43
10/27/2021 7:00:00 PM 11.32 52.376 0.046 6.81 16.84 10.44
10/27/2021 7:15:00 PM 11.27 52.286 0.045 6.77 228.55 10.45
10/27/2021 7:30:00 PM 11.21 52.178 0.05 6.77 19.64 10.46
10/27/2021 7:45:00 PM 11.16 52.088 0.05 6.76 451.73 10.47
10/27/2021 8:00:00 PM 11.11 51.998 0.049 6.8 8.86 10.48
10/27/2021 8:15:00 PM 11.05 51.89 0.05 6.76 256.51 10.49
10/27/2021 8:30:00 PM 10.99 51.782 0.05 6.84 15.94 10.5
10/27/2021 8:45:00 PM 10.93 51.674 0.05 6.8 8.86 10.52
10/27/2021 9:00:00 PM 10.87 51.566 0.05 6.82 3143.45 10.54
10/27/2021 9:15:00 PM 10.81 51.458 0.05 6.79 21.77 10.55
10/27/2021 9:30:00 PM 10.74 51.332 0.05 6.81 9.06 10.56
10/27/2021 9:45:00 PM 10.68 51.224 0.05 6.77 15.48 10.58
10/27/2021 10:00:00 PM 10.62 51.116 0.05 6.79 12.25 10.6
10/27/2021 10:15:00 PM 10.55 50.99 0.05 6.76 18.73 10.61
10/27/2021 10:30:00 PM 10.49 50.882 0.05 6.82 12.39 10.63
10/27/2021 10:45:00 PM 10.43 50.774 0.05 6.76 20.06 10.65
10/27/2021 11:00:00 PM 10.37 50.666 0.05 6.77 85.54 10.68
10/27/2021 11:15:00 PM 10.3 50.54 0.05 6.77 14.51 10.69
10/27/2021 11:30:00 PM 10.24 50.432 0.05 6.77 14.85 10.7
10/27/2021 11:45:00 PM 10.18 50.324 0.05 6.76 15.27 10.71
10/28/2021 12:00:00 AM 10.12 50.216 0.05 6.79 10.98 10.72
10/28/2021 12:15:00 AM 10.06 50.108 0.051 6.77 12.23 10.74
10/28/2021 12:30:00 AM 10.01 50.018 0.05 6.78 15222.28 10.75
10/28/2021 12:45:00 AM 9.96 49.928 0.051 6.8 13.99 10.78
10/28/2021 1:00:00 AM 9.9 49.82 0.05 6.77 12.32 10.79
10/28/2021 1:15:00 AM 9.85 49.73 0.05 6.78 27.87 10.81
10/28/2021 1:30:00 AM 9.8 49.64 0.041 6.79 16.4 10.83
10/28/2021 1:45:00 AM 9.75 49.55 0.043 6.78 17.23 10.85
10/28/2021 2:00:00 AM 9.71 49.478 0.044 6.76 615.61 10.86
10/28/2021 2:15:00 AM 9.67 49.406 0.051 6.77 9.53 10.87
10/28/2021 2:30:00 AM 9.62 49.316 0.051 6.77 13.11 10.88
10/28/2021 2:45:00 AM 9.58 49.244 0.051 6.8 6446.44 10.89
10/28/2021 3:00:00 AM 9.54 49.172 0.051 6.77 8.17 10.9
10/28/2021 3:15:00 AM 9.49 49.082 0.051 6.8 7.92 10.91
10/28/2021 3:30:00 AM 9.45 49.01 0.051 6.77 7.91 10.92
10/28/2021 3:45:00 AM 9.41 48.938 0.051 6.78 7.67 10.93
10/28/2021 4:00:00 AM 9.37 48.866 0.048 6.79 7.72 10.94
10/28/2021 4:15:00 AM 9.33 48.794 0.048 6.82 564.91 10.96
10/28/2021 4:30:00 AM 9.29 48.722 0.051 6.82 5956.55 10.97
10/28/2021 4:45:00 AM 9.26 48.668 0.051 6.84 2025.95 10.99
10/28/2021 5:00:00 AM 9.22 48.596 0.047 6.82 84.34 11
10/28/2021 5:15:00 AM 9.18 48.524 0.051 6.78 7.62 11
10/28/2021 5:30:00 AM 9.15 48.47 0.048 6.76 7.74 11.02
10/28/2021 5:45:00 AM 9.11 48.398 0.051 6.8 7.54 11.02
10/28/2021 6:00:00 AM 9.07 48.326 0.051 6.72 7.57 11.04
10/28/2021 6:15:00 AM 9.03 48.254 0.051 6.75 7.56 11.05
10/28/2021 6:30:00 AM 8.99 48.182 0.051 6.76 7.41 11.06
10/28/2021 6:45:00 AM 8.96 48.128 0.051 6.77 968.18 11.06
10/28/2021 7:00:00 AM 8.92 48.056 0.05 6.83 7.5 11.07
10/28/2021 7:15:00 AM 8.89 48.002 0.051 6.8 7.44 11.08
10/28/2021 7:30:00 AM 8.86 47.948 0.051 6.82 7.34 11.09
10/28/2021 7:45:00 AM 8.82 47.876 0.038 6.78 7.29 11.11
10/28/2021 8:00:00 AM 8.79 47.822 0.049 6.77 7.46 11.12
10/28/2021 8:15:00 AM 8.76 47.768 0.05 6.77 9.07 11.16
10/28/2021 8:30:00 AM 8.74 47.732 0.051 6.79 7.22 11.18
10/28/2021 8:45:00 AM 8.72 47.696 0.048 6.79 66.51 11.21
10/28/2021 9:00:00 AM 8.7 47.66 0.051 6.8 7.27 11.26
10/28/2021 9:15:00 AM 8.68 47.624 0.037 6.87 7.89 11.32
10/28/2021 9:30:00 AM 8.68 47.624 0.049 6.83 9.58 11.37
10/28/2021 9:45:00 AM 8.68 47.624 0.051 6.91 8.59 11.4
10/28/2021 10:00:00 AM 8.68 47.624 0.049 6.84 95.5 11.44
10/28/2021 10:15:00 AM 8.69 47.642 0.05 6.91 6.78 11.46
10/28/2021 10:30:00 AM 8.7 47.66 0.046 6.92 7.01 11.46
10/28/2021 10:45:00 AM 8.71 47.678 0.051 6.87 6.92 11.48
10/28/2021 11:00:00 AM 8.76 47.768 0.05 6.9 6.8 11.47
10/28/2021 11:15:00 AM 8.82 47.876 0.05 6.92 6.66 11.49
10/28/2021 11:30:00 AM 8.89 48.002 0.05 6.94 6.91 11.49
10/28/2021 11:45:00 AM 8.99 48.182 0.05 6.96 6.92 11.5
10/28/2021 12:00:00 PM 9.09 48.362 0.05 6.91 6.61 11.48
10/28/2021 12:15:00 PM 9.18 48.524 0.05 6.95 6.71 11.47
10/28/2021 12:30:00 PM 9.28 48.704 0.05 6.98 6.36 11.46
10/28/2021 12:45:00 PM 9.41 48.938 0.05 6.94 6.72 11.43
10/28/2021 1:00:00 PM 9.57 49.226 0.05 6.98 6.43 11.4
10/28/2021 1:15:00 PM 9.72 49.496 0.05 6.95 7.88 11.38
10/28/2021 1:30:00 PM 9.87 49.766 0.05 6.98 8.83 11.35
10/28/2021 1:45:00 PM 10 50 0.045 7.02 234.19 11.31
10/28/2021 2:00:00 PM 10.12 50.216 0.051 6.97 1778.9 11.27
10/28/2021 2:15:00 PM 10.25 50.45 0.049 7.02 346.1 11.24
10/28/2021 2:30:00 PM 10.34 50.612 0.05 7.02 15.99 11.22
10/28/2021 2:45:00 PM 10.45 50.81 0.05 7.05 6919.67 11.17
10/28/2021 3:00:00 PM 10.54 50.972 0.05 7 6.87 11.14
10/28/2021 3:15:00 PM 10.59 51.062 0.047 6.99 8.39 11.1
10/28/2021 3:30:00 PM 10.65 51.17 0.05 6.99 9.55 11.07
10/28/2021 3:45:00 PM 10.72 51.296 0.05 7.01 21.41 11.05
10/28/2021 4:00:00 PM 10.76 51.368 0.05 7.02 10.46 11.02
10/28/2021 4:15:00 PM 10.81 51.458 0.051 7.02 5.15 11
10/28/2021 4:30:00 PM 10.85 51.53 0.051 6.93 5.22 10.96
10/28/2021 4:45:00 PM 10.88 51.584 0.049 6.94 5.26 10.93
10/28/2021 5:00:00 PM 10.92 51.656 0.051 6.97 6.2 10.89
10/28/2021 5:15:00 PM 10.97 51.746 0.051 6.95 5.25 10.85
10/28/2021 5:30:00 PM 11 51.8 0.051 6.95 5.83 10.8
10/28/2021 5:45:00 PM 11.01 51.818 0.051 6.96 5.45 10.75
10/28/2021 6:00:00 PM 11.03 51.854 0.051 6.89 5.76 10.69
10/28/2021 6:15:00 PM 11.03 51.854 0.052 6.92 6.66 10.64
10/28/2021 6:30:00 PM 11.03 51.854 0.051 6.86 5.38 10.6
10/28/2021 6:45:00 PM 11.03 51.854 0.051 6.89 5.47 10.57
10/28/2021 7:00:00 PM 11.02 51.836 0.051 6.85 5.57 10.55
10/28/2021 7:15:00 PM 11.03 51.854 0.051 6.89 7.21 10.53
10/28/2021 7:30:00 PM 11.02 51.836 0.051 6.93 22 10.52
10/28/2021 7:45:00 PM 11.02 51.836 0.051 6.87 129.39 10.51
10/28/2021 8:00:00 PM 11.03 51.854 0.051 6.87 5.41 10.51
10/28/2021 8:15:00 PM 11.03 51.854 0.051 6.87 5.42 10.5
10/28/2021 8:30:00 PM 11.02 51.836 0.051 6.86 5.51 10.5
10/28/2021 8:45:00 PM 11.02 51.836 0.051 6.86 5.53 10.49
10/28/2021 9:00:00 PM 11.02 51.836 0.052 6.87 6.55 10.5
10/28/2021 9:15:00 PM 11.01 51.818 0.049 6.86 5.4 10.5
10/28/2021 9:30:00 PM 11.01 51.818 0.051 6.87 5.68 10.5
10/28/2021 9:45:00 PM 11.01 51.818 0.052 6.82 5.77 10.5
10/28/2021 10:00:00 PM 11 51.8 0.052 6.86 5.4 10.51
10/28/2021 10:15:00 PM 11 51.8 0.052 6.82 5.33 10.51
10/28/2021 10:30:00 PM 10.99 51.782 0.052 6.85 5.43 10.5
10/28/2021 10:45:00 PM 10.99 51.782 0.052 6.87 5.43 10.5
10/28/2021 11:00:00 PM 10.98 51.764 0.052 6.89 5.46 10.5
10/28/2021 11:15:00 PM 10.98 51.764 0.052 6.86 4232.43 10.51
10/28/2021 11:30:00 PM 10.97 51.746 0.052 6.85 6.53 10.5
10/28/2021 11:45:00 PM 10.96 51.728 0.053 6.84 6.67 10.51
10/29/2021 12:00:00 AM 10.96 51.728 0.053 6.84 6.88 10.5
10/29/2021 12:15:00 AM 10.95 51.71 0.052 6.83 6.93 10.5
10/29/2021 12:30:00 AM 10.95 51.71 0.052 6.87 7 10.51
10/29/2021 12:45:00 AM 10.94 51.692 0.052 6.86 6.91 10.51
10/29/2021 1:00:00 AM 10.94 51.692 0.052 6.89 6.99 10.51
10/29/2021 1:15:00 AM 10.94 51.692 0.052 6.89 6.58 10.51
10/29/2021 1:30:00 AM 10.93 51.674 0.052 6.89 6.68 10.51
10/29/2021 1:45:00 AM 10.93 51.674 0.052 6.94 6.99 10.52
10/29/2021 2:00:00 AM 10.93 51.674 0.052 6.9 6.76 10.52
10/29/2021 2:15:00 AM 10.93 51.674 0.052 6.86 6.77 10.51
10/29/2021 2:30:00 AM 10.92 51.656 0.052 6.89 6.57 10.51
10/29/2021 2:45:00 AM 10.92 51.656 0.052 6.9 6.63 10.51
10/29/2021 3:00:00 AM 10.92 51.656 0.052 6.93 6.83 10.51
10/29/2021 3:15:00 AM 10.91 51.638 0.052 6.91 6.65 10.51
10/29/2021 3:30:00 AM 10.91 51.638 0.052 6.95 6.65 10.5
10/29/2021 3:45:00 AM 10.9 51.62 0.052 6.92 6.61 10.51
10/29/2021 4:00:00 AM 10.9 51.62 0.052 6.93 6.67 10.51
10/29/2021 4:15:00 AM 10.89 51.602 0.052 6.91 6.7 10.5
10/29/2021 4:30:00 AM 10.89 51.602 0.052 6.94 62 10.51
10/29/2021 4:45:00 AM 10.88 51.584 0.052 6.95 7.03 10.51
10/29/2021 5:00:00 AM 10.88 51.584 0.052 6.95 6.84 10.5
10/29/2021 5:15:00 AM 10.87 51.566 0.052 6.93 6.9 10.51
10/29/2021 5:30:00 AM 10.87 51.566 0.052 6.92 6.96 10.51
10/29/2021 5:45:00 AM 10.86 51.548 0.052 6.94 7.26 10.51
10/29/2021 6:00:00 AM 10.85 51.53 0.052 6.91 6.78 10.51
10/29/2021 6:15:00 AM 10.85 51.53 0.052 6.93 6.9 10.51
10/29/2021 6:30:00 AM 10.84 51.512 0.052 6.94 6.91 10.51
10/29/2021 6:45:00 AM 10.83 51.494 0.052 6.92 4.92 10.51
10/29/2021 7:00:00 AM 10.82 51.476 0.052 6.94 4.98 10.51
10/29/2021 7:15:00 AM 10.81 51.458 0.052 6.91 4.97 10.5
10/29/2021 7:30:00 AM 10.8 51.44 0.052 6.92 4.89 10.51
10/29/2021 7:45:00 AM 10.79 51.422 0.052 6.93 5.04 10.51
10/29/2021 8:00:00 AM 10.78 51.404 0.052 6.94 4.84 10.52
10/29/2021 8:15:00 AM 10.76 51.368 0.052 6.95 4.87 10.52
10/29/2021 8:30:00 AM 10.75 51.35 0.052 6.93 4.78 10.53
10/29/2021 8:45:00 AM 10.74 51.332 0.052 6.93 4.75 10.55
10/29/2021 9:00:00 AM 10.74 51.332 0.052 6.94 4.76 10.59
10/29/2021 9:15:00 AM 10.73 51.314 0.052 6.95 4.74 10.62
10/29/2021 9:30:00 AM 10.74 51.332 0.052 6.96 4.79 10.68
10/29/2021 9:45:00 AM 10.73 51.314 0.052 6.98 4.7 10.7
10/29/2021 10:00:00 AM 10.73 51.314 0.052 7 4.67 10.71
10/29/2021 10:15:00 AM 10.73 51.314 0.052 7 4.73 10.75
10/29/2021 10:30:00 AM 10.73 51.314 0.052 7.01 4.6 10.78
10/29/2021 10:45:00 AM 10.73 51.314 0.052 7.02 4.64 10.81
10/29/2021 11:00:00 AM 10.73 51.314 0.052 7.02 4.58 10.81
10/29/2021 11:15:00 AM 10.72 51.296 0.052 7.05 4.56 10.8
10/29/2021 11:30:00 AM 10.71 51.278 0.052 7.05 4.59 10.8
10/29/2021 11:45:00 AM 10.7 51.26 0.052 7.02 4.65 10.81
10/29/2021 12:00:00 PM 10.69 51.242 0.052 7.03 4.61 10.8
10/29/2021 12:15:00 PM 10.68 51.224 0.052 7.05 4.59 10.79
10/29/2021 12:30:00 PM 10.67 51.206 0.052 7.03 4.55 10.79
10/29/2021 12:45:00 PM 10.66 51.188 0.052 7.05 4.44 10.78
10/29/2021 1:00:00 PM 10.65 51.17 0.052 7.04 4.61 10.78
10/29/2021 1:15:00 PM 10.65 51.17 0.052 7.05 4.59 10.79
10/29/2021 1:30:00 PM 10.64 51.152 0.052 7.04 4.56 10.8
10/29/2021 1:45:00 PM 10.64 51.152 0.052 7.04 4.62 10.79
10/29/2021 2:00:00 PM 10.62 51.116 0.052 7.04 4.6 10.78
10/29/2021 2:15:00 PM 10.61 51.098 0.052 7.04 4.8 10.79
10/29/2021 2:30:00 PM 10.63 51.134 0.052 7.07 5.01 10.83
10/29/2021 2:45:00 PM 10.63 51.134 0.052 7.06 5.64 10.83
10/29/2021 3:00:00 PM 10.63 51.134 0.052 7.04 6.15 10.81
10/29/2021 3:15:00 PM 10.63 51.134 0.052 7.06 8.05 10.79
10/29/2021 3:30:00 PM 10.62 51.116 0.052 7.02 8.36 10.75
10/29/2021 3:45:00 PM 10.61 51.098 0.052 7.04 7.21 10.73
10/29/2021 4:00:00 PM 10.59 51.062 0.052 7 6.67 10.73
10/29/2021 4:15:00 PM 10.58 51.044 0.052 7.02 7.45 10.72
10/29/2021 4:30:00 PM 10.58 51.044 0.052 6.99 7.64 10.72
10/29/2021 4:45:00 PM 10.58 51.044 0.052 7.01 8.11 10.7
10/29/2021 5:00:00 PM 10.57 51.026 0.052 6.98 10.04 10.68
10/29/2021 5:15:00 PM 10.56 51.008 0.052 6.99 11.9 10.65
10/29/2021 5:30:00 PM 10.55 50.99 0.052 6.97 13.74 10.64
10/29/2021 5:45:00 PM 10.53 50.954 0.052 6.97 12.42 10.62
10/29/2021 6:00:00 PM 10.51 50.918 0.052 6.93 12.56 10.61
10/29/2021 6:15:00 PM 10.49 50.882 0.052 6.9 12.9 10.59
10/29/2021 6:30:00 PM 10.47 50.846 0.052 6.93 14.05 10.58
10/29/2021 6:45:00 PM 10.46 50.828 0.052 6.89 14.86 10.57
10/29/2021 7:00:00 PM 10.44 50.792 0.052 6.93 15.04 10.57
10/29/2021 7:15:00 PM 10.43 50.774 0.052 6.9 15.52 10.56
10/29/2021 7:30:00 PM 10.42 50.756 0.052 6.94 16.07 10.57
10/29/2021 7:45:00 PM 10.4 50.72 0.052 6.92 15.89 10.56
10/29/2021 8:00:00 PM 10.39 50.702 0.052 6.95 15.9 10.57
10/29/2021 8:15:00 PM 10.38 50.684 0.052 6.89 15.58 10.57
10/29/2021 8:30:00 PM 10.37 50.666 0.052 6.9 15.82 10.57
10/29/2021 8:45:00 PM 10.35 50.63 0.052 6.91 19.79 10.57
10/29/2021 9:00:00 PM 10.34 50.612 0.052 6.93 1668.35 10.57
10/29/2021 9:15:00 PM 10.33 50.594 0.048 6.9 1466.17 10.58
10/29/2021 9:30:00 PM 10.32 50.576 0.044 6.88 16.12 10.58
10/29/2021 9:45:00 PM 10.3 50.54 0.052 6.88 17.34 10.58
10/29/2021 10:00:00 PM 10.29 50.522 0.052 6.9 16.89 10.59
10/29/2021 10:15:00 PM 10.28 50.504 0.052 6.88 17.02 10.59
10/29/2021 10:30:00 PM 10.27 50.486 0.052 6.88 16.64 10.59
10/29/2021 10:45:00 PM 10.26 50.468 0.051 6.91 15.8 10.59
10/29/2021 11:00:00 PM 10.25 50.45 0.051 6.9 15.36 10.6
10/29/2021 11:15:00 PM 10.24 50.432 0.051 6.9 14.65 10.6
10/29/2021 11:30:00 PM 10.23 50.414 0.051 6.85 15.24 10.6
10/29/2021 11:45:00 PM 10.23 50.414 0.051 6.87 14.62 10.6
10/30/2021 12:00:00 AM 10.22 50.396 0.051 6.89 14.7 10.6
10/30/2021 12:15:00 AM 10.21 50.378 0.051 6.87 13.68 10.61
10/30/2021 12:30:00 AM 10.21 50.378 0.051 6.89 13.12 10.6
10/30/2021 12:45:00 AM 10.2 50.36 0.051 6.86 12.17 10.61
10/30/2021 1:00:00 AM 10.2 50.36 0.051 6.88 12.98 10.61
10/30/2021 1:15:00 AM 10.19 50.342 0.051 6.86 14.34 10.6
10/30/2021 1:30:00 AM 10.18 50.324 0.051 6.86 14.64 10.6
10/30/2021 1:45:00 AM 10.18 50.324 0.051 6.89 21.23 10.61
10/30/2021 2:00:00 AM 10.17 50.306 0.051 6.88 12.98 10.6
10/30/2021 2:15:00 AM 10.16 50.288 0.051 6.85 13.88 10.61
10/30/2021 2:30:00 AM 10.16 50.288 0.051 6.87 24.45 10.61
10/30/2021 2:45:00 AM 10.15 50.27 0.051 6.88 11.11 10.61
10/30/2021 3:00:00 AM 10.14 50.252 0.051 6.89 11.13 10.61
10/30/2021 3:15:00 AM 10.13 50.234 0.051 6.84 11.75 10.61
10/30/2021 3:30:00 AM 10.13 50.234 0.051 6.83 11.78 10.61
10/30/2021 3:45:00 AM 10.12 50.216 0.051 6.87 11.74 10.61
10/30/2021 4:00:00 AM 10.11 50.198 0.051 6.84 10.73 10.61
10/30/2021 4:15:00 AM 10.11 50.198 0.051 6.86 10 10.61
10/30/2021 4:30:00 AM 10.1 50.18 0.051 6.86 362.08 10.62
10/30/2021 4:45:00 AM 10.09 50.162 0.051 6.83 9.44 10.62
10/30/2021 5:00:00 AM 10.08 50.144 0.051 6.83 27.29 10.62
10/30/2021 5:15:00 AM 10.07 50.126 0.051 6.85 14.79 10.62
10/30/2021 5:30:00 AM 10.07 50.126 0.051 6.84 16.83 10.63
10/30/2021 5:45:00 AM 10.06 50.108 0.051 6.82 17.62 10.62
10/30/2021 6:00:00 AM 10.05 50.09 0.051 6.86 16.63 10.63
10/30/2021 6:15:00 AM 10.05 50.09 0.051 6.86 18.03 10.63
10/30/2021 6:30:00 AM 10.04 50.072 0.051 6.85 18.12 10.63
10/30/2021 6:45:00 AM 10.03 50.054 0.051 6.84 12.99 10.64
10/30/2021 7:00:00 AM 10.03 50.054 0.051 6.86 12.2 10.64
10/30/2021 7:15:00 AM 10.02 50.036 0.05 6.84 11.11 10.64
10/30/2021 7:30:00 AM 10.01 50.018 0.05 6.84 8.63 10.65
10/30/2021 7:45:00 AM 10.01 50.018 0.05 6.85 25.03 10.64
10/30/2021 8:00:00 AM 10 50 0.05 6.86 8.35 10.65
10/30/2021 8:15:00 AM 10 50 0.05 6.84 7.58 10.66
10/30/2021 8:30:00 AM 10 50 0.05 6.86 198.29 10.68
10/30/2021 8:45:00 AM 10 50 0.05 6.84 7.39 10.69
10/30/2021 9:00:00 AM 10.01 50.018 0.05 6.87 7.49 10.72
10/30/2021 9:15:00 AM 10.01 50.018 0.05 6.86 19.17 10.74
10/30/2021 9:30:00 AM 10.02 50.036 0.05 6.86 18.49 10.77
10/30/2021 9:45:00 AM 10.04 50.072 0.05 6.89 15.05 10.79
10/30/2021 10:00:00 AM 10.06 50.108 0.05 6.86 18.96 10.83
10/30/2021 10:15:00 AM 10.09 50.162 0.05 6.88 16.42 10.86
10/30/2021 10:30:00 AM 10.12 50.216 0.05 6.9 19.9 10.89
10/30/2021 10:45:00 AM 10.14 50.252 0.05 6.93 10.72 10.91
10/30/2021 11:00:00 AM 10.17 50.306 0.05 6.9 7.36 10.91
10/30/2021 11:15:00 AM 10.19 50.342 0.049 6.9 6.71 10.92
10/30/2021 11:30:00 AM 10.22 50.396 0.049 6.91 6.71 10.93
10/30/2021 11:45:00 AM 10.25 50.45 0.049 6.96 7.18 10.93
10/30/2021 12:00:00 PM 10.28 50.504 0.049 6.93 40.16 10.94
10/30/2021 12:15:00 PM 10.33 50.594 0.049 6.95 28.27 10.95
10/30/2021 12:30:00 PM 10.37 50.666 0.049 6.95 7.07 10.96
10/30/2021 12:45:00 PM 10.41 50.738 0.049 6.98 7.38 10.97
10/30/2021 1:00:00 PM 10.46 50.828 0.049 6.95 8.04 10.96
10/30/2021 1:15:00 PM 10.49 50.882 0.049 6.97 9.13 10.95
10/30/2021 1:30:00 PM 10.55 50.99 0.049 6.98 8.28 10.95
10/30/2021 1:45:00 PM 10.59 51.062 0.049 6.98 8.15 10.95
10/30/2021 2:00:00 PM 10.64 51.152 0.049 6.99 7.49 10.94
10/30/2021 2:15:00 PM 10.69 51.242 0.049 7 6.91 10.93
10/30/2021 2:30:00 PM 10.73 51.314 0.049 7 7.07 10.92
10/30/2021 2:45:00 PM 10.77 51.386 0.049 7 7.26 10.91
10/30/2021 3:00:00 PM 10.81 51.458 0.049 7 9.14 10.88
10/30/2021 3:15:00 PM 10.83 51.494 0.049 7 7.66 10.87
10/30/2021 3:30:00 PM 10.85 51.53 0.049 7.01 7.46 10.84
10/30/2021 3:45:00 PM 10.86 51.548 0.049 6.97 8.22 10.83
10/30/2021 4:00:00 PM 10.89 51.602 0.049 7 8.33 10.81
10/30/2021 4:15:00 PM 10.91 51.638 0.049 6.97 15.76 10.78
10/30/2021 4:30:00 PM 10.92 51.656 0.049 6.91 8.29 10.75
10/30/2021 4:45:00 PM 10.93 51.674 0.049 6.95 7.45 10.72
10/30/2021 5:00:00 PM 10.94 51.692 0.049 6.92 181.07 10.68
10/30/2021 5:15:00 PM 10.94 51.692 0.049 6.94 59.15 10.63
10/30/2021 5:30:00 PM 10.94 51.692 0.049 6.9 7.65 10.59
10/30/2021 5:45:00 PM 10.94 51.692 0.049 6.9 7.31 10.55
10/30/2021 6:00:00 PM 10.94 51.692 0.049 6.89 8.15 10.53
10/30/2021 6:15:00 PM 10.93 51.674 0.049 6.87 9.05 10.51
10/30/2021 6:30:00 PM 10.93 51.674 0.049 6.89 8.25 10.49
10/30/2021 6:45:00 PM 10.92 51.656 0.049 6.85 8.55 10.47
10/30/2021 7:00:00 PM 10.91 51.638 0.049 6.85 8.54 10.46
10/30/2021 7:15:00 PM 10.9 51.62 0.049 6.83 8.3 10.45
10/30/2021 7:30:00 PM 10.9 51.62 0.049 6.84 8.52 10.45
10/30/2021 7:45:00 PM 10.89 51.602 0.049 6.87 7.88 10.44
10/30/2021 8:00:00 PM 10.88 51.584 0.049 6.83 8.06 10.45
10/30/2021 8:15:00 PM 10.87 51.566 0.049 6.83 8.33 10.45
10/30/2021 8:30:00 PM 10.86 51.548 0.049 6.83 8.81 10.44
10/30/2021 8:45:00 PM 10.85 51.53 0.049 6.84 8.29 10.45
10/30/2021 9:00:00 PM 10.84 51.512 0.049 6.83 8.34 10.46
10/30/2021 9:15:00 PM 10.83 51.494 0.049 6.83 8.48 10.45
10/30/2021 9:30:00 PM 10.82 51.476 0.049 6.83 8.1 10.46
10/30/2021 9:45:00 PM 10.81 51.458 0.049 6.81 8.46 10.46
10/30/2021 10:00:00 PM 10.8 51.44 0.049 6.84 8.02 10.46
10/30/2021 10:15:00 PM 10.79 51.422 0.049 6.83 8.29 10.46
10/30/2021 10:30:00 PM 10.79 51.422 0.049 6.84 8.38 10.46
10/30/2021 10:45:00 PM 10.78 51.404 0.049 6.8 7.69 10.47
10/30/2021 11:00:00 PM 10.77 51.386 0.049 6.85 8.07 10.47
10/30/2021 11:15:00 PM 10.76 51.368 0.049 6.81 8.25 10.47
10/30/2021 11:30:00 PM 10.75 51.35 0.049 6.83 8.14 10.47
10/30/2021 11:45:00 PM 10.74 51.332 0.049 6.84 7.76 10.48
10/31/2021 12:00:00 AM 10.73 51.314 0.049 6.83 7.95 10.48
10/31/2021 12:15:00 AM 10.73 51.314 0.049 6.81 8.08 10.48
10/31/2021 12:30:00 AM 10.72 51.296 0.049 6.82 7.96 10.48
10/31/2021 12:45:00 AM 10.71 51.278 0.049 6.82 7.68 10.48
10/31/2021 1:00:00 AM 10.7 51.26 0.049 6.8 6.92 10.48
10/31/2021 1:15:00 AM 10.69 51.242 0.049 6.81 7.35 10.48
10/31/2021 1:30:00 AM 10.69 51.242 0.049 6.81 7.43 10.49
10/31/2021 1:45:00 AM 10.68 51.224 0.049 6.82 7.16 10.49
10/31/2021 2:00:00 AM 10.67 51.206 0.049 6.81 7.37 10.49
10/31/2021 2:15:00 AM 10.67 51.206 0.049 6.87 8.1 10.49
10/31/2021 2:30:00 AM 10.66 51.188 0.049 6.86 7.87 10.49
10/31/2021 2:45:00 AM 10.65 51.17 0.049 6.84 7.39 10.5
10/31/2021 3:00:00 AM 10.64 51.152 0.049 6.82 7.35 10.49
10/31/2021 3:15:00 AM 10.64 51.152 0.049 6.85 7.46 10.49
10/31/2021 3:30:00 AM 10.63 51.134 0.049 6.83 7.44 10.5
10/31/2021 3:45:00 AM 10.63 51.134 0.049 6.81 5.84 10.5
10/31/2021 4:00:00 AM 10.63 51.134 0.049 6.79 6.36 10.5
10/31/2021 4:15:00 AM 10.62 51.116 0.049 6.78 6.12 10.5
10/31/2021 4:30:00 AM 10.62 51.116 0.049 6.76 6.51 10.5
10/31/2021 4:45:00 AM 10.61 51.098 0.049 6.82 6.78 10.5
10/31/2021 5:00:00 AM 10.61 51.098 0.049 6.81 6.11 10.5
10/31/2021 5:15:00 AM 10.61 51.098 0.049 6.81 6.41 10.5
10/31/2021 5:30:00 AM 10.6 51.08 0.049 6.82 6.47 10.51
10/31/2021 5:45:00 AM 10.6 51.08 0.049 6.79 6.49 10.51
10/31/2021 6:00:00 AM 10.59 51.062 0.049 6.8 6.84 10.51
10/31/2021 6:15:00 AM 10.59 51.062 0.049 6.81 6.88 10.51
10/31/2021 6:30:00 AM 10.59 51.062 0.049 6.84 6.7 10.51
10/31/2021 6:45:00 AM 10.58 51.044 0.049 6.86 7.06 10.51
10/31/2021 7:00:00 AM 10.58 51.044 0.049 6.84 6.78 10.51
10/31/2021 7:15:00 AM 10.58 51.044 0.049 6.85 6.88 10.52
10/31/2021 7:30:00 AM 10.57 51.026 0.049 6.83 6.68 10.52
10/31/2021 7:45:00 AM 10.57 51.026 0.049 6.83 6.91 10.52
10/31/2021 8:00:00 AM 10.57 51.026 0.049 6.88 6.82 10.52
10/31/2021 8:15:00 AM 10.57 51.026 0.049 6.85 6.59 10.54
10/31/2021 8:30:00 AM 10.57 51.026 0.049 6.86 6.86 10.55
10/31/2021 8:45:00 AM 10.57 51.026 0.049 6.89 6.96 10.58
10/31/2021 9:00:00 AM 10.57 51.026 0.049 6.86 6.72 10.6
10/31/2021 9:15:00 AM 10.59 51.062 0.049 6.9 6.45 10.65
10/31/2021 9:30:00 AM 10.6 51.08 0.049 6.87 6.72 10.68
10/31/2021 9:45:00 AM 10.6 51.08 0.049 6.9 6.52 10.69
10/31/2021 10:00:00 AM 10.63 51.134 0.049 6.91 6.12 10.76
10/31/2021 10:15:00 AM 10.64 51.152 0.049 6.93 6.59 10.78
10/31/2021 10:30:00 AM 10.66 51.188 0.049 6.97 6.42 10.81
10/31/2021 10:45:00 AM 10.68 51.224 0.049 6.95 6.67 10.84
10/31/2021 11:00:00 AM 10.71 51.278 0.049 6.98 6.26 10.87
10/31/2021 11:15:00 AM 10.74 51.332 0.049 6.99 6.5 10.89
10/31/2021 11:30:00 AM 10.76 51.368 0.049 6.98 6.42 10.89
10/31/2021 11:45:00 AM 10.77 51.386 0.049 7 6.19 10.88
10/31/2021 12:00:00 PM 10.77 51.386 0.049 7.01 6.23 10.87
10/31/2021 12:15:00 PM 10.78 51.404 0.049 7 6.42 10.89
10/31/2021 12:30:00 PM 10.78 51.404 0.049 7.02 6.36 10.86
10/31/2021 12:45:00 PM 10.79 51.422 0.049 7.01 6.24 10.87
10/31/2021 1:00:00 PM 10.8 51.44 0.049 7.03 6.49 10.87
10/31/2021 1:15:00 PM 10.82 51.476 0.049 7.01 6.31 10.87
10/31/2021 1:30:00 PM 10.87 51.566 0.049 7.03 6.15 10.91
10/31/2021 1:45:00 PM 10.9 51.62 0.049 7.02 6.13 10.93
10/31/2021 2:00:00 PM 10.92 51.656 0.049 7.03 6.3 10.92
10/31/2021 2:15:00 PM 10.92 51.656 0.049 7.05 5.9 10.91
10/31/2021 2:30:00 PM 10.95 51.71 0.049 6.99 6.08 10.92
10/31/2021 2:45:00 PM 10.97 51.746 0.049 7.02 5.55 10.93
10/31/2021 3:00:00 PM 11.01 51.818 0.049 7.02 5.99 10.93
10/31/2021 3:15:00 PM 11.03 51.854 0.049 7.05 6.24 10.93
10/31/2021 3:30:00 PM 11.07 51.926 0.049 7.06 5.65 10.94
10/31/2021 3:45:00 PM 11.08 51.944 0.049 7.06 6.11 10.93
10/31/2021 4:00:00 PM 11.09 51.962 0.049 6.99 5.71 10.9
10/31/2021 4:15:00 PM 11.08 51.944 0.049 7.03 5.89 10.85
10/31/2021 4:30:00 PM 11.09 51.962 0.049 7.04 6.21 10.84
10/31/2021 4:45:00 PM 11.08 51.944 0.049 7.01 6.67 10.83
10/31/2021 5:00:00 PM 11.06 51.908 0.049 7.01 461.13 10.83
10/31/2021 5:15:00 PM 11.04 51.872 0.049 7.01 6.41 10.8
10/31/2021 5:30:00 PM 11.02 51.836 0.049 7.01 6.29 10.77
10/31/2021 5:45:00 PM 10.99 51.782 0.049 6.97 6.23 10.73
10/31/2021 6:00:00 PM 10.96 51.728 0.049 7.03 6.36 10.69
10/31/2021 6:15:00 PM 10.94 51.692 0.049 6.94 6.07 10.65
10/31/2021 6:30:00 PM 10.91 51.638 0.049 6.95 1515.72 10.62
10/31/2021 6:45:00 PM 10.88 51.584 0.049 6.93 6.12 10.58
10/31/2021 7:00:00 PM 10.83 51.494 0.049 6.92 6.56 10.57
10/31/2021 7:15:00 PM 10.79 51.422 0.049 6.97 6.73 10.55
10/31/2021 7:30:00 PM 10.74 51.332 0.049 6.91 6.54 10.56
10/31/2021 7:45:00 PM 10.7 51.26 0.049 6.94 6.29 10.56
10/31/2021 8:00:00 PM 10.65 51.17 0.05 6.91 6.98 10.57
10/31/2021 8:15:00 PM 10.6 51.08 0.05 6.87 6.65 10.58
10/31/2021 8:30:00 PM 10.56 51.008 0.05 6.92 6.87 10.59
10/31/2021 8:45:00 PM 10.51 50.918 0.05 6.89 6.58 10.6
10/31/2021 9:00:00 PM 10.47 50.846 0.05 6.87 6.12 10.62
10/31/2021 9:15:00 PM 10.43 50.774 0.05 6.86 5.53 10.62
10/31/2021 9:30:00 PM 10.39 50.702 0.05 6.87 6.08 10.64
10/31/2021 9:45:00 PM 10.34 50.612 0.05 6.88 5.97 10.66
10/31/2021 10:00:00 PM 10.31 50.558 0.05 6.87 5.97 10.67
10/31/2021 10:15:00 PM 10.28 50.504 0.05 6.9 6.54 10.68
10/31/2021 10:30:00 PM 10.25 50.45 0.05 6.94 6.19 10.69
10/31/2021 10:45:00 PM 10.23 50.414 0.05 6.94 5.81 10.69
10/31/2021 11:00:00 PM 10.21 50.378 0.05 6.93 5.78 10.7
10/31/2021 11:15:00 PM 10.18 50.324 0.05 6.92 5.89 10.71
10/31/2021 11:30:00 PM 10.16 50.288 0.05 6.93 5.53 10.71
10/31/2021 11:45:00 PM 10.13 50.234 0.05 6.94 5.19 10.72
11/1/2021 12:00:00 AM 10.12 50.216 0.05 6.93 5.56 10.72
11/1/2021 12:15:00 AM 10.1 50.18 0.05 6.92 5.27 10.73
11/1/2021 12:30:00 AM 10.09 50.162 0.05 6.95 5.28 10.73
11/1/2021 12:45:00 AM 10.08 50.144 0.05 6.94 5.26 10.74
11/1/2021 1:00:00 AM 10.07 50.126 0.05 6.93 5.21 10.74
11/1/2021 1:15:00 AM 10.06 50.108 0.05 6.92 5.33 10.75
11/1/2021 1:30:00 AM 10.05 50.09 0.05 6.95 5.12 10.74
11/1/2021 1:45:00 AM 10.05 50.09 0.05 6.91 5.52 10.75
11/1/2021 2:00:00 AM 10.05 50.09 0.05 6.93 5.42 10.75
11/1/2021 2:15:00 AM 10.05 50.09 0.05 6.93 5.48 10.75
11/1/2021 2:30:00 AM 10.04 50.072 0.05 6.94 5.37 10.76
11/1/2021 2:45:00 AM 10.04 50.072 0.05 6.96 5.44 10.77
11/1/2021 3:00:00 AM 10.03 50.054 0.05 6.93 5.56 10.77
11/1/2021 3:15:00 AM 10.03 50.054 0.05 6.95 5.16 10.77
11/1/2021 3:30:00 AM 10.02 50.036 0.05 6.95 5.61 10.78
11/1/2021 3:45:00 AM 10 50 0.05 6.95 6.15 10.78
11/1/2021 4:00:00 AM 9.98 49.964 0.05 6.88 5.53 10.79
11/1/2021 4:15:00 AM 9.96 49.928 0.05 6.93 5.73 10.8
11/1/2021 4:30:00 AM 9.93 49.874 0.05 6.92 5.44 10.8
11/1/2021 4:45:00 AM 9.9 49.82 0.05 6.91 5 10.81
11/1/2021 5:00:00 AM 9.88 49.784 0.05 6.89 4.95 10.83
11/1/2021 5:15:00 AM 9.85 49.73 0.05 6.96 4.82 10.83
11/1/2021 5:30:00 AM 9.82 49.676 0.05 6.93 4.84 10.85
11/1/2021 5:45:00 AM 9.78 49.604 0.05 6.96 4.94 10.86
11/1/2021 6:00:00 AM 9.75 49.55 0.05 6.88 4.99 10.87
11/1/2021 6:15:00 AM 9.71 49.478 0.05 6.9 5.07 10.88
11/1/2021 6:30:00 AM 9.68 49.424 0.05 6.97 5.1 10.9
11/1/2021 6:45:00 AM 9.64 49.352 0.05 6.88 9.05 10.9
11/1/2021 7:00:00 AM 9.6 49.28 0.05 6.93 5.36 10.91
11/1/2021 7:15:00 AM 9.56 49.208 0.05 6.9 5.05 10.92
11/1/2021 7:30:00 AM 9.52 49.136 0.05 6.94 5.4 10.92
11/1/2021 7:45:00 AM 9.48 49.064 0.05 6.95 5.16 10.94
11/1/2021 8:00:00 AM 9.44 48.992 0.05 6.87 4.81 10.96
11/1/2021 8:15:00 AM 9.4 48.92 0.05 6.92 4.69 11
11/1/2021 8:30:00 AM 9.36 48.848 0.05 6.92 5.14 11.04
11/1/2021 8:45:00 AM 9.32 48.776 0.05 6.91 4.76 11.08
11/1/2021 9:00:00 AM 9.29 48.722 0.05 6.96 8.5 11.13
11/1/2021 9:15:00 AM 9.28 48.704 0.05 6.92 12.29 11.2
11/1/2021 9:30:00 AM 9.26 48.668 0.05 6.96 20.08 11.24
11/1/2021 9:45:00 AM 9.26 48.668 0.05 6.97 10.11 11.31
11/1/2021 10:00:00 AM 9.25 48.65 0.05 7.01 11.28 11.33
11/1/2021 10:15:00 AM 9.25 48.65 0.051 7.04 5.86 11.38
11/1/2021 10:30:00 AM 9.26 48.668 0.051 7.04 4.48 11.43
11/1/2021 10:45:00 AM 9.26 48.668 0.051 7.03 9.31 11.46
11/1/2021 11:00:00 AM 9.28 48.704 0.05 7.05 4.54 11.49
11/1/2021 11:15:00 AM 9.32 48.776 0.05 7.09 4.57 11.51
11/1/2021 11:30:00 AM 9.3 48.74 0.05 7.05 4.48 11.53
11/1/2021 11:45:00 AM 9.33 48.794 0.05 7.1 9.68 11.55
11/1/2021 12:00:00 PM 9.41 48.938 0.05 7.07 4.42 11.56
11/1/2021 12:15:00 PM 9.51 49.118 0.05 7.12 4.49 11.56
11/1/2021 12:30:00 PM 9.63 49.334 0.05 7.1 4.43 11.56
11/1/2021 12:45:00 PM 9.73 49.514 0.05 7.12 4.49 11.55
11/1/2021 1:00:00 PM 9.86 49.748 0.05 7.14 4.23 11.55
11/1/2021 1:15:00 PM 9.93 49.874 0.05 7.14 11.84 11.52
11/1/2021 1:30:00 PM 9.87 49.766 0.05 7.17 4.29 11.5
11/1/2021 1:45:00 PM 9.79 49.622 0.05 7.15 4.3 11.51
11/1/2021 2:00:00 PM 9.8 49.64 0.05 7.14 4.34 11.52
11/1/2021 2:15:00 PM 9.98 49.964 0.05 7.16 4.37 11.5
11/1/2021 2:30:00 PM 10.08 50.144 0.05 7.16 4.38 11.45
11/1/2021 2:45:00 PM 10.22 50.396 0.05 7.17 6.74 11.45
11/1/2021 3:00:00 PM 10.28 50.504 0.05 7.26 4.44 11.44
11/1/2021 3:15:00 PM 10.3 50.54 0.05 7.16 20.34 11.42
11/1/2021 3:30:00 PM 10.25 50.45 0.05 7.18 4.39 11.41
11/1/2021 3:45:00 PM 10.18 50.324 0.05 7.21 4.38 11.39
11/1/2021 4:00:00 PM 10.13 50.234 0.05 7.19 4.64 11.38
11/1/2021 4:15:00 PM 10.1 50.18 0.05 7.16 4.57 11.35
11/1/2021 4:30:00 PM 10.02 50.036 0.05 7.13 5.07 11.29
11/1/2021 4:45:00 PM 9.97 49.946 0.05 7.11 4.54 11.29
11/1/2021 5:00:00 PM 9.91 49.838 0.05 7.11 4.89 11.28
11/1/2021 5:15:00 PM 9.86 49.748 0.05 7.08 4.71 11.25
11/1/2021 5:30:00 PM 9.82 49.676 0.051 7.1 4.89 11.22
11/1/2021 5:45:00 PM 9.77 49.586 0.051 7.07 4.95 11.2
11/1/2021 6:00:00 PM 9.72 49.496 0.051 7.04 4.97 11.16
11/1/2021 6:15:00 PM 9.66 49.388 0.051 7.03 4.9 11.12
11/1/2021 6:30:00 PM 9.6 49.28 0.051 7.01 4.98 11.09
11/1/2021 6:45:00 PM 9.54 49.172 0.051 6.98 4.76 11.06
11/1/2021 7:00:00 PM 9.48 49.064 0.051 7 4.89 11.04
11/1/2021 7:15:00 PM 9.44 48.992 0.051 6.98 4.72 11.03
11/1/2021 7:30:00 PM 9.4 48.92 0.051 6.96 4.7 11.03
11/1/2021 7:45:00 PM 9.36 48.848 0.051 6.95 4.8 11.04
11/1/2021 8:00:00 PM 9.31 48.758 0.051 6.93 4.86 11.05
11/1/2021 8:15:00 PM 9.27 48.686 0.051 6.93 4.99 11.06
11/1/2021 8:30:00 PM 9.23 48.614 0.051 6.91 4.9 11.07
11/1/2021 8:45:00 PM 9.19 48.542 0.039 6.92 4.91 11.08
11/1/2021 9:00:00 PM 9.15 48.47 0.051 6.92 4.81 11.08
11/1/2021 9:15:00 PM 9.1 48.38 0.051 6.93 4.81 11.1
11/1/2021 9:30:00 PM 9.05 48.29 0.051 6.9 4.87 11.1
11/1/2021 9:45:00 PM 9 48.2 0.051 6.9 4.86 11.12
11/1/2021 10:00:00 PM 8.95 48.11 0.051 6.92 4.81 11.13
11/1/2021 10:15:00 PM 8.89 48.002 0.051 6.94 4.84 11.14
11/1/2021 10:30:00 PM 8.84 47.912 0.051 6.91 4.69 11.16
11/1/2021 10:45:00 PM 8.78 47.804 0.051 6.91 4.85 11.18
11/1/2021 11:00:00 PM 8.74 47.732 0.052 6.91 4.85 11.19
11/1/2021 11:15:00 PM 8.7 47.66 0.052 6.91 5.01 11.21
11/1/2021 11:30:00 PM 8.66 47.588 0.052 6.97 4.7 11.22
11/1/2021 11:45:00 PM 8.62 47.516 0.052 6.93 17776.41 11.22
11/2/2021 12:00:00 AM 8.6 47.48 0.052 6.94 4.8 11.23
11/2/2021 12:15:00 AM 8.57 47.426 0.052 6.91 4.85 11.24
11/2/2021 12:30:00 AM 8.53 47.354 0.052 6.9 4.71 11.25
11/2/2021 12:45:00 AM 8.5 47.3 0.052 6.91 4.79 11.26
11/2/2021 1:00:00 AM 8.47 47.246 0.052 6.94 4.92 11.28
11/2/2021 1:15:00 AM 8.44 47.192 0.052 6.95 5.2 11.29
11/2/2021 1:30:00 AM 8.42 47.156 0.052 6.93 4.96 11.3
11/2/2021 1:45:00 AM 8.39 47.102 0.052 6.94 4.65 11.29
11/2/2021 2:00:00 AM 8.36 47.048 0.052 6.91 4.59 11.31
11/2/2021 2:15:00 AM 8.33 46.994 0.052 6.94 5.14 11.31
11/2/2021 2:30:00 AM 8.31 46.958 0.052 6.92 4.82 11.33
11/2/2021 2:45:00 AM 8.29 46.922 0.052 6.9 4.54 11.33
11/2/2021 3:00:00 AM 8.27 46.886 0.052 6.93 4.57 11.34
11/2/2021 3:15:00 AM 8.24 46.832 0.052 6.92 4.55 11.35
11/2/2021 3:30:00 AM 8.22 46.796 0.052 6.93 4.64 11.35
11/2/2021 3:45:00 AM 8.2 46.76 0.052 6.9 4.64 11.36
11/2/2021 4:00:00 AM 8.17 46.706 0.052 6.94 4.54 11.37
11/2/2021 4:15:00 AM 8.15 46.67 0.052 6.92 4.5 11.38
11/2/2021 4:30:00 AM 8.12 46.616 0.052 6.92 4.48 11.39
11/2/2021 4:45:00 AM 8.1 46.58 0.052 6.93 4.48 11.4
11/2/2021 5:00:00 AM 8.07 46.526 0.052 6.91 4.54 11.41
11/2/2021 5:15:00 AM 8.03 46.454 0.052 6.91 4.53 11.42
11/2/2021 5:30:00 AM 8 46.4 0.052 6.93 4.4 11.44
11/2/2021 5:45:00 AM 7.97 46.346 0.052 6.9 4.44 11.45
11/2/2021 6:00:00 AM 7.93 46.274 0.052 6.92 4.47 11.47
11/2/2021 6:15:00 AM 7.9 46.22 0.052 6.95 4.49 11.48
11/2/2021 6:30:00 AM 7.86 46.148 0.052 6.92 4.28 11.5
11/2/2021 6:45:00 AM 7.83 46.094 0.052 6.93 4.47 11.5
11/2/2021 7:00:00 AM 7.79 46.022 0.052 6.92 4.36 11.52
11/2/2021 7:15:00 AM 7.76 45.968 0.052 6.95 4.41 11.52
11/2/2021 7:30:00 AM 7.73 45.914 0.052 6.93 4.44 11.53
11/2/2021 7:45:00 AM 7.69 45.842 0.052 6.95 4.61 11.54
11/2/2021 8:00:00 AM 7.66 45.788 0.052 6.94 4.37 11.56
11/2/2021 8:15:00 AM 7.63 45.734 0.052 6.93 4.44 11.59
11/2/2021 8:30:00 AM 7.61 45.698 0.037 6.95 4.27 11.63
11/2/2021 8:45:00 AM 7.59 45.662 0.052 6.95 4.36 11.69
11/2/2021 9:00:00 AM 7.6 45.68 0.052 6.99 4.42 11.75
11/2/2021 9:15:00 AM 7.6 45.68 0.052 6.98 4.33 11.81
11/2/2021 9:30:00 AM 7.61 45.698 0.052 6.99 4.28 11.87
11/2/2021 9:45:00 AM 7.63 45.734 0.052 7.02 4.59 11.93
11/2/2021 10:00:00 AM 7.67 45.806 0.052 7.05 4.48 11.98
11/2/2021 10:15:00 AM 7.7 45.86 0.052 7.12 4.36 12.02
11/2/2021 10:30:00 AM 7.72 45.896 0.052 7.07 4.24 12.02
11/2/2021 10:45:00 AM 7.76 45.968 0.052 7.1 4.34 12.04
11/2/2021 11:00:00 AM 7.81 46.058 0.052 7.13 4.6 12.06
11/2/2021 11:15:00 AM 7.88 46.184 0.052 7.13 4.46 12.07
11/2/2021 11:30:00 AM 7.98 46.364 0.052 7.15 4.47 12.08
11/2/2021 11:45:00 AM 8.08 46.544 0.052 7.18 4.46 12.06
11/2/2021 12:00:00 PM 8.15 46.67 0.052 7.19 4.28 12.03
11/2/2021 12:15:00 PM 8.23 46.814 0.052 7.2 4.33 12.02
11/2/2021 12:30:00 PM 8.17 46.706 0.052 7.21 4.17 12
11/2/2021 12:45:00 PM 8.13 46.634 0.052 7.18 4.3 12.02
11/2/2021 1:00:00 PM 8.22 46.796 0.052 7.2 4.19 12.03
11/2/2021 1:15:00 PM 8.39 47.102 0.052 7.21 4.07 12.03
11/2/2021 1:30:00 PM 8.53 47.354 0.051 7.22 4.11 11.99
11/2/2021 1:45:00 PM 8.55 47.39 0.052 7.22 3.97 11.95
11/2/2021 2:00:00 PM 8.56 47.408 0.052 7.25 3.99 11.94
11/2/2021 2:15:00 PM 8.66 47.588 0.052 7.22 3.98 11.9
11/2/2021 2:30:00 PM 8.7 47.66 0.052 7.21 3.99 11.83
11/2/2021 2:45:00 PM 8.77 47.786 0.052 7.21 4.16 11.8
11/2/2021 3:00:00 PM 8.78 47.804 0.052 7.21 3.99 11.81
11/2/2021 3:15:00 PM 8.79 47.822 0.052 7.24 4.17 11.82
11/2/2021 3:30:00 PM 8.82 47.876 0.052 7.24 4.48 11.82
11/2/2021 3:45:00 PM 8.82 47.876 0.052 7.26 4.2 11.8
11/2/2021 4:00:00 PM 8.79 47.822 0.052 7.22 4.1 11.79
11/2/2021 4:15:00 PM 8.78 47.804 0.052 7.23 4.14 11.8
11/2/2021 4:30:00 PM 8.77 47.786 0.052 7.26 4.06 11.8
11/2/2021 4:45:00 PM 8.74 47.732 0.052 7.25 4.18 11.78
11/2/2021 5:00:00 PM 8.71 47.678 0.052 7.17 4.13 11.73
11/2/2021 5:15:00 PM 8.67 47.606 0.052 7.19 4.2 11.7
11/2/2021 5:30:00 PM 8.64 47.552 0.052 7.18 4.15 11.65
11/2/2021 5:45:00 PM 8.6 47.48 0.052 7.12 4.18 11.59
11/2/2021 6:00:00 PM 8.56 47.408 0.052 7.1 4.32 11.53
11/2/2021 6:15:00 PM 8.53 47.354 0.052 7.08 4.33 11.49
11/2/2021 6:30:00 PM 8.51 47.318 0.052 7.1 4.27 11.44
11/2/2021 6:45:00 PM 8.47 47.246 0.052 7.09 5.07 11.41
11/2/2021 7:00:00 PM 8.45 47.21 0.052 7.03 5.33 11.39
11/2/2021 7:15:00 PM 8.41 47.138 0.053 7.04 4.86 11.38
11/2/2021 7:30:00 PM 8.38 47.084 0.053 7.04 5.22 11.37
11/2/2021 7:45:00 PM 8.35 47.03 0.053 7.04 4.83 11.37
11/2/2021 8:00:00 PM 8.31 46.958 0.053 7.02 4.14 11.38
11/2/2021 8:15:00 PM 8.29 46.922 0.053 7.01 3.92 11.38
11/2/2021 8:30:00 PM 8.26 46.868 0.053 7.01 3.9 11.37
11/2/2021 8:45:00 PM 8.24 46.832 0.053 7.03 3.6 11.38
11/2/2021 9:00:00 PM 8.2 46.76 0.053 6.98 3.87 11.38
11/2/2021 9:15:00 PM 8.16 46.688 0.053 7 167.67 11.39
11/2/2021 9:30:00 PM 8.11 46.598 0.053 7 6.05 11.41
11/2/2021 9:45:00 PM 8.07 46.526 0.053 7.01 5.53 11.43
11/2/2021 10:00:00 PM 8.03 46.454 0.053 6.99 5.46 11.43
11/2/2021 10:15:00 PM 7.99 46.382 0.053 6.98 4.25 11.45
11/2/2021 10:30:00 PM 7.95 46.31 0.053 6.99 4.09 11.46
11/2/2021 10:45:00 PM 7.92 46.256 0.053 6.98 4.08 11.47
11/2/2021 11:00:00 PM 7.89 46.202 0.053 6.98 4.06 11.49
11/2/2021 11:15:00 PM 7.84 46.112 0.053 7.01 4.02 11.5
11/2/2021 11:30:00 PM 7.79 46.022 0.052 6.99 4.1 11.51
11/2/2021 11:45:00 PM 7.75 45.95 0.053 6.99 4.02 11.52
11/3/2021 12:00:00 AM 7.7 45.86 0.047 7 4.03 11.54
11/3/2021 12:15:00 AM 7.66 45.788 0.053 6.97 3.98 11.54
11/3/2021 12:30:00 AM 7.63 45.734 0.053 7.01 4.02 11.55
11/3/2021 12:45:00 AM 7.6 45.68 0.053 7.01 4.07 11.56
11/3/2021 1:00:00 AM 7.58 45.644 0.053 7 3.99 11.57
11/3/2021 1:15:00 AM 7.56 45.608 0.053 7.01 4.02 11.58
11/3/2021 1:30:00 AM 7.53 45.554 0.054 6.98 4.02 11.59
11/3/2021 1:45:00 AM 7.51 45.518 0.054 6.99 4.06 11.6
11/3/2021 2:00:00 AM 7.48 45.464 0.053 6.99 23.86 11.6
11/3/2021 2:15:00 AM 7.46 45.428 0.053 6.98 3.94 11.61
11/3/2021 2:30:00 AM 7.45 45.41 0.053 6.97 4.22 11.62
11/3/2021 2:45:00 AM 7.43 45.374 0.053 7.01 4.35 11.62
11/3/2021 3:00:00 AM 7.42 45.356 0.053 6.99 4.16 11.63
11/3/2021 3:15:00 AM 7.41 45.338 0.053 6.98 4.06 11.63
11/3/2021 3:30:00 AM 7.4 45.32 0.053 6.99 4.16 11.64
11/3/2021 3:45:00 AM 7.39 45.302 0.053 7.01 3.95 11.64
11/3/2021 4:00:00 AM 7.38 45.284 0.053 7.01 4.13 11.65
11/3/2021 4:15:00 AM 7.37 45.266 0.053 6.96 4.22 11.65
11/3/2021 4:30:00 AM 7.36 45.248 0.053 7.01 4.53 11.65
11/3/2021 4:45:00 AM 7.36 45.248 0.053 7.02 4.42 11.66
11/3/2021 5:00:00 AM 7.35 45.23 0.053 7.02 4.53 11.66
11/3/2021 5:15:00 AM 7.34 45.212 0.053 7 4.53 11.67
11/3/2021 5:30:00 AM 7.32 45.176 0.053 7.01 4.56 11.67
11/3/2021 5:45:00 AM 7.31 45.158 0.053 7 4.21 11.67
11/3/2021 6:00:00 AM 7.3 45.14 0.053 6.98 3.91 11.68
11/3/2021 6:15:00 AM 7.28 45.104 0.053 7.01 3.95 11.69
11/3/2021 6:30:00 AM 7.26 45.068 0.053 7 3.86 11.69
11/3/2021 6:45:00 AM 7.24 45.032 0.053 7.01 3.88 11.7
11/3/2021 7:00:00 AM 7.21 44.978 0.053 7.02 3.86 11.7
11/3/2021 7:15:00 AM 7.2 44.96 0.053 6.98 3.79 11.71
11/3/2021 7:30:00 AM 7.17 44.906 0.053 7.01 3.86 11.71
11/3/2021 7:45:00 AM 7.14 44.852 0.053 6.99 3.91 11.73
11/3/2021 8:00:00 AM 7.11 44.798 0.053 7 3.95 11.75
11/3/2021 8:15:00 AM 7.08 44.744 0.053 6.99 3.81 11.79
11/3/2021 8:30:00 AM 7.06 44.708 0.053 7.04 3.87 11.84
11/3/2021 8:45:00 AM 7.05 44.69 0.053 7.02 3.74 11.92
11/3/2021 9:00:00 AM 7.04 44.672 0.053 7.07 3.78 11.97
11/3/2021 9:15:00 AM 7.04 44.672 0.053 7.06 3.73 12.02
11/3/2021 9:30:00 AM 7.05 44.69 0.053 7.09 3.91 12.08
11/3/2021 9:45:00 AM 7.07 44.726 0.053 7.11 3.75 12.13
11/3/2021 10:00:00 AM 7.11 44.798 0.053 7.12 3.74 12.19
11/3/2021 10:15:00 AM 7.16 44.888 0.053 7.16 3.72 12.24
11/3/2021 10:30:00 AM 7.19 44.942 0.053 7.15 3.71 12.27
11/3/2021 10:45:00 AM 7.23 45.014 0.053 7.23 3.78 12.29
11/3/2021 11:00:00 AM 7.27 45.086 0.053 7.23 3.73 12.32
11/3/2021 11:15:00 AM 7.3 45.14 0.053 7.22 3.69 12.33
11/3/2021 11:30:00 AM 7.32 45.176 0.053 7.23 3.7 12.33
11/3/2021 11:45:00 AM 7.35 45.23 0.053 7.26 3.67 12.34
11/3/2021 12:00:00 PM 7.4 45.32 0.054 7.27 3.69 12.35
11/3/2021 12:15:00 PM 7.46 45.428 0.054 7.28 3.61 12.35
11/3/2021 12:30:00 PM 7.53 45.554 0.053 7.3 3.75 12.33
11/3/2021 12:45:00 PM 7.63 45.734 0.053 7.3 3.57 12.32
11/3/2021 1:00:00 PM 7.68 45.824 0.053 7.29 3.62 12.3
11/3/2021 1:15:00 PM 7.71 45.878 0.053 7.3 3.65 12.29
11/3/2021 1:30:00 PM 7.73 45.914 0.053 7.29 3.74 12.27
11/3/2021 1:45:00 PM 7.82 46.076 0.053 7.29 3.65 12.27
11/3/2021 2:00:00 PM 7.86 46.148 0.053 7.29 4.75 12.24
11/3/2021 2:15:00 PM 7.92 46.256 0.053 7.33 3.97 12.2
11/3/2021 2:30:00 PM 7.98 46.364 0.053 7.29 3.88 12.18
11/3/2021 2:45:00 PM 7.95 46.31 0.053 7.29 4.65 12.15
11/3/2021 3:00:00 PM 7.94 46.292 0.053 7.29 4.45 12.14
11/3/2021 3:15:00 PM 7.97 46.346 0.053 7.28 4.57 12.15
11/3/2021 3:30:00 PM 8.01 46.418 0.053 7.29 4.81 12.13
11/3/2021 3:45:00 PM 8.08 46.544 0.053 7.3 4.78 12.1
11/3/2021 4:00:00 PM 8.16 46.688 0.053 7.3 4.84 12.09
11/3/2021 4:15:00 PM 8.22 46.796 0.053 7.29 4.41 12.08
11/3/2021 4:30:00 PM 8.25 46.85 0.053 7.29 5.33 12.03
11/3/2021 4:45:00 PM 8.26 46.868 0.053 7.24 5.42 11.97
11/3/2021 5:00:00 PM 8.24 46.832 0.053 7.23 4.62 11.85
11/3/2021 5:15:00 PM 8.24 46.832 0.053 7.18 4.66 11.8
11/3/2021 5:30:00 PM 8.21 46.778 0.053 7.17 4.62 11.75
11/3/2021 5:45:00 PM 8.17 46.706 0.053 7.13 4.55 11.72
11/3/2021 6:00:00 PM 8.12 46.616 0.053 7.13 4.56 11.68
11/3/2021 6:15:00 PM 8.07 46.526 0.053 7.11 4.34 11.65
11/3/2021 6:30:00 PM 8.02 46.436 0.054 7.11 4.44 11.62
11/3/2021 6:45:00 PM 7.98 46.364 0.054 7.05 4.93 11.6
11/3/2021 7:00:00 PM 7.93 46.274 0.054 7.07 5.03 11.58
11/3/2021 7:15:00 PM 7.89 46.202 0.054 7.03 4.99 11.58
11/3/2021 7:30:00 PM 7.85 46.13 0.054 7.06 5.27 11.57
11/3/2021 7:45:00 PM 7.81 46.058 0.054 7.05 5.3 11.57
11/3/2021 8:00:00 PM 7.77 45.986 0.054 7.05 5.19 11.58
11/3/2021 8:15:00 PM 7.73 45.914 0.054 7.05 5.28 11.59
11/3/2021 8:30:00 PM 7.69 45.842 0.054 7.03 5.12 11.59
11/3/2021 8:45:00 PM 7.64 45.752 0.054 7.04 5.4 11.61
11/3/2021 9:00:00 PM 7.6 45.68 0.054 7.03 5.36 11.62
11/3/2021 9:15:00 PM 7.56 45.608 0.054 7.02 5.24 11.62
11/3/2021 9:30:00 PM 7.52 45.536 0.054 7.02 5.26 11.63
11/3/2021 9:45:00 PM 7.47 45.446 0.054 7.01 5.35 11.65
11/3/2021 10:00:00 PM 7.42 45.356 0.054 6.99 5.31 11.67
11/3/2021 10:15:00 PM 7.37 45.266 0.054 7 5.23 11.68
11/3/2021 10:30:00 PM 7.31 45.158 0.054 7 5.26 11.69
11/3/2021 10:45:00 PM 7.26 45.068 0.054 7.02 5.14 11.72
11/3/2021 11:00:00 PM 7.22 44.996 0.054 7.02 5.11 11.72
11/3/2021 11:15:00 PM 7.18 44.924 0.054 6.99 5.21 11.75
11/3/2021 11:30:00 PM 7.14 44.852 0.054 7.01 5.05 11.76
11/3/2021 11:45:00 PM 7.11 44.798 0.054 6.99 4.99 11.76
11/4/2021 12:00:00 AM 7.08 44.744 0.054 7.02 5.23 11.77
11/4/2021 12:15:00 AM 7.05 44.69 0.054 7.02 5.22 11.78
11/4/2021 12:30:00 AM 7.03 44.654 0.054 7 5.3 11.79
11/4/2021 12:45:00 AM 7 44.6 0.054 7.02 5.32 11.8
11/4/2021 1:00:00 AM 6.98 44.564 0.054 7.02 5.16 11.81
11/4/2021 1:15:00 AM 6.94 44.492 0.054 7 5.15 11.81
11/4/2021 1:30:00 AM 6.91 44.438 0.054 6.99 5.21 11.82
11/4/2021 1:45:00 AM 6.87 44.366 0.054 7.02 5.19 11.83
11/4/2021 2:00:00 AM 6.82 44.276 0.054 6.99 5.09 11.85
11/4/2021 2:15:00 AM 6.78 44.204 0.054 6.99 5.02 11.86
11/4/2021 2:30:00 AM 6.74 44.132 0.054 7.01 5.29 11.87
11/4/2021 2:45:00 AM 6.7 44.06 0.055 6.99 5.15 11.89
11/4/2021 3:00:00 AM 6.66 43.988 0.055 7.02 5.2 11.9
11/4/2021 3:15:00 AM 6.62 43.916 0.055 7.01 5.28 11.91
11/4/2021 3:30:00 AM 6.59 43.862 0.055 7.01 5.12 11.92
11/4/2021 3:45:00 AM 6.55 43.79 0.055 7.02 5.33 11.94
11/4/2021 4:00:00 AM 6.51 43.718 0.055 6.99 5.23 11.95
11/4/2021 4:15:00 AM 6.48 43.664 0.055 7 5.16 11.96
11/4/2021 4:30:00 AM 6.45 43.61 0.055 7.02 5.1 11.97
11/4/2021 4:45:00 AM 6.43 43.574 0.055 7.03 5.17 11.98
11/4/2021 5:00:00 AM 6.41 43.538 0.055 7 5.21 11.98
11/4/2021 5:15:00 AM 6.38 43.484 0.055 7.02 5.23 11.99
11/4/2021 5:30:00 AM 6.36 43.448 0.055 7.03 5.19 11.99
11/4/2021 5:45:00 AM 6.33 43.394 0.055 7.02 5.28 12
11/4/2021 6:00:00 AM 6.29 43.322 0.055 7 5.14 12.01
11/4/2021 6:15:00 AM 6.26 43.268 0.055 7.02 5.12 12.01
11/4/2021 6:30:00 AM 6.21 43.178 0.055 6.99 5.25 12.04
11/4/2021 6:45:00 AM 6.17 43.106 0.055 6.99 5.15 12.05
11/4/2021 7:00:00 AM 6.14 43.052 0.055 7.02 5.18 12.06
11/4/2021 7:15:00 AM 6.11 42.998 0.055 7.01 5.32 12.07
11/4/2021 7:30:00 AM 6.08 42.944 0.055 7.02 5.16 12.09
11/4/2021 7:45:00 AM 6.05 42.89 0.055 7 4.23 12.09
11/4/2021 8:00:00 AM 6.03 42.854 0.055 7.02 5.2 12.12
11/4/2021 8:15:00 AM 6.03 42.854 0.055 7.04 4.59 12.15
11/4/2021 8:30:00 AM 6.03 42.854 0.055 7.03 4.04 12.19
11/4/2021 8:45:00 AM 6.02 42.836 0.055 6.89 4.11 12.26
11/4/2021 9:00:00 AM 6.02 42.836 0.055 6.91 4.13 12.34
11/4/2021 9:15:00 AM 6.04 42.872 0.055 6.95 4.03 12.41
11/4/2021 9:30:00 AM 6.05 42.89 0.056 7.02 4.06 12.49
11/4/2021 9:45:00 AM 6.06 42.908 0.055 7.07 4.04 12.55
11/4/2021 10:00:00 AM 6.05 42.89 0.055 7.1 4 12.6
11/4/2021 10:15:00 AM 6.03 42.854 0.055 7.13 4 12.62
11/4/2021 10:30:00 AM 6.07 42.926 0.054 7.14 4.17 12.64
11/4/2021 10:45:00 AM 6.13 43.034 0.054 7.16 4.03 12.66
11/4/2021 11:00:00 AM 6.18 43.124 0.054 7.22 4.07 12.67
11/4/2021 11:15:00 AM 6.24 43.232 0.054 7.2 4.1 12.68
11/4/2021 11:30:00 AM 6.32 43.376 0.054 7.21 4.02 12.68
11/4/2021 11:45:00 AM 6.44 43.592 0.054 7.26 3.98 12.68
11/4/2021 12:00:00 PM 6.52 43.736 0.054 7.25 3.8 12.67
11/4/2021 12:15:00 PM 6.61 43.898 0.054 7.28 3.91 12.65
11/4/2021 12:30:00 PM 6.7 44.06 0.054 7.27 3.88 12.63
11/4/2021 12:45:00 PM 6.74 44.132 0.054 7.31 3.93 12.6
11/4/2021 1:00:00 PM 6.76 44.168 0.054 7.29 3.93 12.59
11/4/2021 1:15:00 PM 6.79 44.222 0.054 7.31 3.96 12.6
11/4/2021 1:30:00 PM 6.8 44.24 0.054 7.33 3.96 12.6
11/4/2021 1:45:00 PM 6.83 44.294 0.054 7.34 4.01 12.61
11/4/2021 2:00:00 PM 6.88 44.384 0.054 7.36 3.91 12.6
11/4/2021 2:15:00 PM 6.95 44.51 0.054 7.37 4.03 12.58
11/4/2021 2:30:00 PM 7.02 44.636 0.054 7.39 3.97 12.56
11/4/2021 2:45:00 PM 7.13 44.834 0.054 7.38 4.41 12.55
11/4/2021 3:00:00 PM 7.32 45.176 0.054 7.42 4.96 12.52
11/4/2021 3:15:00 PM 7.44 45.392 0.054 7.4 4.15 12.48
11/4/2021 3:30:00 PM 7.49 45.482 0.054 7.43 4.25 12.44
11/4/2021 3:45:00 PM 7.55 45.59 0.054 7.41 3.96 12.4
11/4/2021 4:00:00 PM 7.6 45.68 0.054 7.42 4.63 12.37
11/4/2021 4:15:00 PM 7.64 45.752 0.054 7.44 4.8 12.35
11/4/2021 4:30:00 PM 7.65 45.77 0.055 7.4 12.33 12.32
11/4/2021 4:45:00 PM 7.64 45.752 0.055 7.42 4.11 12.28
11/4/2021 5:00:00 PM 7.62 45.716 0.054 7.37 4.1 12.23
11/4/2021 5:15:00 PM 7.59 45.662 0.054 7.34 3.91 12.16
11/4/2021 5:30:00 PM 7.55 45.59 0.054 7.29 4 12.08
11/4/2021 5:45:00 PM 7.5 45.5 0.054 7.28 3.96 12.02
11/4/2021 6:00:00 PM 7.45 45.41 0.054 7.23 4.06 11.97
11/4/2021 6:15:00 PM 7.4 45.32 0.055 7.19 4.1 11.91
11/4/2021 6:30:00 PM 7.35 45.23 0.055 7.2 4.34 11.86
11/4/2021 6:45:00 PM 7.31 45.158 0.055 7.16 4.55 11.83
11/4/2021 7:00:00 PM 7.27 45.086 0.055 7.12 4.42 11.8
11/4/2021 7:15:00 PM 7.23 45.014 0.055 7.13 4.05 11.78
11/4/2021 7:30:00 PM 7.18 44.924 0.055 7.09 17.85 11.78
11/4/2021 7:45:00 PM 7.12 44.816 0.055 7.08 15.4 11.78
11/4/2021 8:00:00 PM 7.06 44.708 0.055 7.08 114.52 11.77
11/4/2021 8:15:00 PM 7.02 44.636 0.055 7.08 4.07 11.78
11/4/2021 8:30:00 PM 6.97 44.546 0.056 7.07 4.38 11.78
11/4/2021 8:45:00 PM 6.93 44.474 0.056 7.07 4.09 11.79
11/4/2021 9:00:00 PM 6.89 44.402 0.056 7.07 6.6 11.8
11/4/2021 9:15:00 PM 6.85 44.33 0.056 7.08 4.43 11.82
11/4/2021 9:30:00 PM 6.8 44.24 0.056 7.07 4.18 11.83
11/4/2021 9:45:00 PM 6.76 44.168 0.056 7.06 4.06 11.84
11/4/2021 10:00:00 PM 6.71 44.078 0.056 7.06 4.31 11.86
11/4/2021 10:15:00 PM 6.66 43.988 0.056 7.08 4.26 11.87
11/4/2021 10:30:00 PM 6.62 43.916 0.056 7.06 4.18 11.88
11/4/2021 10:45:00 PM 6.56 43.808 0.056 7.06 4.47 11.9
11/4/2021 11:00:00 PM 6.51 43.718 0.056 7.07 4.18 11.92
11/4/2021 11:15:00 PM 6.45 43.61 0.056 7.05 4.27 11.93
11/4/2021 11:30:00 PM 6.39 43.502 0.051 7.06 5.29 11.95
11/4/2021 11:45:00 PM 6.33 43.394 0.057 7.03 4.65 11.97
11/5/2021 12:00:00 AM 6.27 43.286 0.057 7.06 8.49 11.99
11/5/2021 12:15:00 AM 6.2 43.16 0.057 7.04 4.53 12
11/5/2021 12:30:00 AM 6.14 43.052 0.056 7.05 6.46 12.02
11/5/2021 12:45:00 AM 6.08 42.944 0.056 7.05 4.95 12.05
11/5/2021 1:00:00 AM 6.03 42.854 0.056 7.02 6.6 12.06
11/5/2021 1:15:00 AM 5.97 42.746 0.056 7.08 4.43 12.08
11/5/2021 1:30:00 AM 5.91 42.638 0.056 7.05 4.3 12.11
11/5/2021 1:45:00 AM 5.86 42.548 0.056 7.03 4.33 12.12
11/5/2021 2:00:00 AM 5.81 42.458 0.056 7.06 4.27 12.14
11/5/2021 2:15:00 AM 5.75 42.35 0.056 7.07 4.36 12.15
11/5/2021 2:30:00 AM 5.7 42.26 0.056 7.06 4.43 12.16
11/5/2021 2:45:00 AM 5.65 42.17 0.056 7.04 10.84 12.17
11/5/2021 3:00:00 AM 5.59 42.062 0.056 7.05 4.33 12.19
11/5/2021 3:15:00 AM 5.54 41.972 0.056 7.04 11.33 12.22
11/5/2021 3:30:00 AM 5.48 41.864 0.056 7.04 10.53 12.24
11/5/2021 3:45:00 AM 5.43 41.774 0.056 7.04 10.82 12.26
11/5/2021 4:00:00 AM 5.38 41.684 0.056 7.04 11.83 12.28
11/5/2021 4:15:00 AM 5.33 41.594 0.056 7 10.73 12.29
11/5/2021 4:30:00 AM 5.27 41.486 0.056 6.95 13.01 12.32
11/5/2021 4:45:00 AM 5.22 41.396 0.056 6.96 9.4 12.33
11/5/2021 5:00:00 AM 5.17 41.306 0.056 6.91 9.34 12.35
11/5/2021 5:15:00 AM 5.12 41.216 0.056 6.92 10.25 12.36
11/5/2021 5:30:00 AM 5.07 41.126 0.054 6.95 10.06 12.37
11/5/2021 5:45:00 AM 5.02 41.036 0.056 6.99 12.28 12.39
11/5/2021 6:00:00 AM 4.97 40.946 0.056 6.97 11.77 12.41
11/5/2021 6:15:00 AM 4.92 40.856 0.056 6.9 10.82 12.43
11/5/2021 6:30:00 AM 4.87 40.766 0.056 6.89 11.51 12.45
11/5/2021 6:45:00 AM 4.83 40.694 0.056 6.93 10.92 12.48
11/5/2021 7:00:00 AM 4.78 40.604 0.056 6.93 10.56 12.49
11/5/2021 7:15:00 AM 4.73 40.514 0.056 6.92 10.38 12.51
11/5/2021 7:30:00 AM 4.68 40.424 0.056 6.93 11.96 12.54
11/5/2021 7:45:00 AM 4.63 40.334 0.056 6.95 11.75 12.55
11/5/2021 8:00:00 AM 4.58 40.244 0.056 6.96 12.08 12.58
11/5/2021 8:15:00 AM 4.54 40.172 0.056 6.94 10.29 12.63
11/5/2021 8:30:00 AM 4.52 40.136 0.056 6.96 10.77 12.72
11/5/2021 8:45:00 AM 4.51 40.118 0.056 7 10.18 12.82
11/5/2021 9:00:00 AM 4.51 40.118 0.056 7.04 9.94 12.9
11/5/2021 9:15:00 AM 4.48 40.064 0.056 7.03 10.17 12.93
11/5/2021 9:30:00 AM 4.48 40.064 0.056 7.06 10.03 13
11/5/2021 9:45:00 AM 4.49 40.082 0.056 7.1 10.46 13.05
11/5/2021 10:00:00 AM 4.53 40.154 0.056 7.11 10.08 13.1
11/5/2021 10:15:00 AM 4.57 40.226 0.056 7.13 9.62 13.15
11/5/2021 10:30:00 AM 4.61 40.298 0.056 7.16 9.6 13.17
11/5/2021 10:45:00 AM 4.65 40.37 0.056 7.18 8.79 13.19
11/5/2021 11:00:00 AM 4.7 40.46 0.056 7.19 9.4 13.21
11/5/2021 11:15:00 AM 4.76 40.568 0.056 7.24 9.41 13.21
11/5/2021 11:30:00 AM 4.86 40.748 0.056 7.22 9.05 13.21
11/5/2021 11:45:00 AM 4.98 40.964 0.056 7.24 9.09 13.19
11/5/2021 12:00:00 PM 5.14 41.252 0.056 7.26 9.28 13.17
11/5/2021 12:15:00 PM 5.31 41.558 0.056 7.31 8.65 13.15
11/5/2021 12:30:00 PM 5.48 41.864 0.056 7.28 7.51 13.12
11/5/2021 12:45:00 PM 5.66 42.188 0.056 7.33 7.37 13.08
11/5/2021 1:00:00 PM 5.78 42.404 0.055 7.32 8.37 13.04
11/5/2021 1:15:00 PM 6.01 42.818 0.055 7.36 8 13
11/5/2021 1:30:00 PM 6.29 43.322 0.055 7.36 7.65 12.94
11/5/2021 1:45:00 PM 6.56 43.808 0.055 7.37 7.75 12.89
11/5/2021 2:00:00 PM 6.76 44.168 0.055 7.39 7.03 12.83
11/5/2021 2:15:00 PM 6.81 44.258 0.055 7.37 7.35 12.79
11/5/2021 2:30:00 PM 6.82 44.276 0.055 7.4 7.32 12.75
11/5/2021 2:45:00 PM 6.77 44.186 0.055 7.4 7.31 12.76
11/5/2021 3:00:00 PM 6.69 44.042 0.055 7.39 6.39 12.77
11/5/2021 3:15:00 PM 6.68 44.024 0.055 7.39 6.71 12.75
11/5/2021 3:30:00 PM 6.68 44.024 0.055 7.42 6.85 12.72
11/5/2021 3:45:00 PM 6.71 44.078 0.055 7.41 7.38 12.67
11/5/2021 4:00:00 PM 6.74 44.132 0.055 7.37 7.07 12.61
11/5/2021 4:15:00 PM 6.8 44.24 0.055 7.39 6.83 12.54
11/5/2021 4:30:00 PM 6.84 44.312 0.055 7.38 7.54 12.46
11/5/2021 4:45:00 PM 6.88 44.384 0.056 7.34 7.35 12.4
11/5/2021 5:00:00 PM 6.92 44.456 0.056 7.31 7.9 12.34
11/5/2021 5:15:00 PM 6.96 44.528 0.056 7.3 7.49 12.27
11/5/2021 5:30:00 PM 6.98 44.564 0.056 7.28 7.16 12.21
11/5/2021 5:45:00 PM 6.98 44.564 0.056 7.24 7.22 12.16
11/5/2021 6:00:00 PM 6.94 44.492 0.056 7.24 7.69 12.1
11/5/2021 6:15:00 PM 6.87 44.366 0.056 7.21 7.47 12.06
11/5/2021 6:30:00 PM 6.79 44.222 0.056 7.16 7.95 12.04
11/5/2021 6:45:00 PM 6.69 44.042 0.057 7.16 7.74 12.02
11/5/2021 7:00:00 PM 6.6 43.88 0.058 7.16 7.75 12.02
11/5/2021 7:15:00 PM 6.5 43.7 0.058 7.13 7.63 12.02
11/5/2021 7:30:00 PM 6.39 43.502 0.058 7.1 9.13 12.03
11/5/2021 7:45:00 PM 6.29 43.322 0.058 7.11 9.09 12.04
11/5/2021 8:00:00 PM 6.19 43.142 0.057 7.12 8.91 12.07
11/5/2021 8:15:00 PM 6.11 42.998 0.057 7.08 8.87 12.08
11/5/2021 8:30:00 PM 6.03 42.854 0.057 7.11 8.62 12.1
11/5/2021 8:45:00 PM 5.96 42.728 0.057 7.1 8.38 12.12
11/5/2021 9:00:00 PM 5.89 42.602 0.057 7.09 7.99 12.14
11/5/2021 9:15:00 PM 5.83 42.494 0.057 7.07 7.57 12.16
11/5/2021 9:30:00 PM 5.76 42.368 0.057 7.08 7.27 12.17
11/5/2021 9:45:00 PM 5.7 42.26 0.057 7.06 7.36 12.19
11/5/2021 10:00:00 PM 5.64 42.152 0.057 7.09 8.13 12.2
11/5/2021 10:15:00 PM 5.58 42.044 0.057 7.07 42.51 12.22
11/5/2021 10:30:00 PM 5.53 41.954 0.057 7.08 35.33 12.25
11/5/2021 10:45:00 PM 5.47 41.846 0.057 7.03 4.91 12.27
11/5/2021 11:00:00 PM 5.41 41.738 0.057 7.08 17.02 12.29
11/5/2021 11:15:00 PM 5.35 41.63 0.057 7.07 6.95 12.31
11/5/2021 11:30:00 PM 5.3 41.54 0.055 7.07 14.78 12.33
11/5/2021 11:45:00 PM 5.24 41.432 0.058 7.07 4.75 12.35
11/6/2021 12:00:00 AM 5.18 41.324 0.058 7.06 4.57 12.36
11/6/2021 12:15:00 AM 5.13 41.234 0.057 7.07 7.38 12.38
11/6/2021 12:30:00 AM 5.07 41.126 0.058 7.07 4.63 12.39
11/6/2021 12:45:00 AM 5.02 41.036 0.057 7.08 4.66 12.41
11/6/2021 1:00:00 AM 4.97 40.946 0.057 7.07 4.62 12.43
11/6/2021 1:15:00 AM 4.91 40.838 0.058 7.04 4.41 12.46
11/6/2021 1:30:00 AM 4.86 40.748 0.058 7.04 4.52 12.47
11/6/2021 1:45:00 AM 4.8 40.64 0.058 7.08 4.51 12.49
11/6/2021 2:00:00 AM 4.75 40.55 0.058 7.04 4.4 12.51
11/6/2021 2:15:00 AM 4.7 40.46 0.058 7.07 4.33 12.52
11/6/2021 2:30:00 AM 4.65 40.37 0.058 7.06 4.38 12.54
11/6/2021 2:45:00 AM 4.6 40.28 0.058 7.06 4.39 12.56
11/6/2021 3:00:00 AM 4.55 40.19 0.058 7.05 4.35 12.58
11/6/2021 3:15:00 AM 4.49 40.082 0.058 7.06 4.45 12.59
11/6/2021 3:30:00 AM 4.44 39.992 0.058 7.05 4.85 12.6
11/6/2021 3:45:00 AM 4.39 39.902 0.058 7.04 4.42 12.62
11/6/2021 4:00:00 AM 4.34 39.812 0.058 7.08 4.45 12.64
11/6/2021 4:15:00 AM 4.28 39.704 0.058 7.07 4.66 12.66
11/6/2021 4:30:00 AM 4.24 39.632 0.058 7.06 4.46 12.68
11/6/2021 4:45:00 AM 4.18 39.524 0.058 7.06 4.48 12.7
11/6/2021 5:00:00 AM 4.14 39.452 0.058 7.05 4.36 12.72
11/6/2021 5:15:00 AM 4.09 39.362 0.058 7.06 4.5 12.74
11/6/2021 5:30:00 AM 4.04 39.272 0.058 7.03 4.6 12.76
11/6/2021 5:45:00 AM 3.99 39.182 0.058 7.01 4.39 12.78
11/6/2021 6:00:00 AM 3.94 39.092 0.058 7 4.44 12.79
11/6/2021 6:15:00 AM 3.9 39.02 0.058 6.98 4.46 12.8
11/6/2021 6:30:00 AM 3.85 38.93 0.058 6.97 4.55 12.82
11/6/2021 6:45:00 AM 3.81 38.858 0.058 6.97 4.7 12.83
11/6/2021 7:00:00 AM 3.76 38.768 0.058 6.99 4.41 12.84
11/6/2021 7:15:00 AM 3.71 38.678 0.058 7 4.34 12.86
11/6/2021 7:30:00 AM 3.67 38.606 0.058 6.99 4.62 12.88
11/6/2021 7:45:00 AM 3.62 38.516 0.058 7 4.47 12.9
11/6/2021 8:00:00 AM 3.58 38.444 0.058 7 4.47 12.94
11/6/2021 8:15:00 AM 3.54 38.372 0.058 7.02 4.38 12.98
11/6/2021 8:30:00 AM 3.51 38.318 0.058 7.02 4.33 13.05
11/6/2021 8:45:00 AM 3.47 38.246 0.058 7.04 4.43 13.13
11/6/2021 9:00:00 AM 3.44 38.192 0.058 7.07 5.2 13.2
11/6/2021 9:15:00 AM 3.42 38.156 0.058 7.09 4.35 13.26
11/6/2021 9:30:00 AM 3.42 38.156 0.058 7.09 4.42 13.34
11/6/2021 9:45:00 AM 3.44 38.192 0.057 7.13 4.29 13.41
11/6/2021 10:00:00 AM 3.47 38.246 0.057 7.14 4.43 13.46
11/6/2021 10:15:00 AM 3.52 38.336 0.057 7.19 4.53 13.5
11/6/2021 10:30:00 AM 3.57 38.426 0.057 7.18 4.63 13.52
11/6/2021 10:45:00 AM 3.62 38.516 0.057 7.22 4.44 13.54
11/6/2021 11:00:00 AM 3.68 38.624 0.057 7.23 4.25 13.54
11/6/2021 11:15:00 AM 3.76 38.768 0.057 7.24 4.19 13.55
11/6/2021 11:30:00 AM 3.86 38.948 0.057 7.25 4.22 13.55
11/6/2021 11:45:00 AM 3.98 39.164 0.057 7.29 4.17 13.54
11/6/2021 12:00:00 PM 4.15 39.47 0.057 7.29 4.27 13.52
11/6/2021 12:15:00 PM 4.34 39.812 0.057 7.29 4.19 13.47
11/6/2021 12:30:00 PM 4.55 40.19 0.057 7.34 4.16 13.42
11/6/2021 12:45:00 PM 4.75 40.55 0.057 7.32 4.06 13.38
11/6/2021 1:00:00 PM 4.95 40.91 0.056 7.36 4.45 13.32
11/6/2021 1:15:00 PM 5.16 41.288 0.056 7.36 5.86 13.28
11/6/2021 1:30:00 PM 5.36 41.648 0.057 7.36 4.72 13.23
11/6/2021 1:45:00 PM 5.56 42.008 0.057 7.4 6.55 13.17
11/6/2021 2:00:00 PM 5.74 42.332 0.057 7.42 4.78 13.11
11/6/2021 2:15:00 PM 5.91 42.638 0.057 7.44 4.86 13.08
11/6/2021 2:30:00 PM 6.04 42.872 0.057 7.41 5.35 13.03
11/6/2021 2:45:00 PM 6.14 43.052 0.057 7.44 4.49 12.99
11/6/2021 3:00:00 PM 6.19 43.142 0.057 7.44 4.44 12.94
11/6/2021 3:15:00 PM 6.23 43.214 0.057 7.43 4.39 12.89
11/6/2021 3:30:00 PM 6.25 43.25 0.057 7.43 4.91 12.85
11/6/2021 3:45:00 PM 6.26 43.268 0.057 7.45 3.61 12.8
11/6/2021 4:00:00 PM 6.27 43.286 0.056 7.41 3.66 12.75
11/6/2021 4:15:00 PM 6.29 43.322 0.057 7.43 3.7 12.67
11/6/2021 4:30:00 PM 6.33 43.394 0.057 7.4 4.25 12.6
11/6/2021 4:45:00 PM 6.39 43.502 0.057 7.39 4.28 12.53
11/6/2021 5:00:00 PM 6.46 43.628 0.057 7.37 4.39 12.46
11/6/2021 5:15:00 PM 6.51 43.718 0.057 7.37 4.39 12.4
11/6/2021 5:30:00 PM 6.55 43.79 0.057 7.31 4.54 12.33
11/6/2021 5:45:00 PM 6.54 43.772 0.057 7.32 4.39 12.27
11/6/2021 6:00:00 PM 6.52 43.736 0.057 7.28 7.54 12.21
11/6/2021 6:15:00 PM 6.47 43.646 0.057 7.26 4.94 12.15
11/6/2021 6:30:00 PM 6.4 43.52 0.057 7.22 4.36 12.11
11/6/2021 6:45:00 PM 6.31 43.358 0.057 7.21 26.26 12.08
11/6/2021 7:00:00 PM 6.22 43.196 0.057 7.18 4.37 12.09
11/6/2021 7:15:00 PM 6.12 43.016 0.058 7.17 15.65 12.1
11/6/2021 7:30:00 PM 6 42.8 0.058 7.14 711.83 12.11
11/6/2021 7:45:00 PM 5.89 42.602 0.057 7.14 5 12.13
11/6/2021 8:00:00 PM 5.78 42.404 0.057 7.12 5.74 12.16
11/6/2021 8:15:00 PM 5.68 42.224 0.055 7.13 4.87 12.17
11/6/2021 8:30:00 PM 5.59 42.062 0.055 7.11 8.18 12.19
11/6/2021 8:45:00 PM 5.51 41.918 0.058 7.14 4.76 12.21
11/6/2021 9:00:00 PM 5.44 41.792 0.059 7.12 11.42 12.24
11/6/2021 9:15:00 PM 5.37 41.666 0.059 7.11 11.37 12.26
11/6/2021 9:30:00 PM 5.3 41.54 0.059 7.12 4.54 12.28
11/6/2021 9:45:00 PM 5.24 41.432 0.059 7.11 9.19 12.3
11/6/2021 10:00:00 PM 5.18 41.324 0.059 7.11 5.05 12.31
11/6/2021 10:15:00 PM 5.12 41.216 0.059 7.09 5.56 12.33
11/6/2021 10:30:00 PM 5.06 41.108 0.059 7.11 80.01 12.34
11/6/2021 10:45:00 PM 5 41 0.058 7.09 40.78 12.36
11/6/2021 11:00:00 PM 4.95 40.91 0.059 7.13 5.01 12.39
11/6/2021 11:15:00 PM 4.89 40.802 0.059 7.12 5.7 12.41
11/6/2021 11:30:00 PM 4.84 40.712 0.059 7.12 5.57 12.42
11/6/2021 11:45:00 PM 4.78 40.604 0.059 7.11 5.72 12.44
11/7/2021 12:00:00 AM 4.73 40.514 0.059 7.12 5.78 12.46
11/7/2021 12:15:00 AM 4.67 40.406 0.059 7.11 6.34 12.49
11/7/2021 12:30:00 AM 4.62 40.316 0.038 7.11 4.21 12.5
11/7/2021 12:45:00 AM 4.57 40.226 0.059 7.1 9.18 12.51
11/7/2021 1:00:00 AM 4.52 40.136 0.059 7.12 4.7 12.53
11/7/2021 1:15:00 AM 4.47 40.046 0.059 7.1 3.99 12.54
11/7/2021 1:30:00 AM 4.42 39.956 0.059 7.1 4.09 12.55
11/7/2021 1:45:00 AM 4.37 39.866 0.059 7.07 4.24 12.57
11/7/2021 2:00:00 AM 4.32 39.776 0.059 7.08 4.33 12.59
11/7/2021 2:15:00 AM 4.27 39.686 0.059 7.08 178.87 12.6
11/7/2021 2:30:00 AM 4.22 39.596 0.059 7.12 40.33 12.63
11/7/2021 2:45:00 AM 4.18 39.524 0.059 7.11 30.22 12.64
11/7/2021 3:00:00 AM 4.13 39.434 0.057 7.09 8.2 12.66
11/7/2021 3:15:00 AM 4.09 39.362 0.059 7.1 4.08 12.67
11/7/2021 3:30:00 AM 4.04 39.272 0.052 7.07 6.23 12.69
11/7/2021 3:45:00 AM 3.81 38.858 0.059 7.08 4.04 12.75
11/7/2021 4:00:00 AM 3.77 38.786 0.059 7.09 4.21 12.77
11/7/2021 4:15:00 AM 3.72 38.696 0.059 7.11 4.06 12.79
11/7/2021 4:30:00 AM 3.68 38.624 0.059 7.1 4.02 12.81
11/7/2021 4:45:00 AM 3.63 38.534 0.059 7.08 4.09 12.83
11/7/2021 5:00:00 AM 3.59 38.462 0.059 7.1 4.08 12.84
11/7/2021 5:15:00 AM 3.54 38.372 0.059 7.1 4.02 12.86
11/7/2021 5:30:00 AM 3.5 38.3 0.059 7.1 4.01 12.88
11/7/2021 5:45:00 AM 3.46 38.228 0.059 7.1 3.97 12.9
11/7/2021 6:00:00 AM 3.41 38.138 0.059 7.06 3.94 12.91
11/7/2021 6:15:00 AM 3.37 38.066 0.059 7.1 3.94 12.93
11/7/2021 6:30:00 AM 3.33 37.994 0.059 7.09 3.87 12.95
11/7/2021 6:45:00 AM 3.29 37.922 0.059 7.06 7.71 12.96
11/7/2021 7:00:00 AM 3.25 37.85 0.059 7.1 3.9 12.99
11/7/2021 7:15:00 AM 3.21 37.778 0.059 7.11 3.98 13.04
11/7/2021 7:30:00 AM 3.18 37.724 0.059 7.09 4.04 13.1
11/7/2021 7:45:00 AM 3.15 37.67 0.059 7.13 3.99 13.17
11/7/2021 8:00:00 AM 3.13 37.634 0.059 7.11 4.25 13.24
11/7/2021 8:15:00 AM 3.11 37.598 0.059 7.14 4.07 13.31
11/7/2021 8:30:00 AM 3.1 37.58 0.059 7.19 3.93 13.39
11/7/2021 8:45:00 AM 3.12 37.616 0.059 7.18 3.96 13.46
11/7/2021 9:00:00 AM 3.16 37.688 0.058 7.22 3.93 13.52
11/7/2021 9:15:00 AM 3.22 37.796 0.058 7.23 5.68 13.56
11/7/2021 9:30:00 AM 3.28 37.904 0.058 7.23 3.93 13.6
11/7/2021 9:45:00 AM 3.35 38.03 0.058 7.24 3.95 13.61
11/7/2021 10:00:00 AM 3.42 38.156 0.058 7.29 3.97 13.62
11/7/2021 10:15:00 AM 3.5 38.3 0.058 7.26 4.13 13.61
11/7/2021 10:30:00 AM 3.6 38.48 0.058 7.29 4.15 13.61
11/7/2021 10:45:00 AM 3.73 38.714 0.058 7.31 3.96 13.59
11/7/2021 11:00:00 AM 3.89 39.002 0.058 7.3 4.09 13.57
11/7/2021 11:15:00 AM 4.08 39.344 0.058 7.32 3.87 13.54
11/7/2021 11:30:00 AM 4.3 39.74 0.058 7.36 3.75 13.49
11/7/2021 11:45:00 AM 4.52 40.136 0.058 7.38 3.84 13.44
11/7/2021 12:00:00 PM 4.74 40.532 0.058 7.38 20.58 13.39
11/7/2021 12:15:00 PM 4.96 40.928 0.058 7.38 11.8 13.32
11/7/2021 12:30:00 PM 5.18 41.324 0.057 7.42 3.78 13.27
11/7/2021 12:45:00 PM 5.4 41.72 0.057 7.42 3.78 13.22
11/7/2021 1:00:00 PM 5.61 42.098 0.057 7.42 3.75 13.15
11/7/2021 1:15:00 PM 5.8 42.44 0.057 7.47 3.81 13.1
11/7/2021 1:30:00 PM 5.95 42.71 0.057 7.47 3.8 13.06
11/7/2021 1:45:00 PM 6.07 42.926 0.057 7.45 3.83 13.01
11/7/2021 2:00:00 PM 6.16 43.088 0.057 7.47 3.79 12.98
11/7/2021 2:15:00 PM 6.2 43.16 0.057 7.5 3.73 12.92
11/7/2021 2:30:00 PM 6.22 43.196 0.057 7.49 3.87 12.89
11/7/2021 2:45:00 PM 6.23 43.214 0.057 7.49 3.74 12.84
11/7/2021 3:00:00 PM 6.23 43.214 0.057 7.46 3.76 12.79
11/7/2021 3:15:00 PM 6.25 43.25 0.057 7.44 3.85 12.72
11/7/2021 3:30:00 PM 6.28 43.304 0.057 7.43 3.8 12.64
11/7/2021 3:45:00 PM 6.34 43.412 0.057 7.43 3.89 12.56
11/7/2021 4:00:00 PM 6.41 43.538 0.057 7.38 3.91 12.48
11/7/2021 4:15:00 PM 6.49 43.682 0.057 7.38 3.78 12.4
11/7/2021 4:30:00 PM 6.55 43.79 0.057 7.36 3.86 12.32
11/7/2021 4:45:00 PM 6.59 43.862 0.058 7.29 3.75 12.24
11/7/2021 5:00:00 PM 6.6 43.88 0.058 7.3 3.76 12.16
11/7/2021 5:15:00 PM 6.59 43.862 0.058 7.24 3.71 12.09
11/7/2021 5:30:00 PM 6.56 43.808 0.058 7.21 3.71 12.04
11/7/2021 5:45:00 PM 6.51 43.718 0.059 7.2 3.74 12
11/7/2021 6:00:00 PM 6.44 43.592 0.059 7.21 3.8 11.98
11/7/2021 6:15:00 PM 6.36 43.448 0.059 7.15 3.89 11.98
11/7/2021 6:30:00 PM 6.27 43.286 0.059 7.15 3.96 11.98
11/7/2021 6:45:00 PM 6.17 43.106 0.059 7.17 3.83 12.01
11/7/2021 7:00:00 PM 6.07 42.926 0.059 7.14 4 12.03
11/7/2021 7:15:00 PM 5.96 42.728 0.059 7.15 3.81 12.06
11/7/2021 7:30:00 PM 5.88 42.584 0.059 7.14 3.96 12.08
11/7/2021 7:45:00 PM 5.8 42.44 0.059 7.11 7.27 12.1
11/7/2021 8:00:00 PM 5.72 42.296 0.059 7.11 4.81 12.11
11/7/2021 8:15:00 PM 5.66 42.188 0.059 7.12 4.94 12.13
11/7/2021 8:30:00 PM 5.59 42.062 0.059 7.1 4 12.15
11/7/2021 8:45:00 PM 5.54 41.972 0.06 7.09 3.9 12.17
11/7/2021 9:00:00 PM 5.48 41.864 0.06 7.09 4.14 12.19
11/7/2021 9:15:00 PM 5.43 41.774 0.06 7.08 4.43 12.21
11/7/2021 9:30:00 PM 5.39 41.702 0.06 7.12 3.97 12.22
11/7/2021 9:45:00 PM 5.34 41.612 0.06 7.08 4.09 12.24
11/7/2021 10:00:00 PM 5.29 41.522 0.06 7.12 4.05 12.26
11/7/2021 10:15:00 PM 5.25 41.45 0.06 7.09 4.05 12.27
11/7/2021 10:30:00 PM 5.2 41.36 0.06 7.11 3.94 12.3
11/7/2021 10:45:00 PM 5.15 41.27 0.06 7.08 4.14 12.31
11/7/2021 11:00:00 PM 5.11 41.198 0.06 7.09 4.29 12.31
11/7/2021 11:15:00 PM 5.06 41.108 0.06 7.11 4.44 12.33
11/7/2021 11:30:00 PM 5.01 41.018 0.06 7.1 3.86 12.34
11/7/2021 11:45:00 PM 4.97 40.946 0.06 7.08 4.02 12.36
11/8/2021 12:00:00 AM 4.92 40.856 0.058 7.07 4.22 12.37
11/8/2021 12:15:00 AM 4.88 40.784 0.06 7.06 4.1 12.39
11/8/2021 12:30:00 AM 4.84 40.712 0.06 7.08 1103.5 12.41
11/8/2021 12:45:00 AM 4.8 40.64 0.06 7.08 3.96 12.42
11/8/2021 1:00:00 AM 4.76 40.568 0.06 7.12 4.04 12.44
11/8/2021 1:15:00 AM 4.72 40.496 0.06 7.1 4 12.45
11/8/2021 1:30:00 AM 4.68 40.424 0.06 7.08 4.06 12.46
11/8/2021 1:45:00 AM 4.64 40.352 0.06 7.1 4.45 12.48
11/8/2021 2:00:00 AM 4.61 40.298 0.06 7.09 3.98 12.49
11/8/2021 2:15:00 AM 4.57 40.226 0.06 7.07 3.99 12.5
11/8/2021 2:30:00 AM 4.53 40.154 0.058 7.08 3.98 12.51
11/8/2021 2:45:00 AM 4.49 40.082 0.06 7.06 4.18 12.53
11/8/2021 3:00:00 AM 4.46 40.028 0.06 7.1 4.24 12.53
11/8/2021 3:15:00 AM 4.42 39.956 0.06 7.1 4.29 12.54
11/8/2021 3:30:00 AM 4.39 39.902 0.06 7.09 4.14 12.55
11/8/2021 3:45:00 AM 4.35 39.83 0.06 7.06 4.19 12.57
11/8/2021 4:00:00 AM 4.32 39.776 0.06 7.1 4.32 12.58
11/8/2021 4:15:00 AM 4.28 39.704 0.06 7.08 4.28 12.6
11/8/2021 4:30:00 AM 4.24 39.632 0.06 7.07 4.27 12.61
11/8/2021 4:45:00 AM 4.2 39.56 0.06 7.06 4.34 12.62
11/8/2021 5:00:00 AM 4.17 39.506 0.06 7.06 4.4 12.64
11/8/2021 5:15:00 AM 4.13 39.434 0.06 7.08 4.5 12.65
11/8/2021 5:30:00 AM 4.1 39.38 0.06 7.06 4.42 12.66
11/8/2021 5:45:00 AM 4.06 39.308 0.06 7.09 4.57 12.68
11/8/2021 6:00:00 AM 4.03 39.254 0.06 7.09 4.3 12.69
11/8/2021 6:15:00 AM 3.99 39.182 0.06 7.1 4.41 12.71
11/8/2021 6:30:00 AM 3.96 39.128 0.06 7.09 4.23 12.73
11/8/2021 6:45:00 AM 3.93 39.074 0.06 7.09 4.4 12.73
11/8/2021 7:00:00 AM 3.9 39.02 0.06 7.08 4.27 12.76
11/8/2021 7:15:00 AM 3.87 38.966 0.06 7.09 4.28 12.81
11/8/2021 7:30:00 AM 3.84 38.912 0.06 7.09 4.19 12.87
11/8/2021 7:45:00 AM 3.82 38.876 0.06 7.09 4.21 12.95
11/8/2021 8:00:00 AM 3.8 38.84 0.06 7.14 4.21 13.02
11/8/2021 8:15:00 AM 3.79 38.822 0.06 7.13 4.1 13.1
11/8/2021 8:30:00 AM 3.79 38.822 0.06 7.16 4.12 13.17
11/8/2021 8:45:00 AM 3.81 38.858 0.06 7.18 4.25 13.25
11/8/2021 9:00:00 AM 3.85 38.93 0.059 7.2 4.16 13.32
11/8/2021 9:15:00 AM 3.91 39.038 0.059 7.22 4.07 13.38
11/8/2021 9:30:00 AM 3.99 39.182 0.059 7.28 4.11 13.42
11/8/2021 9:45:00 AM 4.07 39.326 0.059 7.3 4.11 13.43
11/8/2021 10:00:00 AM 4.15 39.47 0.059 7.31 4.06 13.45
11/8/2021 10:15:00 AM 4.24 39.632 0.059 7.32 3.97 13.45
11/8/2021 10:30:00 AM 4.35 39.83 0.059 7.32 4.05 13.45
11/8/2021 10:45:00 AM 4.47 40.046 0.059 7.34 4.03 13.44
11/8/2021 11:00:00 AM 4.63 40.334 0.059 7.36 4.04 13.43
11/8/2021 11:15:00 AM 4.82 40.676 0.059 7.38 4.01 13.39
11/8/2021 11:30:00 AM 5.04 41.072 0.059 7.42 4.01 13.34
11/8/2021 11:45:00 AM 5.27 41.486 0.058 7.41 4.01 13.3
11/8/2021 12:00:00 PM 5.51 41.918 0.058 7.43 4.06 13.23
11/8/2021 12:15:00 PM 5.75 42.35 0.058 7.45 3.94 13.17
11/8/2021 12:30:00 PM 5.99 42.782 0.058 7.48 3.96 13.12
11/8/2021 12:45:00 PM 6.23 43.214 0.058 7.51 3.91 13.06
11/8/2021 1:00:00 PM 6.46 43.628 0.058 7.51 3.98 13
11/8/2021 1:15:00 PM 6.68 44.024 0.058 7.56 3.95 12.94
11/8/2021 1:30:00 PM 6.86 44.348 0.058 7.59 3.86 12.88
11/8/2021 1:45:00 PM 7 44.6 0.058 7.59 3.87 12.83
11/8/2021 2:00:00 PM 7.11 44.798 0.058 7.62 3.91 12.79
11/8/2021 2:15:00 PM 7.18 44.924 0.058 7.57 3.93 12.75
11/8/2021 2:30:00 PM 7.21 44.978 0.058 7.59 3.89 12.71
11/8/2021 2:45:00 PM 7.21 44.978 0.058 7.61 3.82 12.66
11/8/2021 3:00:00 PM 7.2 44.96 0.058 7.56 3.95 12.61
11/8/2021 3:15:00 PM 7.19 44.942 0.058 7.53 4.14 12.54
11/8/2021 3:30:00 PM 7.2 44.96 0.058 7.52 3.96 12.46
11/8/2021 3:45:00 PM 7.24 45.032 0.058 7.47 4.1 12.37
11/8/2021 4:00:00 PM 7.31 45.158 0.058 7.43 4.09 12.28
11/8/2021 4:15:00 PM 7.39 45.302 0.058 7.4 4.1 12.18
11/8/2021 4:30:00 PM 7.47 45.446 0.058 7.37 4.09 12.07
11/8/2021 4:45:00 PM 7.53 45.554 0.058 7.32 4.07 11.97
11/8/2021 5:00:00 PM 7.56 45.608 0.059 7.31 3.96 11.87
11/8/2021 5:15:00 PM 7.58 45.644 0.059 7.27 4.07 11.78
11/8/2021 5:30:00 PM 7.58 45.644 0.059 7.26 5.1 11.71
11/8/2021 5:45:00 PM 7.57 45.626 0.059 7.2 4.02 11.66
11/8/2021 6:00:00 PM 7.53 45.554 0.059 7.2 4 11.63
11/8/2021 6:15:00 PM 7.49 45.482 0.06 7.16 4.24 11.62
11/8/2021 6:30:00 PM 7.42 45.356 0.06 7.15 4.02 11.62
11/8/2021 6:45:00 PM 7.34 45.212 0.06 7.17 4.05 11.63
11/8/2021 7:00:00 PM 7.25 45.05 0.06 7.17 3.9 11.65
11/8/2021 7:15:00 PM 7.15 44.87 0.06 7.15 3.96 11.68
11/8/2021 7:30:00 PM 7.04 44.672 0.06 7.13 3.83 11.69
11/8/2021 7:45:00 PM 6.95 44.51 0.061 7.15 4.04 11.71
11/8/2021 8:00:00 PM 6.86 44.348 0.061 7.13 3.97 11.74
11/8/2021 8:15:00 PM 6.79 44.222 0.061 7.11 4 11.76
11/8/2021 8:30:00 PM 6.71 44.078 0.061 7.12 3.97 11.78
11/8/2021 8:45:00 PM 6.65 43.97 0.061 7.12 3.81 11.81
11/8/2021 9:00:00 PM 6.59 43.862 0.061 7.12 4 11.83
11/8/2021 9:15:00 PM 6.53 43.754 0.061 7.13 3.98 11.85
11/8/2021 9:30:00 PM 6.48 43.664 0.061 7.13 4.03 11.87
11/8/2021 9:45:00 PM 6.43 43.574 0.061 7.1 4.16 11.88
11/8/2021 10:00:00 PM 6.39 43.502 0.061 7.08 4.19 11.89
11/8/2021 10:15:00 PM 6.34 43.412 0.061 7.13 4.2 11.9
11/8/2021 10:30:00 PM 6.3 43.34 0.061 7.09 4.3 11.91
11/8/2021 10:45:00 PM 6.26 43.268 0.061 7.12 4.5 11.92
11/8/2021 11:00:00 PM 6.21 43.178 0.061 7.1 4.62 11.95
11/8/2021 11:15:00 PM 6.17 43.106 0.061 7.11 4.75 11.96
11/8/2021 11:30:00 PM 6.12 43.016 0.061 7.07 4.62 11.98
11/8/2021 11:45:00 PM 6.07 42.926 0.061 7.11 4.65 11.99
11/9/2021 12:00:00 AM 6.03 42.854 0.061 7.07 4.63 12.01
11/9/2021 12:15:00 AM 5.98 42.764 0.061 7.1 4.72 12.03
11/9/2021 12:30:00 AM 5.94 42.692 0.061 7.07 4.7 12.04
11/9/2021 12:45:00 AM 5.89 42.602 0.061 7.11 5 12.05
11/9/2021 1:00:00 AM 5.85 42.53 0.061 7.09 4.99 12.07
11/9/2021 1:15:00 AM 5.8 42.44 0.061 7.1 5.09 12.07
11/9/2021 1:30:00 AM 5.76 42.368 0.061 7.09 5.23 12.08
11/9/2021 1:45:00 AM 5.72 42.296 0.061 7.06 5.41 12.1
11/9/2021 2:00:00 AM 5.68 42.224 0.061 7.09 4.25 12.1
11/9/2021 2:15:00 AM 5.64 42.152 0.061 7.08 4.18 12.12
11/9/2021 2:30:00 AM 5.6 42.08 0.061 7.11 4.25 12.14
11/9/2021 2:45:00 AM 5.56 42.008 0.061 7.06 4.11 12.15
11/9/2021 3:00:00 AM 5.52 41.936 0.061 7.1 4.28 12.16
11/9/2021 3:15:00 AM 5.5 41.9 0.061 7.1 4.16 12.18
11/9/2021 3:30:00 AM 5.47 41.846 0.061 7.06 4.26 12.19
11/9/2021 3:45:00 AM 5.44 41.792 0.061 7.08 4.16 12.2
11/9/2021 4:00:00 AM 5.42 41.756 0.061 7.06 4.34 12.21
11/9/2021 4:15:00 AM 5.4 41.72 0.061 7.1 4.26 12.22
11/9/2021 4:30:00 AM 5.39 41.702 0.061 7.06 4.13 12.23
11/9/2021 4:45:00 AM 5.37 41.666 0.061 7.06 4.15 12.23
11/9/2021 5:00:00 AM 5.36 41.648 0.061 7.07 4.29 12.24
11/9/2021 5:15:00 AM 5.35 41.63 0.061 7.07 4.33 12.24
11/9/2021 5:30:00 AM 5.32 41.576 0.061 7.07 4.21 12.26
11/9/2021 5:45:00 AM 5.29 41.522 0.061 7.1 4.23 12.27
11/9/2021 6:00:00 AM 5.26 41.468 0.061 7.08 4.39 12.28
11/9/2021 6:15:00 AM 5.23 41.414 0.061 7.07 4.29 12.3
11/9/2021 6:30:00 AM 5.19 41.342 0.061 7.08 4.21 12.31
11/9/2021 6:45:00 AM 5.14 41.252 0.061 7.09 4.05 12.32
11/9/2021 7:00:00 AM 5.11 41.198 0.061 7.1 4.11 12.34
11/9/2021 7:15:00 AM 5.07 41.126 0.061 7.09 4.07 12.4
11/9/2021 7:30:00 AM 5.04 41.072 0.061 7.09 4.11 12.47
11/9/2021 7:45:00 AM 5 41 0.061 7.12 4.14 12.57
11/9/2021 8:00:00 AM 4.98 40.964 0.061 7.16 4.02 12.67
11/9/2021 8:15:00 AM 4.97 40.946 0.061 7.15 4.03 12.76
11/9/2021 8:30:00 AM 4.97 40.946 0.06 7.19 4.07 12.86
11/9/2021 8:45:00 AM 4.99 40.982 0.06 7.21 4.14 12.96
11/9/2021 9:00:00 AM 5.02 41.036 0.06 7.25 4.04 13.02
11/9/2021 9:15:00 AM 5.07 41.126 0.06 7.27 4.12 13.07
11/9/2021 9:30:00 AM 5.14 41.252 0.06 7.31 4.05 13.12
11/9/2021 9:45:00 AM 5.21 41.378 0.06 7.33 4.08 13.16
11/9/2021 10:00:00 AM 5.31 41.558 0.06 7.37 4.1 13.18
11/9/2021 10:15:00 AM 5.41 41.738 0.06 7.42 4.09 13.19
11/9/2021 10:30:00 AM 5.52 41.936 0.059 7.45 4.13 13.18
11/9/2021 10:45:00 AM 5.65 42.17 0.059 7.44 4.17 13.16
11/9/2021 11:00:00 AM 5.8 42.44 0.059 7.49 4.12 13.14
11/9/2021 11:15:00 AM 5.98 42.764 0.059 7.51 4.1 13.12
11/9/2021 11:30:00 AM 6.18 43.124 0.059 7.51 4.1 13.07
11/9/2021 11:45:00 AM 6.41 43.538 0.059 7.55 4.13 13.02
11/9/2021 12:00:00 PM 6.65 43.97 0.059 7.57 4.13 12.96
11/9/2021 12:15:00 PM 6.89 44.402 0.059 7.6 4.19 12.89
11/9/2021 12:30:00 PM 7.12 44.816 0.059 7.64 3.98 12.85
11/9/2021 12:45:00 PM 7.34 45.212 0.059 7.69 4.04 12.78
11/9/2021 1:00:00 PM 7.53 45.554 0.059 7.67 3.97 12.73
11/9/2021 1:15:00 PM 7.7 45.86 0.059 7.73 4.05 12.68
11/9/2021 1:30:00 PM 7.76 45.968 0.059 7.75 4.04 12.63
11/9/2021 1:45:00 PM 7.87 46.166 0.059 7.75 4.05 12.6
11/9/2021 2:00:00 PM 7.97 46.346 0.059 7.8 4.09 12.57
11/9/2021 2:15:00 PM 8.08 46.544 0.059 7.82 4.13 12.53
11/9/2021 2:30:00 PM 8.11 46.598 0.059 7.8 4.01 12.5
11/9/2021 2:45:00 PM 8.14 46.652 0.059 7.81 4.29 12.47
11/9/2021 3:00:00 PM 8.13 46.634 0.059 7.81 4.27 12.45
11/9/2021 3:15:00 PM 8.13 46.634 0.059 7.81 4.08 12.4
11/9/2021 3:30:00 PM 8.15 46.67 0.059 7.78 4.42 12.33
11/9/2021 3:45:00 PM 8.17 46.706 0.059 7.7 4.1 12.25
11/9/2021 4:00:00 PM 8.22 46.796 0.059 7.67 4.19 12.15
11/9/2021 4:15:00 PM 8.28 46.904 0.059 7.58 4.08 12.04
11/9/2021 4:30:00 PM 8.34 47.012 0.059 7.52 4.17 11.9
11/9/2021 4:45:00 PM 8.4 47.12 0.059 7.44 4.47 11.77
11/9/2021 5:00:00 PM 8.46 47.228 0.059 7.38 4.27 11.63
11/9/2021 5:15:00 PM 8.51 47.318 0.06 7.35 4.27 11.52
11/9/2021 5:30:00 PM 8.55 47.39 0.06 7.28 4.44 11.42
11/9/2021 5:45:00 PM 8.58 47.444 0.06 7.27 4.38 11.34
11/9/2021 6:00:00 PM 8.6 47.48 0.06 7.23 4.52 11.3
11/9/2021 6:15:00 PM 8.61 47.498 0.061 7.22 4.6 11.27
11/9/2021 6:30:00 PM 8.59 47.462 0.061 7.17 4.64 11.23
11/9/2021 6:45:00 PM 8.57 47.426 0.061 7.18 4.78 11.22
11/9/2021 7:00:00 PM 8.54 47.372 0.061 7.15 4.65 11.22
11/9/2021 7:15:00 PM 8.51 47.318 0.061 7.14 4.55 11.22
11/9/2021 7:30:00 PM 8.47 47.246 0.061 7.16 4.53 11.23
11/9/2021 7:45:00 PM 8.42 47.156 0.062 7.14 4.68 11.23
11/9/2021 8:00:00 PM 8.37 47.066 0.062 7.11 4.72 11.25
11/9/2021 8:15:00 PM 8.31 46.958 0.062 7.14 4.82 11.25
11/9/2021 8:30:00 PM 8.27 46.886 0.062 7.11 4.48 11.25
11/9/2021 8:45:00 PM 8.23 46.814 0.062 7.1 4.52 11.26
11/9/2021 9:00:00 PM 8.19 46.742 0.062 7.09 4.57 11.27
11/9/2021 9:15:00 PM 8.15 46.67 0.062 7.11 4.69 11.28
11/9/2021 9:30:00 PM 8.12 46.616 0.062 7.08 4.52 11.29
11/9/2021 9:45:00 PM 8.08 46.544 0.062 7.08 4.74 11.3
11/9/2021 10:00:00 PM 8.05 46.49 0.062 7.1 4.59 11.31
11/9/2021 10:15:00 PM 8.01 46.418 0.062 7.09 4.65 11.32
11/9/2021 10:30:00 PM 7.97 46.346 0.062 7.11 4.6 11.33
11/9/2021 10:45:00 PM 7.93 46.274 0.062 7.07 4.65 11.34
11/9/2021 11:00:00 PM 7.89 46.202 0.062 7.09 4.66 11.35
11/9/2021 11:15:00 PM 7.85 46.13 0.062 7.08 4.53 11.36
11/9/2021 11:30:00 PM 7.82 46.076 0.062 7.07 4.66 11.37
11/9/2021 11:45:00 PM 7.79 46.022 0.062 7.06 5.58 11.38
11/10/2021 12:00:00 AM 7.76 45.968 0.062 7.09 4.72 11.39
11/10/2021 12:15:00 AM 7.74 45.932 0.062 7.11 4.58 11.4
11/10/2021 12:30:00 AM 7.72 45.896 0.062 7.09 4.51 11.4
11/10/2021 12:45:00 AM 7.7 45.86 0.062 7.06 4.66 11.41
11/10/2021 1:00:00 AM 7.67 45.806 0.062 7.08 4.66 11.41
11/10/2021 1:15:00 AM 7.65 45.77 0.062 7.08 4.49 11.41
11/10/2021 1:30:00 AM 7.62 45.716 0.062 7.09 4.52 11.42
11/10/2021 1:45:00 AM 7.59 45.662 0.062 7.1 4.57 11.43
11/10/2021 2:00:00 AM 7.56 45.608 0.062 7.1 4.59 11.44
11/10/2021 2:15:00 AM 7.54 45.572 0.062 7.08 4.66 11.44
11/10/2021 2:30:00 AM 7.53 45.554 0.062 7.07 4.6 11.45
11/10/2021 2:45:00 AM 7.52 45.536 0.062 7.07 4.62 11.46
11/10/2021 3:00:00 AM 7.51 45.518 0.062 7.09 4.63 11.47
11/10/2021 3:15:00 AM 7.5 45.5 0.062 7.1 4.54 11.47
11/10/2021 3:30:00 AM 7.51 45.518 0.062 7.07 4.63 11.47
11/10/2021 3:45:00 AM 7.5 45.5 0.062 7.11 4.56 11.48
11/10/2021 4:00:00 AM 7.48 45.464 0.062 7.09 4.55 11.48
11/10/2021 4:15:00 AM 7.48 45.464 0.062 7.08 4.57 11.49
11/10/2021 4:30:00 AM 7.49 45.482 0.062 7.1 4.68 11.48
11/10/2021 4:45:00 AM 7.49 45.482 0.062 7.08 4.54 11.49
11/10/2021 5:00:00 AM 7.5 45.5 0.062 7.08 4.49 11.49
11/10/2021 5:15:00 AM 7.5 45.5 0.062 7.08 4.47 11.49
11/10/2021 5:30:00 AM 7.5 45.5 0.062 7.09 4.52 11.5
11/10/2021 5:45:00 AM 7.5 45.5 0.062 7.08 4.53 11.5
11/10/2021 6:00:00 AM 7.5 45.5 0.062 7.1 4.51 11.5
11/10/2021 6:15:00 AM 7.5 45.5 0.062 7.1 4.43 11.5
11/10/2021 6:30:00 AM 7.47 45.446 0.062 7.11 4.42 11.51
11/10/2021 6:45:00 AM 7.47 45.446 0.062 7.09 4.58 11.51
11/10/2021 7:00:00 AM 7.47 45.446 0.062 7.09 4.58 11.53
11/10/2021 7:15:00 AM 7.45 45.41 0.062 7.09 4.49 11.58
11/10/2021 7:30:00 AM 7.44 45.392 0.062 7.14 4.45 11.67
11/10/2021 7:45:00 AM 7.44 45.392 0.062 7.13 4.73 11.79
11/10/2021 8:00:00 AM 7.42 45.356 0.062 7.16 4.58 11.89
11/10/2021 8:15:00 AM 7.44 45.392 0.062 7.22 4.65 12.01
11/10/2021 8:30:00 AM 7.45 45.41 0.061 7.24 4.4 12.13
11/10/2021 8:45:00 AM 7.48 45.464 0.061 7.29 4.39 12.21
11/10/2021 9:00:00 AM 7.52 45.536 0.061 7.37 4.33 12.28
11/10/2021 9:15:00 AM 7.57 45.626 0.061 7.39 4.39 12.32
11/10/2021 9:30:00 AM 7.63 45.734 0.061 7.44 4.39 12.36
11/10/2021 9:45:00 AM 7.69 45.842 0.061 7.48 4.32 12.39
11/10/2021 10:00:00 AM 7.75 45.95 0.061 7.51 4.4 12.42
11/10/2021 10:15:00 AM 7.82 46.076 0.061 7.54 4.52 12.44
11/10/2021 10:30:00 AM 7.89 46.202 0.061 7.57 4.35 12.45
11/10/2021 10:45:00 AM 7.97 46.346 0.061 7.61 4.38 12.46
11/10/2021 11:00:00 AM 8.09 46.562 0.061 7.64 4.32 12.46
11/10/2021 11:15:00 AM 8.21 46.778 0.061 7.68 4.27 12.45
11/10/2021 11:30:00 AM 8.38 47.084 0.06 7.71 4.45 12.43
11/10/2021 11:45:00 AM 8.56 47.408 0.06 7.75 4.74 12.4
11/10/2021 12:00:00 PM 8.76 47.768 0.06 7.78 4.3 12.36
11/10/2021 12:15:00 PM 8.96 48.128 0.06 7.83 4.5 12.32
11/10/2021 12:30:00 PM 9.17 48.506 0.06 7.87 3.99 12.29
11/10/2021 12:45:00 PM 9.36 48.848 0.06 7.93 3.88 12.23
11/10/2021 1:00:00 PM 9.55 49.19 0.06 7.94 4.36 12.18
11/10/2021 1:15:00 PM 9.72 49.496 0.06 7.96 4.09 12.16
11/10/2021 1:30:00 PM 9.86 49.748 0.06 8.01 3.68 12.12
11/10/2021 1:45:00 PM 9.95 49.91 0.06 8.04 3.73 12.08
11/10/2021 2:00:00 PM 10 50 0.06 8.05 3.63 12.05
11/10/2021 2:15:00 PM 9.99 49.982 0.06 8.02 3.64 12.02
11/10/2021 2:30:00 PM 9.93 49.874 0.06 7.99 4.09 12
11/10/2021 2:45:00 PM 9.84 49.712 0.06 7.99 69.14 11.97
11/10/2021 3:00:00 PM 9.73 49.514 0.06 7.9 4.92 11.94
11/10/2021 3:15:00 PM 9.62 49.316 0.06 7.85 3.92 11.89
11/10/2021 3:30:00 PM 9.52 49.136 0.06 7.74 4.51 11.82
11/10/2021 3:45:00 PM 9.44 48.992 0.06 7.68 4.28 11.74
11/10/2021 4:00:00 PM 9.42 48.956 0.06 7.61 4.15 11.67
11/10/2021 4:15:00 PM 9.42 48.956 0.06 7.56 3.96 11.62
11/10/2021 4:30:00 PM 9.43 48.974 0.06 7.51 4.16 11.54
11/10/2021 4:45:00 PM 9.45 49.01 0.061 7.44 4.64 11.42
11/10/2021 5:00:00 PM 9.45 49.01 0.061 7.41 3.82 11.3
11/10/2021 5:15:00 PM 9.42 48.956 0.061 7.37 3.91 11.21
11/10/2021 5:30:00 PM 9.4 48.92 0.062 7.31 3.73 11.13
11/10/2021 5:45:00 PM 9.36 48.848 0.062 7.3 3.74 11.09
11/10/2021 6:00:00 PM 9.3 48.74 0.062 7.24 3.84 11.07
11/10/2021 6:15:00 PM 9.23 48.614 0.057 7.26 4.03 11.06
11/10/2021 6:30:00 PM 9.15 48.47 0.062 7.19 3.83 11.06
11/10/2021 6:45:00 PM 9.05 48.29 0.062 7.23 3.82 11.07
11/10/2021 7:00:00 PM 8.95 48.11 0.051 7.21 4 11.08
11/10/2021 7:15:00 PM 8.83 47.894 0.063 7.2 4.41 11.11
11/10/2021 7:30:00 PM 8.71 47.678 0.063 7.2 3.81 11.15
11/10/2021 7:45:00 PM 8.57 47.426 0.063 7.18 3.47 11.18
11/10/2021 8:00:00 PM 8.44 47.192 0.063 7.18 4.04 11.22
11/10/2021 8:15:00 PM 8.31 46.958 0.063 7.17 188.96 11.25
11/10/2021 8:30:00 PM 8.19 46.742 0.063 7.19 835.92 11.29
11/10/2021 8:45:00 PM 8.06 46.508 0.063 7.2 4.3 11.32
11/10/2021 9:00:00 PM 7.95 46.31 0.064 7.16 3.4 11.35
11/10/2021 9:15:00 PM 7.83 46.094 0.063 7.18 3.69 11.4
11/10/2021 9:30:00 PM 7.73 45.914 0.064 7.17 3.48 11.43
11/10/2021 9:45:00 PM 7.63 45.734 0.064 7.17 3.57 11.45
11/10/2021 10:00:00 PM 7.54 45.572 0.064 7.13 3.46 11.47
11/10/2021 10:15:00 PM 7.45 45.41 0.064 7.16 3.64 11.51
11/10/2021 10:30:00 PM 7.37 45.266 0.064 7.13 3.69 11.54
11/10/2021 10:45:00 PM 7.29 45.122 0.064 7.15 3.61 11.56
11/10/2021 11:00:00 PM 7.22 44.996 0.064 7.1 3.65 11.59
11/10/2021 11:15:00 PM 7.14 44.852 0.064 7.13 3.73 11.62
11/10/2021 11:30:00 PM 7.07 44.726 0.064 7.14 4.7 11.63
11/10/2021 11:45:00 PM 6.99 44.582 0.064 7.12 8.37 11.65
11/11/2021 12:00:00 AM 6.92 44.456 0.064 7.13 18.01 11.67
11/11/2021 12:15:00 AM 6.85 44.33 0.064 7.13 13.04 11.69
11/11/2021 12:30:00 AM 6.78 44.204 0.064 7.14 3.65 11.71
11/11/2021 12:45:00 AM 6.7 44.06 0.064 7.11 4.04 11.74
11/11/2021 1:00:00 AM 6.63 43.934 0.064 7.12 9.81 11.76
11/11/2021 1:15:00 AM 6.56 43.808 0.064 7.14 6.22 11.79
11/11/2021 1:30:00 AM 6.49 43.682 0.064 7.14 4.67 11.81
11/11/2021 1:45:00 AM 6.43 43.574 0.064 7.14 5.59 11.83
11/11/2021 2:00:00 AM 6.38 43.484 0.064 7.13 7.94 11.84
11/11/2021 2:15:00 AM 6.34 43.412 0.064 7.12 7.47 11.86
11/11/2021 2:30:00 AM 6.31 43.358 0.064 7.14 5.73 11.87
11/11/2021 2:45:00 AM 6.28 43.304 0.064 7.12 5.8 11.88
11/11/2021 3:00:00 AM 6.25 43.25 0.064 7.11 6.03 11.9
11/11/2021 3:15:00 AM 6.22 43.196 0.064 7.13 6.12 11.92
11/11/2021 3:30:00 AM 6.18 43.124 0.064 7.12 6.59 11.93
11/11/2021 3:45:00 AM 6.14 43.052 0.064 7.13 7.76 11.94
11/11/2021 4:00:00 AM 6.09 42.962 0.064 7.14 4.24 11.95
11/11/2021 4:15:00 AM 6.05 42.89 0.064 7.12 4.03 11.97
11/11/2021 4:30:00 AM 6.01 42.818 0.064 7.13 4.21 11.98
11/11/2021 4:45:00 AM 5.98 42.764 0.064 7.14 4.23 11.99
11/11/2021 5:00:00 AM 5.93 42.674 0.064 7.14 4.19 12.01
11/11/2021 5:15:00 AM 5.89 42.602 0.064 7.14 4.53 12.02
11/11/2021 5:30:00 AM 5.84 42.512 0.064 7.13 4.32 12.04
11/11/2021 5:45:00 AM 5.8 42.44 0.064 7.12 4.31 12.06
11/11/2021 6:00:00 AM 5.75 42.35 0.064 7.12 4.49 12.06
11/11/2021 6:15:00 AM 5.7 42.26 0.064 7.13 5.95 12.08
11/11/2021 6:30:00 AM 5.66 42.188 0.064 7.13 3.74 12.1
11/11/2021 6:45:00 AM 5.61 42.098 0.064 7.13 3.54 12.12
11/11/2021 7:00:00 AM 5.56 42.008 0.064 7.13 3.63 12.14
11/11/2021 7:15:00 AM 5.52 41.936 0.064 7.12 3.54 12.2
11/11/2021 7:30:00 AM 5.48 41.864 0.064 7.14 5.9 12.29
11/11/2021 7:45:00 AM 5.45 41.81 0.064 7.18 3.44 12.41
11/11/2021 8:00:00 AM 5.44 41.792 0.064 7.23 3.45 12.54
11/11/2021 8:15:00 AM 5.43 41.774 0.063 7.24 13.41 12.67
11/11/2021 8:30:00 AM 5.43 41.774 0.063 7.29 3.55 12.79
11/11/2021 8:45:00 AM 5.46 41.828 0.063 7.35 3.43 12.89
11/11/2021 9:00:00 AM 5.51 41.918 0.062 7.35 5.6 12.98
11/11/2021 9:15:00 AM 5.56 42.008 0.062 7.43 3.94 13.03
11/11/2021 9:30:00 AM 5.62 42.116 0.062 7.45 4.05 13.06
11/11/2021 9:45:00 AM 5.69 42.242 0.062 7.49 4.02 13.09
11/11/2021 10:00:00 AM 5.77 42.386 0.062 7.52 3.97 13.1
11/11/2021 10:15:00 AM 5.88 42.584 0.062 7.58 3.97 13.11
11/11/2021 10:30:00 AM 6 42.8 0.061 7.6 3.97 13.11
11/11/2021 10:45:00 AM 6.1 42.98 0.061 7.66 3.88 13.1
11/11/2021 11:00:00 AM 6.22 43.196 0.061 7.67 3.89 13.07
11/11/2021 11:15:00 AM 6.34 43.412 0.061 7.71 3.83 13.05
11/11/2021 11:30:00 AM 6.48 43.664 0.061 7.75 3.72 13.03
11/11/2021 11:45:00 AM 6.68 44.024 0.061 7.77 3.83 13
11/11/2021 12:00:00 PM 6.88 44.384 0.061 7.82 3.9 12.95
11/11/2021 12:15:00 PM 7.01 44.618 0.061 7.83 3.81 12.89
11/11/2021 12:30:00 PM 7.15 44.87 0.061 7.87 3.76 12.85
11/11/2021 12:45:00 PM 7.28 45.104 0.061 7.87 3.82 12.8
11/11/2021 1:00:00 PM 7.4 45.32 0.061 7.91 3.82 12.75
11/11/2021 1:15:00 PM 7.56 45.608 0.061 7.93 3.86 12.7
11/11/2021 1:30:00 PM 7.72 45.896 0.061 7.97 3.8 12.67
11/11/2021 1:45:00 PM 7.87 46.166 0.061 7.98 3.73 12.64
11/11/2021 2:00:00 PM 8.04 46.472 0.061 8.01 3.79 12.58
11/11/2021 2:15:00 PM 8.18 46.724 0.061 8.05 3.84 12.54
11/11/2021 2:30:00 PM 8.28 46.904 0.061 8.04 3.84 12.49
11/11/2021 2:45:00 PM 8.3 46.94 0.061 8.04 3.84 12.45
11/11/2021 3:00:00 PM 8.29 46.922 0.061 8.01 3.95 12.41
11/11/2021 3:15:00 PM 8.29 46.922 0.061 7.99 3.98 12.36
11/11/2021 3:30:00 PM 8.32 46.976 0.061 7.85 3.96 12.33
11/11/2021 3:45:00 PM 8.35 47.03 0.06 7.92 3.95 12.26
11/11/2021 4:00:00 PM 8.39 47.102 0.06 7.87 4.16 12.19
11/11/2021 4:15:00 PM 8.41 47.138 0.06 7.76 35.25 12.1
11/11/2021 4:30:00 PM 8.42 47.156 0.061 7.67 4.12 11.98
11/11/2021 4:45:00 PM 8.43 47.174 0.061 7.59 58.52 11.84
11/11/2021 5:00:00 PM 8.44 47.192 0.061 7.51 4.15 11.67
11/11/2021 5:15:00 PM 8.44 47.192 0.061 7.44 25.64 11.55
11/11/2021 5:30:00 PM 8.45 47.21 0.061 7.34 33.13 11.45
11/11/2021 5:45:00 PM 8.47 47.246 0.062 7.35 3.82 11.37
11/11/2021 6:00:00 PM 8.48 47.264 0.062 7.31 3.89 11.32
11/11/2021 6:15:00 PM 8.5 47.3 0.062 7.31 3.68 11.26
11/11/2021 6:30:00 PM 8.51 47.318 0.062 7.27 3.87 11.24
11/11/2021 6:45:00 PM 8.52 47.336 0.062 7.25 4.01 11.21
11/11/2021 7:00:00 PM 8.52 47.336 0.063 7.24 2176.06 11.19
11/11/2021 7:15:00 PM 8.53 47.354 0.063 7.24 36 11.18
11/11/2021 7:30:00 PM 8.55 47.39 0.059 7.22 4.06 11.16
11/11/2021 7:45:00 PM 8.56 47.408 0.063 7.23 3.93 11.15
11/11/2021 8:00:00 PM 8.57 47.426 0.063 7.21 3.85 11.15
11/11/2021 8:15:00 PM 8.58 47.444 0.064 7.18 3.74 11.14
11/11/2021 8:30:00 PM 8.59 47.462 0.064 7.19 3.57 11.14
11/11/2021 8:45:00 PM 8.6 47.48 0.064 7.18 4.66 11.12
11/11/2021 9:00:00 PM 8.61 47.498 0.064 7.21 5.32 11.11
11/11/2021 9:15:00 PM 8.63 47.534 0.062 7.18 8.19 11.12
11/11/2021 9:30:00 PM 8.64 47.552 0.064 7.2 5.92 11.1
11/11/2021 9:45:00 PM 8.67 47.606 0.064 7.22 23.02 11.1
11/11/2021 10:00:00 PM 8.69 47.642 0.063 7.2 4.49 11.1
11/11/2021 10:15:00 PM 8.71 47.678 0.064 7.18 133.82 11.08
11/11/2021 10:30:00 PM 8.73 47.714 0.059 7.2 12.18 11.06
11/11/2021 10:45:00 PM 8.76 47.768 0.064 7.18 6.88 11.05
11/11/2021 11:00:00 PM 8.79 47.822 0.064 7.18 20.08 11.05
11/11/2021 11:15:00 PM 8.82 47.876 0.064 7.17 3.57 11.04
11/11/2021 11:30:00 PM 8.86 47.948 0.055 7.18 3.6 11.02
11/11/2021 11:45:00 PM 8.9 48.02 0.064 7.17 3.41 11.01
11/12/2021 12:00:00 AM 8.93 48.074 0.055 7.19 3.56 11
11/12/2021 12:15:00 AM 8.95 48.11 0.064 7.18 3.95 10.99
11/12/2021 12:30:00 AM 8.98 48.164 0.064 7.16 5.35 10.98
11/12/2021 12:45:00 AM 9.02 48.236 0.064 7.13 5.42 10.97
11/12/2021 1:00:00 AM 9.06 48.308 0.065 7.15 9.8 10.96
11/12/2021 1:15:00 AM 9.11 48.398 0.066 7.15 35.76 10.94
11/12/2021 1:30:00 AM 9.16 48.488 0.066 7.15 15.77 10.92
11/12/2021 1:45:00 AM 9.2 48.56 0.065 7.17 154.12 10.9
11/12/2021 2:00:00 AM 9.25 48.65 0.065 7.15 27.29 10.89
11/12/2021 2:15:00 AM 9.29 48.722 0.064 7.18 252.66 10.87
11/12/2021 2:30:00 AM 9.33 48.794 0.064 7.19 1201.76 10.86
11/12/2021 2:45:00 AM 9.38 48.884 0.064 7.16 8.15 10.84
11/12/2021 3:00:00 AM 9.42 48.956 0.064 7.15 5.48 10.83
11/12/2021 3:15:00 AM 9.43 48.974 0.064 7.18 4.62 10.82
11/12/2021 3:30:00 AM 9.41 48.938 0.064 7.16 4.34 10.83
11/12/2021 3:45:00 AM 9.39 48.902 0.063 7.15 4.33 10.83
11/12/2021 4:00:00 AM 9.37 48.866 0.063 7.16 4.42 10.83
11/12/2021 4:15:00 AM 9.36 48.848 0.063 7.13 4.6 10.83
11/12/2021 4:30:00 AM 9.35 48.83 0.063 7.14 4.3 10.83
11/12/2021 4:45:00 AM 9.34 48.812 0.063 7.12 4.35 10.84
11/12/2021 5:00:00 AM 9.33 48.794 0.063 7.14 6.84 10.84
11/12/2021 5:15:00 AM 9.32 48.776 0.063 7.11 4.71 10.84
11/12/2021 5:30:00 AM 9.31 48.758 0.063 7.11 5.39 10.84
11/12/2021 5:45:00 AM 9.31 48.758 0.063 7.12 4.17 10.84
11/12/2021 6:00:00 AM 9.31 48.758 0.063 7.11 4.1 10.85
11/12/2021 6:15:00 AM 9.3 48.74 0.057 7.15 7.68 10.85
11/12/2021 6:30:00 AM 9.27 48.686 0.063 7.12 4.72 10.86
11/12/2021 6:45:00 AM 9.25 48.65 0.063 7.14 4.86 10.87
11/12/2021 7:00:00 AM 9.23 48.614 0.063 7.11 5 10.88
11/12/2021 7:15:00 AM 9.2 48.56 0.063 7.17 5 10.91
11/12/2021 7:30:00 AM 9.18 48.524 0.063 7.15 165.68 10.94
11/12/2021 7:45:00 AM 9.15 48.47 0.063 7.19 14.47 11.02
11/12/2021 8:00:00 AM 9.11 48.398 0.063 7.23 4.43 11.14
11/12/2021 8:15:00 AM 9.07 48.326 0.063 7.22 4.58 11.25
11/12/2021 8:30:00 AM 9.04 48.272 0.062 7.28 4.35 11.35
11/12/2021 8:45:00 AM 9.01 48.218 0.062 7.3 6.11 11.45
11/12/2021 9:00:00 AM 9.01 48.218 0.062 7.34 4.88 11.56
11/12/2021 9:15:00 AM 9.02 48.236 0.062 7.38 4.82 11.68
11/12/2021 9:30:00 AM 9.06 48.308 0.061 7.45 5.12 11.77
11/12/2021 9:45:00 AM 9.09 48.362 0.061 7.5 4.98 11.83
11/12/2021 10:00:00 AM 9.12 48.416 0.061 7.55 5.62 11.88
11/12/2021 10:15:00 AM 9.14 48.452 0.061 7.57 5.54 11.92
11/12/2021 10:30:00 AM 9.17 48.506 0.061 7.62 7.44 11.95
11/12/2021 10:45:00 AM 9.23 48.614 0.057 7.67 8.85 11.98
11/12/2021 11:00:00 AM 9.3 48.74 0.061 7.7 7.5 12
11/12/2021 11:15:00 AM 9.39 48.902 0.06 7.75 9.04 12
11/12/2021 11:30:00 AM 9.5 49.1 0.06 7.82 26.78 11.99
11/12/2021 11:45:00 AM 9.64 49.352 0.06 7.88 6.72 12
11/12/2021 12:00:00 PM 9.72 49.496 0.06 7.9 5.54 11.98
11/12/2021 12:15:00 PM 9.8 49.64 0.06 7.93 6.61 11.95
11/12/2021 12:30:00 PM 9.95 49.91 0.06 8 6.75 11.95
11/12/2021 12:45:00 PM 9.98 49.964 0.061 7.99 4.63 11.92
11/12/2021 1:00:00 PM 10.05 50.09 0.061 8 5.18 11.88
11/12/2021 1:15:00 PM 10.06 50.108 0.061 7.99 392.5 11.85
11/12/2021 1:30:00 PM 10.09 50.162 0.061 7.98 5715.73 11.81
11/12/2021 1:45:00 PM 10.05 50.09 0.06 7.96 7.69 11.78
11/12/2021 2:00:00 PM 10.01 50.018 0.06 7.98 6.19 11.76
11/12/2021 2:15:00 PM 10.01 50.018 0.06 7.99 8.55 11.77
11/12/2021 2:30:00 PM 10.04 50.072 0.06 7.99 8.85 11.76
11/12/2021 2:45:00 PM 10.03 50.054 0.06 7.96 7.57 11.73
11/12/2021 3:00:00 PM 10.03 50.054 0.06 8 6.56 11.72
11/12/2021 3:15:00 PM 10 50 0.061 7.95 7.99 11.7
11/12/2021 3:30:00 PM 9.94 49.892 0.061 7.89 7.65 11.64
11/12/2021 3:45:00 PM 9.89 49.802 0.061 7.79 8.36 11.54
11/12/2021 4:00:00 PM 9.89 49.802 0.061 7.72 8.25 11.46
11/12/2021 4:15:00 PM 9.87 49.766 0.061 7.64 6.65 11.38
11/12/2021 4:30:00 PM 9.85 49.73 0.062 7.56 6.91 11.28
11/12/2021 4:45:00 PM 9.82 49.676 0.062 7.49 7.46 11.2
11/12/2021 5:00:00 PM 9.78 49.604 0.062 7.4 10.49 11.11
11/12/2021 5:15:00 PM 9.72 49.496 0.063 7.37 9.71 11.02
11/12/2021 5:30:00 PM 9.65 49.37 0.063 7.33 8.23 10.95
11/12/2021 5:45:00 PM 9.58 49.244 0.063 7.31 19.11 10.91
11/12/2021 6:00:00 PM 9.49 49.082 0.064 7.27 6.13 10.89
11/12/2021 6:15:00 PM 9.39 48.902 0.064 7.26 6.11 10.89
11/12/2021 6:30:00 PM 9.28 48.704 0.064 7.25 6.21 10.9
11/12/2021 6:45:00 PM 9.16 48.488 0.063 7.24 159.36 10.92
11/12/2021 7:00:00 PM 9.04 48.272 0.065 7.2 6.42 10.94
11/12/2021 7:15:00 PM 8.93 48.074 0.065 7.21 6.35 10.95
11/12/2021 7:30:00 PM 8.84 47.912 0.065 7.19 6.31 10.97
11/12/2021 7:45:00 PM 8.73 47.714 0.066 7.18 6.29 11
11/12/2021 8:00:00 PM 8.64 47.552 0.067 7.19 6.24 11.03
11/12/2021 8:15:00 PM 8.57 47.426 0.067 7.19 6.21 11.05
11/12/2021 8:30:00 PM 8.5 47.3 0.066 7.18 6.3 11.08
11/12/2021 8:45:00 PM 8.44 47.192 0.067 7.2 6.12 11.08
11/12/2021 9:00:00 PM 8.38 47.084 0.066 7.19 6.92 11.1
11/12/2021 9:15:00 PM 8.31 46.958 0.066 7.18 6.3 11.12
11/12/2021 9:30:00 PM 8.24 46.832 0.066 7.17 6.33 11.13
11/12/2021 9:45:00 PM 8.16 46.688 0.066 7.18 7.75 11.15
11/12/2021 10:00:00 PM 8.08 46.544 0.066 7.18 8.72 11.17
11/12/2021 10:15:00 PM 8.01 46.418 0.066 7.16 6.82 11.19
11/12/2021 10:30:00 PM 7.95 46.31 0.066 7.15 9.94 11.21
11/12/2021 10:45:00 PM 7.88 46.184 0.035 7.16 8.17 11.24
11/12/2021 11:00:00 PM 7.81 46.058 0.051 7.16 9.1 11.26
11/12/2021 11:15:00 PM 7.74 45.932 0.046 7.18 10.48 11.28
11/12/2021 11:30:00 PM 7.67 45.806 0.066 7.16 11.61 11.29
11/12/2021 11:45:00 PM 7.6 45.68 0.056 7.18 14.53 11.29
11/13/2021 12:00:00 AM 7.53 45.554 0.05 7.17 6.87 11.32
11/13/2021 12:15:00 AM 7.47 45.446 0.066 7.15 8.58 11.33
11/13/2021 12:30:00 AM 7.4 45.32 0.066 7.13 17.23 11.35
11/13/2021 12:45:00 AM 7.34 45.212 0.066 7.14 110.34 11.37
11/13/2021 1:00:00 AM 7.28 45.104 0.063 7.17 22 11.39
11/13/2021 1:15:00 AM 7.22 44.996 0.043 7.16 19.08 11.42
11/13/2021 1:30:00 AM 7.18 44.924 0.065 7.16 1741.2 11.43
11/13/2021 1:45:00 AM 7.13 44.834 0.065 7.16 6.19 11.44
11/13/2021 2:00:00 AM 7.09 44.762 0.062 7.14 6.51 11.45
11/13/2021 2:15:00 AM 7.06 44.708 0.042 7.13 14904.47 11.47
11/13/2021 2:30:00 AM 7.03 44.654 0.065 7.14 8.09 11.48
11/13/2021 2:45:00 AM 7.01 44.618 0.066 7.1 23.65 11.48
11/13/2021 3:00:00 AM 7 44.6 0.066 7.12 5.4 11.49
11/13/2021 3:15:00 AM 6.98 44.564 0.066 7.11 4.27 11.5
11/13/2021 3:30:00 AM 6.95 44.51 0.066 7.17 54.35 11.51
11/13/2021 3:45:00 AM 6.92 44.456 0.065 7.15 4.44 11.51
11/13/2021 4:00:00 AM 6.89 44.402 0.065 7.16 5.15 11.53
11/13/2021 4:15:00 AM 6.86 44.348 0.065 7.17 5.15 11.54
11/13/2021 4:30:00 AM 6.84 44.312 0.065 7.16 5.32 11.54
11/13/2021 4:45:00 AM 6.83 44.294 0.065 7.18 5.46 11.56
11/13/2021 5:00:00 AM 6.81 44.258 0.065 7.17 5.32 11.56
11/13/2021 5:15:00 AM 6.8 44.24 0.065 7.17 7.26 11.57
11/13/2021 5:30:00 AM 6.78 44.204 0.065 7.16 5.21 11.57
11/13/2021 5:45:00 AM 6.76 44.168 0.065 7.18 5.16 11.58
11/13/2021 6:00:00 AM 6.75 44.15 0.065 7.15 4.98 11.58
11/13/2021 6:15:00 AM 6.73 44.114 0.064 7.17 6.65 11.59
11/13/2021 6:30:00 AM 6.72 44.096 0.064 7.15 6.16 11.59
11/13/2021 6:45:00 AM 6.7 44.06 0.048 7.12 5.77 11.6
11/13/2021 7:00:00 AM 6.7 44.06 0.064 7.14 4.92 11.6
11/13/2021 7:15:00 AM 6.7 44.06 0.065 7.16 8.3 11.61
11/13/2021 7:30:00 AM 6.69 44.042 0.065 7.16 12.02 11.64
11/13/2021 7:45:00 AM 6.7 44.06 0.064 7.21 5.2 11.66
11/13/2021 8:00:00 AM 6.7 44.06 0.064 7.21 5.31 11.69
11/13/2021 8:15:00 AM 6.7 44.06 0.064 7.2 7.06 11.79
11/13/2021 8:30:00 AM 6.7 44.06 0.064 7.27 7.38 11.88
11/13/2021 8:45:00 AM 6.7 44.06 0.064 7.25 7.02 11.93
11/13/2021 9:00:00 AM 6.69 44.042 0.064 7.28 6.66 11.99
11/13/2021 9:15:00 AM 6.68 44.024 0.064 7.29 6.48 12.07
11/13/2021 9:30:00 AM 6.68 44.024 0.064 7.34 6.75 12.14
11/13/2021 9:45:00 AM 6.67 44.006 0.063 7.34 6.82 12.16
11/13/2021 10:00:00 AM 6.66 43.988 0.063 7.38 7.31 12.17
11/13/2021 10:15:00 AM 6.65 43.97 0.063 7.4 7.08 12.28
11/13/2021 10:30:00 AM 6.69 44.042 0.063 7.47 7.11 12.43
11/13/2021 10:45:00 AM 6.77 44.186 0.063 7.57 17.59 12.54
11/13/2021 11:00:00 AM 6.85 44.33 0.063 7.65 7.31 12.61
11/13/2021 11:15:00 AM 6.91 44.438 0.063 7.68 6.77 12.64
11/13/2021 11:30:00 AM 6.94 44.492 0.062 7.78 10.78 12.66
11/13/2021 11:45:00 AM 7.04 44.672 0.062 7.78 6.83 12.66
11/13/2021 12:00:00 PM 7.12 44.816 0.062 7.84 6.76 12.66
11/13/2021 12:15:00 PM 7.29 45.122 0.062 7.91 7.1 12.66
11/13/2021 12:30:00 PM 7.38 45.284 0.062 7.96 7.13 12.61
11/13/2021 12:45:00 PM 7.41 45.338 0.062 7.92 7.2 12.55
11/13/2021 1:00:00 PM 7.41 45.338 0.062 7.96 7.23 12.54
11/13/2021 1:15:00 PM 7.39 45.302 0.062 7.94 7.44 12.5
11/13/2021 1:30:00 PM 7.4 45.32 0.062 7.95 7 12.51
11/13/2021 1:45:00 PM 7.36 45.248 0.062 7.94 7.23 12.48
11/13/2021 2:00:00 PM 7.27 45.086 0.062 7.85 7.17 12.43
11/13/2021 2:15:00 PM 7.18 44.924 0.062 7.82 7.42 12.41
11/13/2021 2:30:00 PM 7.09 44.762 0.062 7.81 1498.34 12.43
11/13/2021 2:45:00 PM 7.01 44.618 0.062 7.81 7.48 12.41
11/13/2021 3:00:00 PM 6.95 44.51 0.062 7.76 6.79 12.42
11/13/2021 3:15:00 PM 6.91 44.438 0.062 7.75 6.84 12.4
11/13/2021 3:30:00 PM 6.87 44.366 0.063 7.7 7.03 12.36
11/13/2021 3:45:00 PM 6.82 44.276 0.064 7.61 6.86 12.29
11/13/2021 4:00:00 PM 6.77 44.186 0.064 7.55 6.93 12.22
11/13/2021 4:15:00 PM 6.73 44.114 0.064 7.51 6.8 12.13
11/13/2021 4:30:00 PM 6.69 44.042 0.064 7.45 6.81 12.05
11/13/2021 4:45:00 PM 6.64 43.952 0.064 7.37 6.77 11.97
11/13/2021 5:00:00 PM 6.61 43.898 0.064 7.37 6.88 11.9
11/13/2021 5:15:00 PM 6.57 43.826 0.064 7.31 6.8 11.84
11/13/2021 5:30:00 PM 6.54 43.772 0.064 7.32 6.84 11.8
11/13/2021 5:45:00 PM 6.51 43.718 0.064 7.27 6.62 11.77
11/13/2021 6:00:00 PM 6.49 43.682 0.064 7.27 6.59 11.76
11/13/2021 6:15:00 PM 6.46 43.628 0.064 7.26 6.45 11.75
11/13/2021 6:30:00 PM 6.43 43.574 0.065 7.26 6.57 11.74
11/13/2021 6:45:00 PM 6.4 43.52 0.065 7.25 6.56 11.74
11/13/2021 7:00:00 PM 6.37 43.466 0.065 7.23 6.57 11.74
11/13/2021 7:15:00 PM 6.33 43.394 0.065 7.23 7.69 11.74
11/13/2021 7:30:00 PM 6.31 43.358 0.065 7.23 7.86 11.75
11/13/2021 7:45:00 PM 6.28 43.304 0.065 7.22 8.35 11.75
11/13/2021 8:00:00 PM 6.26 43.268 0.065 7.2 8.3 11.76
11/13/2021 8:15:00 PM 6.23 43.214 0.065 7.2 8.27 11.77
11/13/2021 8:30:00 PM 6.2 43.16 0.065 7.22 8.38 11.78
11/13/2021 8:45:00 PM 6.18 43.124 0.065 7.2 8.48 11.8
11/13/2021 9:00:00 PM 6.16 43.088 0.065 7.2 8.41 11.79
11/13/2021 9:15:00 PM 6.13 43.034 0.065 7.19 8.36 11.8
11/13/2021 9:30:00 PM 6.11 42.998 0.065 7.19 8.34 11.82
11/13/2021 9:45:00 PM 6.1 42.98 0.065 7.19 8.4 11.82
11/13/2021 10:00:00 PM 6.08 42.944 0.065 7.18 8.39 11.83
11/13/2021 10:15:00 PM 6.07 42.926 0.065 7.18 8.65 11.84
11/13/2021 10:30:00 PM 6.05 42.89 0.065 7.2 8.71 11.84
11/13/2021 10:45:00 PM 6.04 42.872 0.065 7.17 8.7 11.85
11/13/2021 11:00:00 PM 6.03 42.854 0.065 7.17 8.38 11.85
11/13/2021 11:15:00 PM 6.02 42.836 0.066 7.19 8.25 11.85
11/13/2021 11:30:00 PM 6 42.8 0.066 7.18 8.53 11.86
11/13/2021 11:45:00 PM 5.99 42.782 0.066 7.18 8.31 11.86
11/14/2021 12:00:00 AM 5.97 42.746 0.066 7.19 8.92 11.87
11/14/2021 12:15:00 AM 5.96 42.728 0.065 7.2 8.54 11.87
11/14/2021 12:30:00 AM 5.94 42.692 0.065 7.19 8.91 11.88
11/14/2021 12:45:00 AM 5.92 42.656 0.065 7.17 9.51 11.88
11/14/2021 1:00:00 AM 5.91 42.638 0.065 7.17 4.73 11.88
11/14/2021 1:15:00 AM 5.89 42.602 0.065 7.19 5.21 11.9
11/14/2021 1:30:00 AM 5.87 42.566 0.065 7.19 4.96 11.9
11/14/2021 1:45:00 AM 5.85 42.53 0.065 7.19 5.05 11.91
11/14/2021 2:00:00 AM 5.82 42.476 0.065 7.19 8.01 11.92
11/14/2021 2:15:00 AM 5.8 42.44 0.065 7.2 10.01 11.93
11/14/2021 2:30:00 AM 5.79 42.422 0.065 7.18 6.45 11.93
11/14/2021 2:45:00 AM 5.77 42.386 0.065 7.17 4.66 11.93
11/14/2021 3:00:00 AM 5.75 42.35 0.065 7.2 5.19 11.94
11/14/2021 3:15:00 AM 5.73 42.314 0.065 7.19 4.8 11.95
11/14/2021 3:30:00 AM 5.71 42.278 0.065 7.19 4.81 11.95
11/14/2021 3:45:00 AM 5.7 42.26 0.065 7.15 4.84 11.96
11/14/2021 4:00:00 AM 5.68 42.224 0.065 7.17 4.81 11.96
11/14/2021 4:15:00 AM 5.66 42.188 0.065 7.16 5.06 11.97
11/14/2021 4:30:00 AM 5.64 42.152 0.065 7.19 5 11.98
11/14/2021 4:45:00 AM 5.62 42.116 0.065 7.16 4.92 11.99
11/14/2021 5:00:00 AM 5.6 42.08 0.065 7.18 5.03 12
11/14/2021 5:15:00 AM 5.59 42.062 0.065 7.19 5.28 12.01
11/14/2021 5:30:00 AM 5.57 42.026 0.065 7.21 5.64 12.01
11/14/2021 5:45:00 AM 5.55 41.99 0.065 7.18 5.75 12.02
11/14/2021 6:00:00 AM 5.53 41.954 0.065 7.2 8.11 12.03
11/14/2021 6:15:00 AM 5.51 41.918 0.065 7.18 8.41 12.04
11/14/2021 6:30:00 AM 5.5 41.9 0.065 7.19 8.59 12.04
11/14/2021 6:45:00 AM 5.49 41.882 0.065 7.21 9.06 12.05
11/14/2021 7:00:00 AM 5.48 41.864 0.065 7.21 9 12.06
11/14/2021 7:15:00 AM 5.46 41.828 0.065 7.21 8.97 12.09
11/14/2021 7:30:00 AM 5.44 41.792 0.065 7.23 9.03 12.16
11/14/2021 7:45:00 AM 5.43 41.774 0.065 7.24 8.93 12.24
11/14/2021 8:00:00 AM 5.42 41.756 0.065 7.27 8.81 12.33
11/14/2021 8:15:00 AM 5.42 41.756 0.064 7.28 8.95 12.4
11/14/2021 8:30:00 AM 5.42 41.756 0.064 7.31 8.56 12.49
11/14/2021 8:45:00 AM 5.42 41.756 0.064 7.32 8.61 12.58
11/14/2021 9:00:00 AM 5.43 41.774 0.064 7.34 8.55 12.63
11/14/2021 9:15:00 AM 5.44 41.792 0.064 7.38 8.46 12.7
11/14/2021 9:30:00 AM 5.46 41.828 0.063 7.41 8.49 12.79
11/14/2021 9:45:00 AM 5.51 41.918 0.063 7.48 8.72 12.89
11/14/2021 10:00:00 AM 5.59 42.062 0.063 7.54 8.96 12.96
11/14/2021 10:15:00 AM 5.64 42.152 0.063 7.62 8.86 13.01
11/14/2021 10:30:00 AM 5.68 42.224 0.063 7.66 8.99 13.03
11/14/2021 10:45:00 AM 5.74 42.332 0.063 7.7 10.26 13.05
11/14/2021 11:00:00 AM 5.79 42.422 0.063 7.76 4.87 13.06
11/14/2021 11:15:00 AM 5.84 42.512 0.063 7.78 5.43 13.06
11/14/2021 11:30:00 AM 5.93 42.674 0.064 7.83 8.57 13.06
11/14/2021 11:45:00 AM 6.01 42.818 0.065 7.87 5.85 13.05
11/14/2021 12:00:00 PM 6.06 42.908 0.064 7.89 5.52 13.02
11/14/2021 12:15:00 PM 6.09 42.962 0.064 7.91 5.42 13
11/14/2021 12:30:00 PM 6.1 42.98 0.063 7.91 5.58 12.96
11/14/2021 12:45:00 PM 6.11 42.998 0.063 7.94 5.8 12.95
11/14/2021 1:00:00 PM 6.12 43.016 0.062 7.92 13.7 12.93
11/14/2021 1:15:00 PM 6.11 42.998 0.062 7.94 13.84 12.9
11/14/2021 1:30:00 PM 6.11 42.998 0.062 7.93 10.08 12.89
11/14/2021 1:45:00 PM 6.11 42.998 0.062 7.94 5.77 12.89
11/14/2021 2:00:00 PM 6.08 42.944 0.062 7.89 5.54 12.81
11/14/2021 2:15:00 PM 6.06 42.908 0.062 7.76 24.4 12.72
11/14/2021 2:30:00 PM 6.03 42.854 0.062 7.69 6.41 12.65
11/14/2021 2:45:00 PM 6 42.8 0.062 7.64 9.28 12.6
11/14/2021 3:00:00 PM 5.98 42.764 0.062 7.62 8.61 12.54
11/14/2021 3:15:00 PM 5.95 42.71 0.063 7.55 8.36 12.48
11/14/2021 3:30:00 PM 5.9 42.62 0.063 7.53 5.13 12.44
11/14/2021 3:45:00 PM 5.84 42.512 0.063 7.47 5.07 12.4
11/14/2021 4:00:00 PM 5.78 42.404 0.063 7.45 6.18 12.37
11/14/2021 4:15:00 PM 5.73 42.314 0.063 7.42 6.97 12.32
11/14/2021 4:30:00 PM 5.68 42.224 0.063 7.38 5.42 12.25
11/14/2021 4:45:00 PM 5.63 42.134 0.063 7.36 6 12.19
11/14/2021 5:00:00 PM 5.59 42.062 0.063 7.32 5.89 12.14
11/14/2021 5:15:00 PM 5.49 41.882 0.063 7.31 6.79 12.11
11/14/2021 5:30:00 PM 5.43 41.774 0.064 7.28 5.78 12.09
11/14/2021 5:45:00 PM 5.36 41.648 0.064 7.26 5.87 12.08
11/14/2021 6:00:00 PM 5.29 41.522 0.064 7.24 5.86 12.08
11/14/2021 6:15:00 PM 5.23 41.414 0.064 7.23 5.89 12.09
11/14/2021 6:30:00 PM 5.19 41.342 0.065 7.23 5.68 12.09
11/14/2021 6:45:00 PM 5.15 41.27 0.066 7.22 6.23 12.1
11/14/2021 7:00:00 PM 5.11 41.198 0.066 7.22 7.44 12.11
11/14/2021 7:15:00 PM 5.08 41.144 0.066 7.22 7.99 12.12
11/14/2021 7:30:00 PM 5.04 41.072 0.065 7.22 5.86 12.13
11/14/2021 7:45:00 PM 5.01 41.018 0.065 7.22 6.63 12.14
11/14/2021 8:00:00 PM 4.99 40.982 0.065 7.21 6.83 12.15
11/14/2021 8:15:00 PM 4.97 40.946 0.065 7.21 7.41 12.16
11/14/2021 8:30:00 PM 4.96 40.928 0.065 7.19 7.15 12.16
11/14/2021 8:45:00 PM 4.95 40.91 0.065 7.2 6.94 12.18
11/14/2021 9:00:00 PM 4.94 40.892 0.065 7.2 9.57 12.18
11/14/2021 9:15:00 PM 4.93 40.874 0.065 7.22 6.21 12.18
11/14/2021 9:30:00 PM 4.92 40.856 0.065 7.19 5.39 12.19
11/14/2021 9:45:00 PM 4.93 40.874 0.065 7.21 6.85 12.19
11/14/2021 10:00:00 PM 4.93 40.874 0.065 7.21 10.03 12.18
11/14/2021 10:15:00 PM 4.92 40.856 0.065 7.19 9.36 12.18
11/14/2021 10:30:00 PM 4.91 40.838 0.065 7.19 9.26 12.19
11/14/2021 10:45:00 PM 4.9 40.82 0.065 7.19 9.15 12.2
11/14/2021 11:00:00 PM 4.89 40.802 0.065 7.18 8.55 12.2
11/14/2021 11:15:00 PM 4.88 40.784 0.065 7.19 8.42 12.21
11/14/2021 11:30:00 PM 4.88 40.784 0.065 7.2 8.29 12.2
11/14/2021 11:45:00 PM 4.87 40.766 0.065 7.18 8.54 12.21
11/15/2021 12:00:00 AM 4.86 40.748 0.065 7.19 15.42 12.22
11/15/2021 12:15:00 AM 4.85 40.73 0.065 7.18 8.14 12.22
11/15/2021 12:30:00 AM 4.84 40.712 0.065 7.19 6.28 12.22
11/15/2021 12:45:00 AM 4.83 40.694 0.065 7.17 5.66 12.23
11/15/2021 1:00:00 AM 4.82 40.676 0.065 7.18 5.78 12.23
11/15/2021 1:15:00 AM 4.81 40.658 0.065 7.19 5.62 12.23
11/15/2021 1:30:00 AM 4.8 40.64 0.066 7.17 5.66 12.24
11/15/2021 1:45:00 AM 4.78 40.604 0.067 7.18 5.59 12.24
11/15/2021 2:00:00 AM 4.77 40.586 0.067 7.2 5.54 12.25
11/15/2021 2:15:00 AM 4.76 40.568 0.066 7.17 5.91 12.25
11/15/2021 2:30:00 AM 4.76 40.568 0.066 7.18 6.03 12.25
11/15/2021 2:45:00 AM 4.75 40.55 0.065 7.2 5.8 12.26
11/15/2021 3:00:00 AM 4.75 40.55 0.065 7.18 5.98 12.26
11/15/2021 3:15:00 AM 4.74 40.532 0.065 7.2 5.86 12.26
11/15/2021 3:30:00 AM 4.73 40.514 0.065 7.18 5.96 12.26
11/15/2021 3:45:00 AM 4.72 40.496 0.065 7.19 5.86 12.27
11/15/2021 4:00:00 AM 4.72 40.496 0.065 7.17 6.07 12.27
11/15/2021 4:15:00 AM 4.72 40.496 0.065 7.19 6.2 12.27
11/15/2021 4:30:00 AM 4.71 40.478 0.065 7.17 6.16 12.27
11/15/2021 4:45:00 AM 4.7 40.46 0.065 7.2 6.21 12.28
11/15/2021 5:00:00 AM 4.7 40.46 0.065 7.17 6.26 12.28
11/15/2021 5:15:00 AM 4.69 40.442 0.065 7.18 6.03 12.29
11/15/2021 5:30:00 AM 4.69 40.442 0.065 7.17 6.13 12.29
11/15/2021 5:45:00 AM 4.68 40.424 0.065 7.2 6.13 12.29
11/15/2021 6:00:00 AM 4.67 40.406 0.065 7.18 6.1 12.3
11/15/2021 6:15:00 AM 4.67 40.406 0.065 7.19 6.11 12.3
11/15/2021 6:30:00 AM 4.66 40.388 0.065 7.2 6.04 12.3
11/15/2021 6:45:00 AM 4.65 40.37 0.065 7.17 6.08 12.31
11/15/2021 7:00:00 AM 4.65 40.37 0.065 7.18 6.06 12.32
11/15/2021 7:15:00 AM 4.65 40.37 0.065 7.2 6.07 12.35
11/15/2021 7:30:00 AM 4.65 40.37 0.065 7.22 6.12 12.39
11/15/2021 7:45:00 AM 4.66 40.388 0.064 7.23 6.21 12.48
11/15/2021 8:00:00 AM 4.66 40.388 0.064 7.25 6.1 12.56
11/15/2021 8:15:00 AM 4.67 40.406 0.064 7.26 6.15 12.68
11/15/2021 8:30:00 AM 4.69 40.442 0.064 7.31 6.17 12.8
11/15/2021 8:45:00 AM 4.71 40.478 0.064 7.34 6.04 12.91
11/15/2